
Distance (Route):
Temperature : -17.8°C
Humidity : 23.2%
Pressure : 0hPa| Receiver | Frames | First received | Last received |
|---|---|---|---|
| IW2NTF | 519 | 2026-09-04 23:13:11 | 2026-09-05 00:48:29 |
| DO3MHA-11 | 176 | 2026-09-04 23:54:43 | 2026-09-05 00:42:22 |
| DO3MHA-12 | 52 | 2026-09-05 00:20:16 | 2026-09-05 00:29:16 |
| NBG1-10 | 22 | 2026-09-05 00:20:59 | 2026-09-05 00:38:49 |
| DB0UT-7 | 21 | 2026-09-05 00:25:32 | 2026-09-05 00:39:01 |
| DB0NH | 3 | 2026-09-05 00:29:05 | 2026-09-05 00:30:05 |
| S52SK | 2 | 2026-09-05 00:01:08 | 2026-09-05 00:09:57 |
| Receiver | Date | Latitude | Longitude | Direction | Speed | Altitude | Climb | Temperature | Humidity | Pressure | Voltage | Killtimer | Uptime | BKT | XDATA |
|---|---|---|---|---|---|---|---|---|---|---|---|---|---|---|---|
| IW2NTF | 2026-09-05 00:48:29 | 44.65059 | 12.31462 | 100° | 44km/h | 7188m | -21.3m/s | -17.8°C | 23.2% | 0hPa | 2.6V | 08:20:16 | 02:14:35 | 00:00:00 | |
| IW2NTF | 2026-09-05 00:47:28 | 44.65156 | 12.30528 | 80° | 46km/h | 8451m | -22.2m/s | -27.3°C | 17.9% | 0hPa | 2.6V | 08:21:16 | 02:13:35 | 00:00:00 | |
| IW2NTF | 2026-09-05 00:47:19 | 44.65142 | 12.30346 | 86° | 55km/h | 8671m | -22.1m/s | -28°C | 11.7% | 0hPa | 2.5V | 08:21:26 | 02:13:25 | 00:00:00 | |
| IW2NTF | 2026-09-05 00:46:57 | 44.65139 | 12.29879 | 91° | 62km/h | 9191m | -23.3m/s | -31.4°C | 12.3% | 0hPa | 2.5V | 08:21:49 | 02:13:02 | 00:00:00 | |
| IW2NTF | 2026-09-05 00:46:47 | 44.65155 | 12.29666 | 97° | 62km/h | 9427m | -23.6m/s | -33.1°C | 13.4% | 0hPa | 2.5V | 08:21:59 | 02:12:52 | 00:00:00 | |
| IW2NTF | 2026-09-05 00:46:36 | 44.65178 | 12.29449 | 97° | 64km/h | 9661m | -23.7m/s | -35°C | 15.9% | 0hPa | 2.6V | 08:22:09 | 02:12:42 | 00:00:00 | |
| IW2NTF | 2026-09-05 00:46:26 | 44.65207 | 12.29221 | 98° | 66km/h | 9898m | -24.5m/s | -37°C | 18.9% | 0hPa | 2.6V | 08:22:19 | 02:12:32 | 00:00:00 | |
| IW2NTF | 2026-09-05 00:46:16 | 44.65227 | 12.28989 | 94° | 66km/h | 10141m | -24.5m/s | -39.1°C | 21.3% | 0hPa | 2.5V | 08:22:29 | 02:12:22 | 00:00:00 | |
| IW2NTF | 2026-09-05 00:46:07 | 44.65238 | 12.28747 | 94° | 68km/h | 10386m | -24.7m/s | -41.3°C | 23.3% | 0hPa | 2.5V | 08:22:39 | 02:12:12 | 00:00:00 | |
| IW2NTF | 2026-09-05 00:45:56 | 44.65243 | 12.28502 | 87° | 71km/h | 10631m | -24.9m/s | -43.1°C | 23.9% | 0hPa | 2.5V | 08:22:49 | 02:12:02 | 00:00:00 | |
| IW2NTF | 2026-09-05 00:45:46 | 44.65233 | 12.28259 | 85° | 69km/h | 10885m | -25.8m/s | -45.2°C | 24.1% | 0hPa | 2.6V | 08:22:59 | 02:11:52 | 00:00:00 | |
| IW2NTF | 2026-09-05 00:45:36 | 44.65227 | 12.28022 | 90° | 68km/h | 11134m | -26.3m/s | -46.7°C | 26% | 0hPa | 2.5V | 08:23:09 | 02:11:42 | 00:00:00 | |
| IW2NTF | 2026-09-05 00:45:25 | 44.65212 | 12.27736 | 83° | 68km/h | 11453m | -26.6m/s | -49.6°C | 31.6% | 0hPa | 2.6V | 08:23:21 | 02:11:30 | 00:00:00 | |
| IW2NTF | 2026-09-05 00:45:15 | 44.65182 | 12.27519 | 71° | 60km/h | 11717m | -27m/s | -52°C | 33.6% | 0hPa | 2.5V | 08:23:31 | 02:11:20 | 00:00:00 | |
| IW2NTF | 2026-09-05 00:45:05 | 44.65125 | 12.27325 | 61° | 60km/h | 11986m | -27.3m/s | -53.6°C | 33.5% | 0hPa | 2.5V | 08:23:41 | 02:11:10 | 00:00:00 | |
| IW2NTF | 2026-09-05 00:44:54 | 44.65044 | 12.27095 | 67° | 64km/h | 12308m | -26.7m/s | -56.2°C | 34.4% | 0hPa | 2.5V | 08:23:53 | 02:10:58 | 00:00:00 | |
| IW2NTF | 2026-09-05 00:44:42 | 44.64996 | 12.26875 | 77° | 68km/h | 12588m | -29.2m/s | -58.3°C | 33.7% | 0hPa | 2.5V | 08:24:03 | 02:10:48 | 00:00:00 | |
| IW2NTF | 2026-09-05 00:44:32 | 44.64965 | 12.26644 | 79° | 68km/h | 12878m | -29.8m/s | -60.6°C | 31.3% | 0hPa | 2.6V | 08:24:13 | 02:10:38 | 00:00:00 | |
| IW2NTF | 2026-09-05 00:44:22 | 44.64938 | 12.26422 | 80° | 60km/h | 13177m | -30.6m/s | -62.5°C | 28.5% | 0hPa | 2.5V | 08:24:23 | 02:10:28 | 00:00:00 | |
| IW2NTF | 2026-09-05 00:44:12 | 44.64925 | 12.26209 | 85° | 60km/h | 13481m | -31.1m/s | -65°C | 26.4% | 0hPa | 2.5V | 08:24:33 | 02:10:18 | 00:00:00 | |
| IW2NTF | 2026-09-05 00:44:02 | 44.64909 | 12.25989 | 84° | 68km/h | 13791m | -30.8m/s | -65.9°C | 21.5% | 0hPa | 2.5V | 08:24:43 | 02:10:08 | 00:00:00 | |
| IW2NTF | 2026-09-05 00:43:52 | 44.64918 | 12.25759 | 97° | 60km/h | 14103m | -31.1m/s | -66°C | 16.2% | 0hPa | 2.6V | 08:24:53 | 02:09:58 | 00:00:00 | |
| IW2NTF | 2026-09-05 00:43:42 | 44.64925 | 12.25581 | 83° | 47km/h | 14418m | -32.1m/s | -64.3°C | 12.4% | 0hPa | 2.5V | 08:25:03 | 02:09:48 | 00:00:00 | |
| IW2NTF | 2026-09-05 00:43:32 | 44.64923 | 12.25388 | 92° | 58km/h | 14743m | -33.5m/s | -64.6°C | 11.3% | 0hPa | 2.6V | 08:25:13 | 02:09:38 | 00:00:00 | |
| IW2NTF | 2026-09-05 00:43:23 | 44.64931 | 12.25197 | 89° | 46km/h | 15077m | -32.2m/s | -63°C | 9.3% | 0hPa | 2.5V | 08:25:23 | 02:09:28 | 00:00:00 | |
| IW2NTF | 2026-09-05 00:43:12 | 44.64934 | 12.25028 | 106° | 49km/h | 15404m | -34m/s | -61.3°C | 7.5% | 0hPa | 2.5V | 08:25:33 | 02:09:18 | 00:00:00 | |
| IW2NTF | 2026-09-05 00:43:03 | 44.64965 | 12.24882 | 100° | 37km/h | 15734m | -34.1m/s | -61.4°C | 7.2% | 0hPa | 2.6V | 08:25:43 | 02:09:08 | 00:00:00 | |
| IW2NTF | 2026-09-05 00:42:52 | 44.64975 | 12.24751 | 98° | 42km/h | 16071m | -34.6m/s | -62°C | 7.5% | 0hPa | 2.6V | 08:25:53 | 02:08:58 | 00:00:00 | |
| IW2NTF | 2026-09-05 00:42:43 | 44.64982 | 12.24625 | 94° | 35km/h | 16406m | -34.5m/s | -62.7°C | 8.1% | 0hPa | 2.5V | 08:26:03 | 02:08:48 | 00:00:00 | |
| IW2NTF | 2026-09-05 00:42:32 | 44.64994 | 12.24503 | 86° | 40km/h | 16756m | -36.3m/s | -63.5°C | 8.6% | 0hPa | 2.5V | 08:26:13 | 02:08:38 | 00:00:00 | |
| IW2NTF | 2026-09-05 00:42:22 | 44.64998 | 12.24338 | 98° | 51km/h | 17110m | -34.1m/s | -60.6°C | 6.8% | 0hPa | 2.5V | 08:26:23 | 02:08:28 | 00:00:00 | |
| DO3MHA-11 | 2026-09-05 00:42:22 | 44.64993 | 12.24426 | 92° | 46km/h | 16935m | -34.8m/s | -60.8°C | 7.1% | 0hPa | 2.5V | 00:00:00 | 02:08:33 | 00:00:00 | |
| IW2NTF | 2026-09-05 00:42:06 | 44.65033 | 12.24171 | 102° | 29km/h | 17546m | -35.6m/s | -59.3°C | 6.2% | 0hPa | 2.5V | 08:26:35 | 02:08:16 | 00:00:00 | |
| IW2NTF | 2026-09-05 00:42:00 | 44.65029 | 12.24079 | 86° | 24km/h | 17926m | -40.3m/s | -58.6°C | 5.7% | 0hPa | 2.5V | 08:26:45 | 02:08:06 | 00:00:00 | |
| IW2NTF | 2026-09-05 00:41:46 | 44.65014 | 12.23993 | 78° | 27km/h | 18315m | -39.3m/s | -58.4°C | 5.8% | 0hPa | 2.5V | 08:26:55 | 02:07:56 | 00:00:00 | |
| IW2NTF | 2026-09-05 00:41:40 | 44.65008 | 12.23891 | 90° | 27km/h | 18687m | -39.3m/s | -59.7°C | 6.3% | 0hPa | 2.5V | 08:27:05 | 02:07:46 | 00:00:00 | |
| IW2NTF | 2026-09-05 00:41:26 | 44.65013 | 12.23801 | 91° | 31km/h | 19081m | -37.7m/s | -57.8°C | 5.6% | 0hPa | 2.5V | 08:27:15 | 02:07:36 | 00:00:00 | |
| DO3MHA-11 | 2026-09-05 00:41:26 | 44.65013 | 12.23811 | 88° | 35km/h | 19042m | -39.7m/s | -57.6°C | 5.5% | 0hPa | 2.5V | 00:00:00 | 02:07:37 | 00:00:00 | |
| IW2NTF | 2026-09-05 00:41:20 | 44.65025 | 12.23679 | 111° | 35km/h | 19461m | -37m/s | -58.4°C | 6.1% | 0hPa | 2.5V | 08:27:25 | 02:07:26 | 00:00:00 | |
| DO3MHA-11 | 2026-09-05 00:41:16 | 44.65023 | 12.23690 | 103° | 27km/h | 19424m | -37.1m/s | -58.4°C | 6.1% | 0hPa | 2.5V | 00:00:00 | 02:07:27 | 00:00:00 | |
| IW2NTF | 2026-09-05 00:41:06 | 44.65052 | 12.23598 | 124° | 15km/h | 19876m | -40.9m/s | -56.9°C | 5.5% | 0hPa | 2.5V | 08:27:35 | 02:07:16 | 00:00:00 | |
| DO3MHA-11 | 2026-09-05 00:41:06 | 44.65050 | 12.23603 | 133° | 11km/h | 19835m | -41.7m/s | -56.7°C | 5.5% | 0hPa | 2.5V | 00:00:00 | 02:07:17 | 00:00:00 | |
| IW2NTF | 2026-09-05 00:41:01 | 44.65087 | 12.23529 | 137° | 29km/h | 20301m | -40m/s | -57.4°C | 5.9% | 0hPa | 2.5V | 08:27:45 | 02:07:06 | 00:00:00 | |
| IW2NTF | 2026-09-05 00:40:46 | 44.65121 | 12.23506 | 141° | 5km/h | 20731m | -45.2m/s | -55.4°C | 5% | 0hPa | 2.5V | 08:27:55 | 02:06:56 | 00:00:00 | |
| DO3MHA-11 | 2026-09-05 00:40:46 | 44.65120 | 12.23507 | 141° | 7km/h | 20686m | -46.8m/s | -55.6°C | 5.1% | 0hPa | 2.5V | 00:00:00 | 02:06:57 | 00:00:00 | |
| IW2NTF | 2026-09-05 00:40:40 | 44.65131 | 12.23502 | 233° | 2km/h | 21177m | -45.9m/s | -55.3°C | 5.2% | 0hPa | 2.5V | 08:28:05 | 02:06:46 | 00:00:00 | |
| IW2NTF | 2026-09-05 00:40:26 | 44.65134 | 12.23507 | 85° | 2km/h | 21597m | -40.9m/s | -54.8°C | 5.1% | 0hPa | 2.5V | 08:28:15 | 02:06:36 | 00:00:00 | |
| IW2NTF | 2026-09-05 00:40:20 | 44.65140 | 12.23507 | 228° | 9km/h | 22044m | -46.3m/s | -53.6°C | 4.8% | 0hPa | 2.6V | 08:28:25 | 02:06:26 | 00:00:00 | |
| IW2NTF | 2026-09-05 00:40:06 | 44.65125 | 12.23537 | 320° | 16km/h | 22526m | -49.9m/s | -52.1°C | 4.2% | 0hPa | 2.6V | 08:28:35 | 02:06:16 | 00:00:00 | |
| IW2NTF | 2026-09-05 00:40:00 | 44.65086 | 12.23544 | 20° | 11km/h | 23026m | -49.2m/s | -52.9°C | 4.5% | 0hPa | 2.6V | 08:28:45 | 02:06:06 | 00:00:00 | |
| DO3MHA-11 | 2026-09-05 00:39:57 | 44.65093 | 12.23547 | 11° | 7km/h | 22927m | -49.6m/s | -53.2°C | 4.7% | 0hPa | 2.5V | 08:28:00 | 02:06:08 | 00:00:00 | |
| DO3MHA-11 | 2026-09-05 00:39:47 | 44.65083 | 12.23532 | 36° | 5km/h | 23432m | -52.1m/s | -52.8°C | 4.6% | 0hPa | 2.5V | 00:00:00 | 02:05:58 | 00:00:00 | |
| IW2NTF | 2026-09-05 00:39:46 | 44.65082 | 12.23531 | 355° | 7km/h | 23538m | -53.2m/s | -53°C | 4.7% | 0hPa | 2.5V | 08:28:55 | 02:05:56 | 00:00:00 | |
| IW2NTF | 2026-09-05 00:39:39 | 44.65072 | 12.23534 | 286° | 4km/h | 24197m | -54.8m/s | -52.6°C | 4.9% | 0hPa | 2.6V | 08:30:00 | 02:05:44 | 00:00:00 | |
| DO3MHA-11 | 2026-09-05 00:39:37 | 44.65071 | 12.23530 | 193° | 4km/h | 23976m | -55.5m/s | -52.4°C | 4.7% | 0hPa | 2.6V | 00:00:00 | 02:05:48 | 00:00:00 | |
| DO3MHA-11 | 2026-09-05 00:39:27 | 44.65070 | 12.23542 | 260° | 5km/h | 24528m | -55.5m/s | -52.2°C | 4.9% | 0hPa | 2.6V | 00:00:00 | 02:05:38 | 00:00:00 | |
| IW2NTF | 2026-09-05 00:39:24 | 44.65071 | 12.23542 | 98° | 2km/h | 24756m | -57.5m/s | -51.9°C | 4.9% | 0hPa | 2.5V | 08:30:00 | 02:05:34 | 00:00:00 | |
| DO3MHA-11 | 2026-09-05 00:39:17 | 44.65076 | 12.23532 | 166° | 4km/h | 25117m | -61.5m/s | -50.2°C | 4.4% | 0hPa | 2.5V | 00:00:00 | 02:05:28 | 00:00:00 | |
| IW2NTF | 2026-09-05 00:39:16 | 44.65075 | 12.23528 | 62° | 7km/h | 25364m | -61.7m/s | -49.3°C | 4.1% | 0hPa | 2.5V | 08:30:00 | 02:05:24 | 00:00:00 | |
| IW2NTF | 2026-09-05 00:39:08 | 44.65065 | 12.23499 | 47° | 13km/h | 25997m | -64.8m/s | -48.9°C | 4% | 0hPa | 2.5V | 08:30:00 | 02:05:14 | 00:00:00 | |
| DB0UT-7 | 2026-09-05 00:39:01 | 44.65061 | 12.23490 | 66° | 11km/h | 26130m | -67.5m/s | -48.1°C | 3.8% | 0hPa | 2.5V | 00:00:00 | 02:05:12 | 00:00:00 | |
| IW2NTF | 2026-09-05 00:38:54 | 44.65064 | 12.23449 | 108° | 15km/h | 26667m | -67.9m/s | -47.2°C | 3.6% | 0hPa | 2.5V | 08:30:00 | 02:05:04 | 00:00:00 | |
| NBG1-10 | 2026-09-05 00:38:49 | 44.65071 | 12.23430 | 120° | 7km/h | 26939m | -67.9m/s | -47.8°C | 3.9% | 0hPa | 2.5V | 00:00:00 | 02:05:00 | 00:00:00 | |
| IW2NTF | 2026-09-05 00:38:46 | 44.65083 | 12.23416 | 173° | 9km/h | 27355m | -71.3m/s | -48°C | 4.1% | 0hPa | 2.5V | 08:30:00 | 02:04:54 | 00:00:00 | |
| IW2NTF | 2026-09-05 00:38:38 | 44.65095 | 12.23428 | 268° | 4km/h | 28091m | -74.5m/s | -45.4°C | 3.4% | 0hPa | 2.5V | 08:30:00 | 02:04:44 | 00:00:00 | |
| DB0UT-7 | 2026-09-05 00:38:31 | 44.65095 | 12.23431 | 295° | 5km/h | 28241m | -74.9m/s | -45.6°C | 3.5% | 0hPa | 2.5V | 00:00:00 | 00:00:00 | 00:00:00 | |
| IW2NTF | 2026-09-05 00:38:26 | 44.65083 | 12.23443 | 333° | 7km/h | 28830m | -68.9m/s | -44.3°C | 3.1% | 0hPa | 2.5V | 08:30:00 | 02:04:34 | 00:00:00 | |
| IW2NTF | 2026-09-05 00:38:16 | 44.65083 | 12.23449 | 276° | 4km/h | 29377m | -30m/s | -44°C | 3% | 0hPa | 2.5V | 08:30:00 | 02:04:24 | 00:00:00 | |
| NBG1-10 | 2026-09-05 00:38:16 | 44.65082 | 12.23446 | 255° | 9km/h | 29256m | -49.7m/s | -43.6°C | 2.8% | 0hPa | 2.6V | 00:00:00 | 02:04:27 | 00:00:00 | |
| DO3MHA-11 | 2026-09-05 00:38:11 | 44.65082 | 12.23452 | 255° | 9km/h | 29423m | -14.4m/s | -44.0°C | 3.1% | 0hPa | 2.6V | 00:00:00 | 02:04:22 | 00:00:00 | |
| DB0UT-7 | 2026-09-05 00:38:01 | 44.65072 | 12.23460 | 309° | 9km/h | 29388m | 5.3m/s | -44.1°C | 3.0% | 0hPa | 2.6V | 00:00:00 | 02:04:12 | 08:30:00 | |
| IW2NTF | 2026-09-05 00:37:59 | 44.65065 | 12.23473 | 305° | 16km/h | 29371m | 5m/s | -44.2°C | 3.1% | 0hPa | 2.5V | 08:30:00 | 02:04:09 | 00:00:00 | |
| DO3MHA-11 | 2026-09-05 00:37:58 | 44.65065 | 12.23473 | 306° | 13km/h | 29371m | 4.9m/s | -44.2°C | 3.1% | 0hPa | 2.5V | 00:00:00 | 02:04:09 | 00:00:00 | |
| IW2NTF | 2026-09-05 00:37:53 | 44.65052 | 12.23508 | 339° | 5km/h | 29313m | 5.4m/s | -44.4°C | 3.1% | 0hPa | 2.5V | 08:30:00 | 02:03:59 | 00:00:00 | |
| DO3MHA-11 | 2026-09-05 00:37:48 | 44.65052 | 12.23508 | 340° | 7km/h | 29314m | 5.4m/s | -44.3°C | 3.1% | 0hPa | 2.5V | 00:00:00 | 02:03:59 | 00:00:00 | |
| IW2NTF | 2026-09-05 00:37:43 | 44.65044 | 12.23527 | 292° | 9km/h | 29257m | 6.4m/s | -44.4°C | 3.2% | 0hPa | 2.5V | 08:30:00 | 02:03:49 | 00:00:00 | |
| NBG1-10 | 2026-09-05 00:37:43 | 44.65045 | 12.23514 | 309° | 7km/h | 29285m | 5.2m/s | -44.4°C | 3.2% | 0hPa | 2.5V | 00:00:00 | 02:03:54 | 00:00:00 | |
| DO3MHA-11 | 2026-09-05 00:37:38 | 44.65044 | 12.23527 | 293° | 7km/h | 29257m | 6.4m/s | -44.4°C | 3.2% | 0hPa | 2.5V | 00:00:00 | 02:03:49 | 00:00:00 | |
| IW2NTF | 2026-09-05 00:37:33 | 44.65034 | 12.23544 | 302° | 11km/h | 29200m | 5.7m/s | -44.3°C | 3.1% | 0hPa | 2.5V | 08:30:00 | 02:03:39 | 00:00:00 | |
| DB0UT-7 | 2026-09-05 00:37:31 | 44.65036 | 12.23538 | 235° | 13km/h | 29219m | 5.1m/s | -44.3°C | 3.1% | 0hPa | 2.5V | 00:00:00 | 00:00:00 | 00:00:00 | |
| DO3MHA-11 | 2026-09-05 00:37:27 | 44.65033 | 12.23547 | 296° | 9km/h | 29195m | 5.5m/s | -44.2°C | 3.1% | 0hPa | 2.5V | 00:00:00 | 02:03:38 | 08:30:00 | |
| IW2NTF | 2026-09-05 00:37:22 | 44.65022 | 12.23566 | 12° | 7km/h | 29141m | 6.6m/s | -44°C | 3% | 0hPa | 2.5V | 08:30:00 | 02:03:29 | 00:00:00 | |
| DO3MHA-11 | 2026-09-05 00:37:17 | 44.65020 | 12.23566 | 17° | 9km/h | 29136m | 5.4m/s | -43.9°C | 3.0% | 0hPa | 2.5V | 00:00:00 | 02:03:28 | 00:00:00 | |
| IW2NTF | 2026-09-05 00:37:12 | 44.65004 | 12.23582 | 342° | 7km/h | 29082m | 6.5m/s | -44.3°C | 2.9% | 0hPa | 2.5V | 08:30:00 | 02:03:19 | 00:00:00 | |
| NBG1-10 | 2026-09-05 00:37:10 | 44.65006 | 12.23579 | 295° | 13km/h | 29094m | 5.4m/s | -44.1°C | 3.0% | 0hPa | 2.5V | 00:00:00 | 02:03:21 | 00:00:00 | |
| DO3MHA-11 | 2026-09-05 00:37:07 | 44.65001 | 12.23582 | 15° | 16km/h | 29077m | 5.9m/s | -44.2°C | 3.0% | 0hPa | 2.5V | 00:00:00 | 02:03:18 | 00:00:00 | |
| IW2NTF | 2026-09-05 00:37:02 | 44.64972 | 12.23565 | 311° | 15km/h | 29024m | 7m/s | -44.9°C | 3% | 0hPa | 2.5V | 08:30:00 | 02:03:09 | 00:00:00 | |
| DO3MHA-11 | 2026-09-05 00:36:57 | 44.64970 | 12.23569 | 286° | 13km/h | 29017m | 6.1m/s | -44.9°C | 3.1% | 0hPa | 2.5V | 00:00:00 | 02:03:08 | 00:00:00 | |
| IW2NTF | 2026-09-05 00:36:52 | 44.64954 | 12.23574 | 33° | 13km/h | 28967m | 5m/s | -45.7°C | 3.2% | 0hPa | 2.5V | 08:30:00 | 02:02:59 | 00:00:00 | |
| IW2NTF | 2026-09-05 00:36:42 | 44.64919 | 12.23592 | 353° | 16km/h | 28908m | 6.2m/s | -45.9°C | 3.3% | 0hPa | 2.5V | 08:30:00 | 02:02:49 | 00:00:00 | |
| DB0UT-7 | 2026-09-05 00:36:35 | 44.64904 | 12.23592 | 360° | 13km/h | 28892m | 6.1m/s | -45.8°C | 3.3% | 0hPa | 2.5V | 00:00:00 | 02:02:46 | 00:00:00 | |
| IW2NTF | 2026-09-05 00:36:32 | 44.64878 | 12.23609 | 330° | 18km/h | 28852m | 5.4m/s | -45.9°C | 3.3% | 0hPa | 2.5V | 08:30:00 | 02:02:39 | 00:00:00 | |
| IW2NTF | 2026-09-05 00:36:22 | 44.64825 | 12.23631 | 350° | 16km/h | 28795m | 5.6m/s | -46.1°C | 3.3% | 0hPa | 2.5V | 08:30:00 | 02:02:29 | 00:00:00 | |
| NBG1-10 | 2026-09-05 00:36:16 | 44.64817 | 12.23632 | 355° | 11km/h | 28783m | 6.4m/s | -46.1°C | 3.2% | 0hPa | 2.6V | 00:00:00 | 02:02:27 | 00:00:00 | |
| IW2NTF | 2026-09-05 00:36:12 | 44.64791 | 12.23648 | 330° | 27km/h | 28737m | 6.7m/s | -46.5°C | 3.2% | 0hPa | 2.5V | 08:30:00 | 02:02:19 | 00:00:00 | |
| IW2NTF | 2026-09-05 00:36:02 | 44.64751 | 12.23669 | 326° | 5km/h | 28682m | 5.6m/s | -47.4°C | 3.4% | 0hPa | 2.5V | 08:30:00 | 02:02:09 | 00:00:00 | |
| IW2NTF | 2026-09-05 00:35:52 | 44.64727 | 12.23719 | 308° | 13km/h | 28626m | 5.3m/s | -48°C | 3.7% | 0hPa | 2.5V | 08:30:00 | 02:01:59 | 00:00:00 | |
| IW2NTF | 2026-09-05 00:35:42 | 44.64723 | 12.23744 | 292° | 18km/h | 28570m | 5m/s | -48°C | 3.7% | 0hPa | 2.5V | 08:30:00 | 02:01:49 | 00:00:00 | |
| IW2NTF | 2026-09-05 00:35:32 | 44.64717 | 12.23769 | 217° | 9km/h | 28517m | 6.4m/s | -47.8°C | 3.7% | 0hPa | 2.5V | 08:30:00 | 02:01:39 | 00:00:00 | |
| IW2NTF | 2026-09-05 00:35:22 | 44.64720 | 12.23807 | 244° | 4km/h | 28463m | 5.3m/s | -47.5°C | 3.6% | 0hPa | 2.5V | 08:30:00 | 02:01:29 | 00:00:00 | |
| NBG1-10 | 2026-09-05 00:35:22 | 44.64726 | 12.23796 | 306° | 11km/h | 28485m | 4.8m/s | -47.6°C | 3.6% | 0hPa | 2.5V | 00:00:00 | 02:01:33 | 00:00:00 | |
| IW2NTF | 2026-09-05 00:35:12 | 44.64744 | 12.23828 | 270° | 7km/h | 28409m | 5m/s | -47.5°C | 3.5% | 0hPa | 2.5V | 08:30:00 | 02:01:19 | 00:00:00 | |
| IW2NTF | 2026-09-05 00:35:02 | 44.64757 | 12.23852 | 207° | 22km/h | 28355m | 5.8m/s | -47.7°C | 3.6% | 0hPa | 2.5V | 08:30:00 | 02:01:09 | 00:00:00 | |
| IW2NTF | 2026-09-05 00:34:52 | 44.64781 | 12.23870 | 138° | 9km/h | 28301m | 5.8m/s | -48°C | 3.7% | 0hPa | 2.5V | 08:30:00 | 02:00:59 | 00:00:00 | |
| NBG1-10 | 2026-09-05 00:34:49 | 44.64779 | 12.23872 | 147° | 9km/h | 28307m | 5.7m/s | -47.9°C | 3.7% | 0hPa | 2.6V | 00:00:00 | 02:01:00 | 00:00:00 | |
| DB0UT-7 | 2026-09-05 00:34:46 | 44.64786 | 12.23866 | 165° | 9km/h | 28291m | 4.9m/s | -47.9°C | 3.7% | 0hPa | 2.6V | 00:00:00 | 00:00:00 | 00:00:00 | |
| IW2NTF | 2026-09-05 00:34:42 | 44.64817 | 12.23873 | 248° | 2km/h | 28249m | 5.6m/s | -47.7°C | 3.6% | 0hPa | 2.5V | 08:30:00 | 02:00:49 | 00:00:00 | |
| IW2NTF | 2026-09-05 00:34:31 | 44.64833 | 12.23874 | 255° | 11km/h | 28185m | 5.4m/s | -47.7°C | 3.6% | 0hPa | 2.6V | 08:30:00 | 02:00:37 | 00:00:00 | |
| IW2NTF | 2026-09-05 00:34:20 | 44.64835 | 12.23877 | 301° | 2km/h | 28135m | 4.5m/s | -47.5°C | 3.6% | 0hPa | 2.6V | 08:30:00 | 02:00:27 | 00:00:00 | |
| DB0UT-7 | 2026-09-05 00:34:16 | 44.64835 | 12.23877 | 302° | 9km/h | 28135m | 4.4m/s | -47.5°C | 3.6% | 0hPa | 2.5V | 00:00:00 | 02:00:27 | 00:00:00 | |
| IW2NTF | 2026-09-05 00:34:11 | 44.64840 | 12.23903 | 86° | 5km/h | 28085m | 5m/s | -47.6°C | 3.5% | 0hPa | 2.5V | 08:30:00 | 02:00:17 | 00:00:00 | |
| IW2NTF | 2026-09-05 00:34:00 | 44.64847 | 12.23924 | 234° | 11km/h | 28032m | 5.9m/s | -47.7°C | 3.7% | 0hPa | 2.5V | 08:30:00 | 02:00:07 | 00:00:00 | |
| IW2NTF | 2026-09-05 00:33:50 | 44.64851 | 12.23952 | 263° | 16km/h | 27978m | 4.7m/s | -47.6°C | 3.6% | 0hPa | 2.5V | 08:30:00 | 01:59:57 | 00:00:00 | |
| DB0UT-7 | 2026-09-05 00:33:46 | 44.64851 | 12.23952 | 264° | 15km/h | 27979m | 4.6m/s | -47.5°C | 3.6% | 0hPa | 2.5V | 00:00:00 | 00:00:00 | 00:00:00 | |
| NBG1-10 | 2026-09-05 00:33:43 | 44.64858 | 12.23967 | 213° | 15km/h | 27961m | 5.5m/s | -47.5°C | 3.6% | 0hPa | 2.5V | 00:00:00 | 01:59:54 | 00:00:00 | |
| IW2NTF | 2026-09-05 00:33:41 | 44.64877 | 12.23982 | 218° | 4km/h | 27922m | 4.6m/s | -47.3°C | 3.5% | 0hPa | 2.5V | 08:30:00 | 01:59:47 | 00:00:00 | |
| IW2NTF | 2026-09-05 00:33:30 | 44.64905 | 12.24017 | 189° | 18km/h | 27868m | 5.5m/s | -47.2°C | 3.4% | 0hPa | 2.6V | 08:30:00 | 01:59:37 | 00:00:00 | |
| IW2NTF | 2026-09-05 00:33:21 | 44.64937 | 12.24030 | 215° | 16km/h | 27814m | 5.8m/s | -47.7°C | 3.4% | 0hPa | 2.5V | 08:30:00 | 01:59:27 | 00:00:00 | |
| DB0UT-7 | 2026-09-05 00:33:16 | 44.64937 | 12.24030 | 216° | 16km/h | 27815m | 5.8m/s | -47.7°C | 3.4% | 0hPa | 2.5V | 00:00:00 | 01:59:27 | 00:00:00 | |
| IW2NTF | 2026-09-05 00:33:12 | 44.64983 | 12.24039 | 135° | 9km/h | 27757m | 6m/s | -48°C | 3.5% | 0hPa | 2.5V | 08:30:00 | 01:59:17 | 00:00:00 | |
| IW2NTF | 2026-09-05 00:33:01 | 44.65025 | 12.24037 | 193° | 15km/h | 27700m | 5.1m/s | -48.6°C | 3.6% | 0hPa | 2.5V | 08:30:00 | 01:59:07 | 00:00:00 | |
| IW2NTF | 2026-09-05 00:32:51 | 44.65052 | 12.24018 | 172° | 20km/h | 27643m | 5m/s | -49°C | 3.7% | 0hPa | 2.6V | 08:30:00 | 01:58:57 | 00:00:00 | |
| DB0UT-7 | 2026-09-05 00:32:46 | 44.65052 | 12.24018 | 173° | 20km/h | 27643m | 5.0m/s | -48.9°C | 3.7% | 0hPa | 2.6V | 00:00:00 | 00:00:00 | 00:00:00 | |
| IW2NTF | 2026-09-05 00:32:41 | 44.65090 | 12.24009 | 144° | 15km/h | 27586m | 5.8m/s | -49.6°C | 3.8% | 0hPa | 2.6V | 08:30:00 | 01:58:47 | 00:00:00 | |
| NBG1-10 | 2026-09-05 00:32:36 | 44.65090 | 12.24009 | 145° | 20km/h | 27586m | 5.7m/s | -49.5°C | 3.8% | 0hPa | 2.6V | 00:00:00 | 01:58:47 | 00:00:00 | |
| IW2NTF | 2026-09-05 00:32:31 | 44.65138 | 12.23960 | 141° | 24km/h | 27526m | 6.4m/s | -49.9°C | 3.9% | 0hPa | 2.6V | 08:30:00 | 01:58:37 | 00:00:00 | |
| IW2NTF | 2026-09-05 00:32:21 | 44.65186 | 12.23908 | 123° | 26km/h | 27466m | 5.6m/s | -49.8°C | 4% | 0hPa | 2.5V | 08:30:00 | 01:58:27 | 00:00:00 | |
| IW2NTF | 2026-09-05 00:32:11 | 44.65232 | 12.23821 | 134° | 26km/h | 27407m | 6.1m/s | -49.6°C | 3.9% | 0hPa | 2.5V | 08:30:00 | 01:58:17 | 00:00:00 | |
| IW2NTF | 2026-09-05 00:32:01 | 44.65266 | 12.23754 | 115° | 33km/h | 27346m | 5.8m/s | -49.5°C | 4% | 0hPa | 2.6V | 08:30:00 | 01:58:07 | 00:00:00 | |
| IW2NTF | 2026-09-05 00:31:51 | 44.65295 | 12.23671 | 106° | 20km/h | 27287m | 6.2m/s | -49.4°C | 3.9% | 0hPa | 2.6V | 08:30:00 | 01:57:57 | 00:00:00 | |
| DB0UT-7 | 2026-09-05 00:31:44 | 44.65299 | 12.23656 | 111° | 29km/h | 27276m | 5.4m/s | -49.4°C | 3.8% | 0hPa | 2.6V | 00:00:00 | 01:57:55 | 00:00:00 | |
| IW2NTF | 2026-09-05 00:31:41 | 44.65320 | 12.23576 | 104° | 26km/h | 27227m | 6.3m/s | -49.2°C | 3.8% | 0hPa | 2.6V | 08:30:00 | 01:57:47 | 00:00:00 | |
| IW2NTF | 2026-09-05 00:31:29 | 44.65330 | 12.23487 | 102° | 24km/h | 27156m | 5.6m/s | -49.3°C | 3.8% | 0hPa | 2.5V | 08:30:00 | 01:57:35 | 00:00:00 | |
| IW2NTF | 2026-09-05 00:31:15 | 44.65329 | 12.23433 | 60° | 15km/h | 27098m | 5.3m/s | -49.6°C | 3.9% | 0hPa | 2.5V | 08:30:00 | 01:57:25 | 00:00:00 | |
| IW2NTF | 2026-09-05 00:31:05 | 44.65338 | 12.23386 | 127° | 15km/h | 27039m | 5.8m/s | -49.4°C | 3.9% | 0hPa | 2.5V | 08:30:00 | 01:57:15 | 00:00:00 | |
| IW2NTF | 2026-09-05 00:30:59 | 44.65363 | 12.23319 | 133° | 20km/h | 26969m | 4.8m/s | -49.1°C | 3.8% | 0hPa | 2.5V | 08:30:00 | 01:57:03 | 00:00:00 | |
| IW2NTF | 2026-09-05 00:30:45 | 44.65388 | 12.23240 | 113° | 27km/h | 26913m | 5m/s | -49.2°C | 3.9% | 0hPa | 2.6V | 08:30:00 | 01:56:53 | 00:00:00 | |
| IW2NTF | 2026-09-05 00:30:35 | 44.65428 | 12.23153 | 120° | 37km/h | 26857m | 6.1m/s | -49.2°C | 3.9% | 0hPa | 2.6V | 08:30:00 | 01:56:43 | 00:00:00 | |
| NBG1-10 | 2026-09-05 00:30:28 | 44.65443 | 12.23095 | 114° | 18km/h | 26830m | 6.0m/s | -49.1°C | 3.9% | 0hPa | 2.5V | 00:00:00 | 01:56:38 | 00:00:00 | |
| IW2NTF | 2026-09-05 00:30:26 | 44.65459 | 12.23047 | 104° | 26km/h | 26803m | 5.2m/s | -49°C | 3.9% | 0hPa | 2.5V | 08:30:00 | 01:56:33 | 00:00:00 | |
| DB0UT-7 | 2026-09-05 00:30:22 | 44.65459 | 12.23047 | 105° | 20km/h | 26803m | 5.1m/s | -49.0°C | 3.9% | 0hPa | 2.5V | 00:00:00 | 00:00:00 | 08:30:00 | |
| IW2NTF | 2026-09-05 00:30:15 | 44.65471 | 12.22968 | 102° | 24km/h | 26745m | 5.9m/s | -48.8°C | 3.8% | 0hPa | 2.5V | 08:30:00 | 01:56:23 | 00:00:00 | |
| IW2NTF | 2026-09-05 00:30:05 | 44.65481 | 12.22901 | 111° | 15km/h | 26688m | 6.3m/s | -48.5°C | 3.8% | 0hPa | 2.6V | 08:30:00 | 01:56:13 | 00:00:00 | |
| DB0NH | 2026-09-05 00:30:05 | 44.65478 | 12.22918 | 102° | 16km/h | 26705m | 6.2m/s | -48.6°C | 3.8% | 0hPa | 2.5V | 00:00:00 | 01:56:16 | 00:00:00 | |
| DO3MHA-11 | 2026-09-05 00:30:02 | 44.65481 | 12.22901 | 112° | 18km/h | 26688m | 6.3m/s | -48.5°C | 3.8% | 0hPa | 2.5V | 00:00:00 | 01:56:13 | 00:00:00 | |
| IW2NTF | 2026-09-05 00:29:55 | 44.65485 | 12.22846 | 101° | 20km/h | 26633m | 6.5m/s | -48.4°C | 3.7% | 0hPa | 2.5V | 08:30:00 | 01:56:03 | 00:00:00 | |
| DB0UT-7 | 2026-09-05 00:29:52 | 44.65484 | 12.22846 | 102° | 15km/h | 26633m | 6.5m/s | -48.3°C | 3.7% | 0hPa | 2.5V | 00:00:00 | 01:56:03 | 00:00:00 | |
| DO3MHA-11 | 2026-09-05 00:29:48 | 44.65490 | 12.22818 | 113° | 15km/h | 26611m | 4.9m/s | -48.2°C | 3.8% | 0hPa | 2.5V | 00:00:00 | 01:55:59 | 00:00:00 | |
| IW2NTF | 2026-09-05 00:29:45 | 44.65490 | 12.22781 | 76° | 15km/h | 26579m | 6.2m/s | -48.1°C | 3.7% | 0hPa | 2.5V | 08:30:00 | 01:55:53 | 00:00:00 | |
| NBG1-10 | 2026-09-05 00:29:39 | 44.65490 | 12.22770 | 106° | 15km/h | 26563m | 5.1m/s | -48.0°C | 3.7% | 0hPa | 2.6V | 00:00:00 | 01:55:50 | 00:00:00 | |
| DO3MHA-11 | 2026-09-05 00:29:38 | 44.65490 | 12.22767 | 99° | 15km/h | 26558m | 6.5m/s | -48.0°C | 3.7% | 0hPa | 2.6V | 00:00:00 | 01:55:49 | 00:00:00 | |
| IW2NTF | 2026-09-05 00:29:35 | 44.65491 | 12.22735 | 88° | 16km/h | 26525m | 5.7m/s | -48°C | 3.7% | 0hPa | 2.6V | 08:30:00 | 01:55:43 | 00:00:00 | |
| DB0NH | 2026-09-05 00:29:35 | 44.65491 | 12.22751 | 93° | 15km/h | 26542m | 5.9m/s | 0°C | 0% | 0hPa | 2.5V | 00:00:00 | 01:55:46 | 00:00:00 | |
| DO3MHA-11 | 2026-09-05 00:29:28 | 44.65490 | 12.22710 | 90° | 13km/h | 26504m | 6.5m/s | -47.9°C | 3.6% | 0hPa | 2.5V | 00:00:00 | 01:55:39 | 00:00:00 | |
| IW2NTF | 2026-09-05 00:29:25 | 44.65492 | 12.22692 | 81° | 11km/h | 26470m | 5.2m/s | -48°C | 3.6% | 0hPa | 2.5V | 08:30:00 | 01:55:33 | 00:00:00 | |
| DB0UT-7 | 2026-09-05 00:29:22 | 44.65492 | 12.22692 | 82° | 22km/h | 26471m | 5.1m/s | -48.0°C | 3.6% | 0hPa | 2.5V | 00:00:00 | 00:00:00 | 00:00:00 | |
| DO3MHA-12 | 2026-09-05 00:29:16 | 44.65485 | 12.22657 | 80° | 16km/h | 26437m | 4.9m/s | -47.9°C | 3.5% | 0hPa | 2.5V | 00:00:00 | 01:55:27 | 08:30:00 | |
| IW2NTF | 2026-09-05 00:29:15 | 44.65483 | 12.22635 | 81° | 13km/h | 26416m | 6.2m/s | -48.1°C | 3.6% | 0hPa | 2.5V | 08:30:00 | 01:55:23 | 00:00:00 | |
| DO3MHA-12 | 2026-09-05 00:29:06 | 44.65479 | 12.22599 | 83° | 22km/h | 26383m | 4.4m/s | -48.2°C | 3.6% | 0hPa | 2.6V | 00:00:00 | 01:55:17 | 00:00:00 | |
| IW2NTF | 2026-09-05 00:29:05 | 44.65471 | 12.22566 | 63° | 27km/h | 26362m | 4.4m/s | -48.4°C | 3.6% | 0hPa | 2.6V | 08:30:00 | 01:55:13 | 00:00:00 | |
| DB0NH | 2026-09-05 00:29:05 | 44.65478 | 12.22592 | 77° | 26km/h | 26378m | 5.9m/s | 0°C | 0% | 0hPa | 2.5V | 00:00:00 | 01:55:16 | 00:00:00 | |
| IW2NTF | 2026-09-05 00:28:57 | 44.65444 | 12.22498 | 50° | 26km/h | 26308m | 5.1m/s | -48.9°C | 3.7% | 0hPa | 2.5V | 08:30:00 | 01:55:03 | 00:00:00 | |
| DO3MHA-12 | 2026-09-05 00:28:56 | 44.65457 | 12.22527 | 63° | 26km/h | 26330m | 5.2m/s | -48.7°C | 3.7% | 0hPa | 2.5V | 00:00:00 | 01:55:07 | 00:00:00 | |
| DO3MHA-12 | 2026-09-05 00:28:46 | 44.65418 | 12.22454 | 51° | 18km/h | 26276m | 5.4m/s | -49.2°C | 3.7% | 0hPa | 2.5V | 00:00:00 | 01:54:57 | 00:00:00 | |
| IW2NTF | 2026-09-05 00:28:45 | 44.65405 | 12.22435 | 35° | 18km/h | 26253m | 4.9m/s | -49.3°C | 3.7% | 0hPa | 2.5V | 08:30:00 | 01:54:53 | 00:00:00 | |
| DO3MHA-12 | 2026-09-05 00:28:36 | 44.65379 | 12.22417 | 32° | 20km/h | 26220m | 4.9m/s | -49.5°C | 3.8% | 0hPa | 2.5V | 00:00:00 | 01:54:47 | 00:00:00 | |
| IW2NTF | 2026-09-05 00:28:35 | 44.65361 | 12.22405 | 21° | 22km/h | 26197m | 5.5m/s | -49.8°C | 3.8% | 0hPa | 2.5V | 08:30:00 | 01:54:43 | 00:00:00 | |
| DO3MHA-11 | 2026-09-05 00:28:35 | 44.65375 | 12.22414 | 28° | 22km/h | 26215m | 6.6m/s | -49.6°C | 3.8% | 0hPa | 2.5V | 00:00:00 | 01:54:46 | 00:00:00 | |
| NBG1-10 | 2026-09-05 00:28:33 | 44.65365 | 12.22408 | 23° | 16km/h | 26203m | 5.5m/s | -49.7°C | 3.8% | 0hPa | 2.5V | 00:00:00 | 01:54:44 | 00:00:00 | |
| DB0UT-7 | 2026-09-05 00:28:32 | 44.65360 | 12.22405 | 22° | 16km/h | 26198m | 5.5m/s | -49.8°C | 3.8% | 0hPa | 2.5V | 00:00:00 | 01:54:43 | 00:00:00 | |
| IW2NTF | 2026-09-05 00:28:26 | 44.65309 | 12.22398 | 11° | 20km/h | 26142m | 4.7m/s | -50.4°C | 4% | 0hPa | 2.5V | 08:30:00 | 01:54:33 | 00:00:00 | |
| DO3MHA-11 | 2026-09-05 00:28:25 | 44.65323 | 12.22401 | 11° | 22km/h | 26159m | 4.7m/s | -50.2°C | 4.0% | 0hPa | 2.5V | 00:00:00 | 01:54:36 | 00:00:00 | |
| DO3MHA-12 | 2026-09-05 00:28:16 | 44.65276 | 12.22395 | 338° | 13km/h | 26109m | 4.1m/s | -50.4°C | 4.1% | 0hPa | 2.5V | 00:00:00 | 01:54:27 | 00:00:00 | |
| IW2NTF | 2026-09-05 00:28:15 | 44.65257 | 12.22404 | 347° | 11km/h | 26088m | 5.2m/s | -50.5°C | 4.1% | 0hPa | 2.6V | 08:30:00 | 01:54:23 | 00:00:00 | |
| DO3MHA-11 | 2026-09-05 00:28:15 | 44.65270 | 12.22398 | 337° | 11km/h | 26105m | 5.5m/s | -50.4°C | 4.0% | 0hPa | 2.5V | 00:00:00 | 01:54:26 | 00:00:00 | |
| IW2NTF | 2026-09-05 00:28:08 | 44.65240 | 12.22410 | 329° | 16km/h | 26031m | 5.4m/s | -50.8°C | 4.2% | 0hPa | 2.5V | 08:30:00 | 01:54:13 | 00:00:00 | |
| DO3MHA-12 | 2026-09-05 00:28:06 | 44.65251 | 12.22406 | 34° | 11km/h | 26054m | 5.0m/s | -50.6°C | 4.2% | 0hPa | 2.6V | 00:00:00 | 01:54:17 | 00:00:00 | |
| DO3MHA-11 | 2026-09-05 00:28:05 | 44.65249 | 12.22405 | 7° | 13km/h | 26048m | 5.8m/s | -50.7°C | 4.2% | 0hPa | 2.6V | 00:00:00 | 01:54:16 | 00:00:00 | |
| DB0UT-7 | 2026-09-05 00:28:02 | 44.65240 | 12.22410 | 330° | 7km/h | 26032m | 5.4m/s | -50.7°C | 4.2% | 0hPa | 2.5V | 00:00:00 | 00:00:00 | 00:00:00 | |
| NBG1-10 | 2026-09-05 00:28:00 | 44.65233 | 12.22415 | 331° | 7km/h | 26021m | 4.9m/s | -50.7°C | 4.2% | 0hPa | 2.5V | 00:00:00 | 01:54:11 | 00:00:00 | |
| DO3MHA-12 | 2026-09-05 00:27:56 | 44.65232 | 12.22427 | 226° | 7km/h | 25999m | 5.0m/s | -50.5°C | 4.2% | 0hPa | 2.5V | 00:00:00 | 01:54:07 | 00:00:00 | |
| IW2NTF | 2026-09-05 00:27:55 | 44.65241 | 12.22426 | 137° | 9km/h | 25977m | 4.8m/s | -50.4°C | 4.1% | 0hPa | 2.5V | 08:30:00 | 01:54:03 | 00:00:00 | |
| DO3MHA-11 | 2026-09-05 00:27:55 | 44.65234 | 12.22429 | 203° | 7km/h | 25993m | 6.3m/s | -50.4°C | 4.2% | 0hPa | 2.5V | 00:00:00 | 01:54:06 | 00:00:00 | |
| DO3MHA-12 | 2026-09-05 00:27:46 | 44.65239 | 12.22430 | 321° | 5km/h | 25943m | 5.1m/s | -50.1°C | 4.1% | 0hPa | 2.5V | 00:00:00 | 01:53:57 | 08:30:00 | |
| IW2NTF | 2026-09-05 00:27:45 | 44.65234 | 12.22441 | 306° | 5km/h | 25920m | 6.5m/s | -50°C | 4% | 0hPa | 2.5V | 08:30:00 | 01:53:53 | 00:00:00 | |
| DO3MHA-11 | 2026-09-05 00:27:45 | 44.65237 | 12.22432 | 310° | 5km/h | 25937m | 6.8m/s | -50.0°C | 4.1% | 0hPa | 2.5V | 00:00:00 | 01:53:56 | 00:00:00 | |
| DO3MHA-12 | 2026-09-05 00:27:36 | 44.65232 | 12.22436 | 48° | 9km/h | 25886m | 4.7m/s | -49.8°C | 4.0% | 0hPa | 2.5V | 00:00:00 | 01:53:47 | 00:00:00 | |
| IW2NTF | 2026-09-05 00:27:35 | 44.65224 | 12.22430 | 7° | 13km/h | 25862m | 5.7m/s | -49.8°C | 3.9% | 0hPa | 2.5V | 08:30:00 | 01:53:43 | 00:00:00 | |
| DO3MHA-11 | 2026-09-05 00:27:35 | 44.65231 | 12.22434 | 40° | 9km/h | 25881m | 6.4m/s | -49.8°C | 3.9% | 0hPa | 2.5V | 00:00:00 | 01:53:46 | 08:30:00 | |
| DB0UT-7 | 2026-09-05 00:27:32 | 44.65224 | 12.22430 | 8° | 9km/h | 25863m | 5.6m/s | -49.7°C | 3.9% | 0hPa | 2.5V | 00:00:00 | 01:53:43 | 00:00:00 | |
| NBG1-10 | 2026-09-05 00:27:27 | 44.65212 | 12.22436 | 26° | 11km/h | 25834m | 5.0m/s | -49.7°C | 4.0% | 0hPa | 2.5V | 00:00:00 | 01:53:38 | 08:30:00 | |
| DO3MHA-12 | 2026-09-05 00:27:26 | 44.65213 | 12.22436 | 150° | 9km/h | 25829m | 5.4m/s | -49.7°C | 4.0% | 0hPa | 2.6V | 00:00:00 | 01:53:37 | 00:00:00 | |
| IW2NTF | 2026-09-05 00:27:25 | 44.65220 | 12.22431 | 117° | 7km/h | 25807m | 6m/s | -49.6°C | 3.9% | 0hPa | 2.6V | 08:30:00 | 01:53:33 | 00:00:00 | |
| DO3MHA-11 | 2026-09-05 00:27:25 | 44.65214 | 12.22435 | 160° | 9km/h | 25823m | 6.2m/s | -49.7°C | 4.0% | 0hPa | 2.5V | 00:00:00 | 01:53:36 | 00:00:00 | |
| DO3MHA-12 | 2026-09-05 00:27:16 | 44.65216 | 12.22410 | 78° | 7km/h | 25773m | 5.4m/s | -49.3°C | 3.8% | 0hPa | 2.5V | 00:00:00 | 01:53:27 | 00:00:00 | |
| IW2NTF | 2026-09-05 00:27:15 | 44.65216 | 12.22400 | 103° | 4km/h | 25748m | 6.9m/s | -49.4°C | 3.7% | 0hPa | 2.5V | 08:30:00 | 01:53:23 | 00:00:00 | |
| DO3MHA-11 | 2026-09-05 00:27:15 | 44.65216 | 12.22407 | 79° | 9km/h | 25767m | 6.7m/s | -49.3°C | 3.7% | 0hPa | 2.6V | 00:00:00 | 01:53:26 | 00:00:00 | |
| DO3MHA-12 | 2026-09-05 00:27:06 | 44.65213 | 12.22383 | 63° | 15km/h | 25713m | 6.4m/s | -50.0°C | 3.9% | 0hPa | 2.6V | 00:00:00 | 01:53:17 | 00:00:00 | |
| IW2NTF | 2026-09-05 00:27:05 | 44.65205 | 12.22363 | 59° | 20km/h | 25689m | 5.3m/s | -50.2°C | 4% | 0hPa | 2.6V | 08:30:00 | 01:53:13 | 00:00:00 | |
| DO3MHA-11 | 2026-09-05 00:27:05 | 44.65212 | 12.22379 | 63° | 15km/h | 25707m | 5.4m/s | -50.1°C | 3.9% | 0hPa | 2.5V | 00:00:00 | 01:53:16 | 00:00:00 | |
| DB0UT-7 | 2026-09-05 00:27:02 | 44.65205 | 12.22362 | 60° | 15km/h | 25689m | 5.2m/s | -50.2°C | 4.0% | 0hPa | 2.6V | 00:00:00 | 00:00:00 | 00:00:00 | |
| DO3MHA-12 | 2026-09-05 00:26:56 | 44.65196 | 12.22337 | 75° | 15km/h | 25653m | 5.4m/s | -50.3°C | 4.0% | 0hPa | 2.5V | 00:00:00 | 01:53:07 | 00:00:00 | |
| IW2NTF | 2026-09-05 00:26:55 | 44.65189 | 12.22323 | 33° | 15km/h | 25631m | 4.7m/s | -50.4°C | 4% | 0hPa | 2.5V | 08:30:00 | 01:53:03 | 00:00:00 | |
| DO3MHA-11 | 2026-09-05 00:26:55 | 44.65195 | 12.22332 | 70° | 15km/h | 25648m | 5.8m/s | -50.3°C | 4.0% | 0hPa | 2.5V | 00:00:00 | 01:53:06 | 00:00:00 | |
| NBG1-10 | 2026-09-05 00:26:54 | 44.65194 | 12.22329 | 61° | 16km/h | 25642m | 6.2m/s | -50.3°C | 4.0% | 0hPa | 2.5V | 00:00:00 | 01:53:05 | 00:00:00 | |
| DO3MHA-12 | 2026-09-05 00:26:46 | 44.65170 | 12.22307 | 7° | 15km/h | 25596m | 4.9m/s | -50.5°C | 4.1% | 0hPa | 2.5V | 00:00:00 | 01:52:57 | 00:00:00 | |
| IW2NTF | 2026-09-05 00:26:45 | 44.65158 | 12.22301 | 23° | 16km/h | 25573m | 4.8m/s | -50.7°C | 4.1% | 0hPa | 2.6V | 08:30:00 | 01:52:53 | 00:00:00 | |
| DO3MHA-11 | 2026-09-05 00:26:45 | 44.65167 | 12.22306 | 12° | 15km/h | 25591m | 6.1m/s | -50.5°C | 4.1% | 0hPa | 2.5V | 00:00:00 | 01:52:56 | 00:00:00 | |
| DO3MHA-12 | 2026-09-05 00:26:36 | 44.65134 | 12.22295 | 6° | 20km/h | 25538m | 5.1m/s | -50.6°C | 4.1% | 0hPa | 2.5V | 00:00:00 | 01:52:47 | 00:00:00 | |
| IW2NTF | 2026-09-05 00:26:35 | 44.65113 | 12.22299 | 346° | 22km/h | 25515m | 6m/s | -50.5°C | 4.1% | 0hPa | 2.5V | 08:30:00 | 01:52:43 | 00:00:00 | |
| DO3MHA-11 | 2026-09-05 00:26:35 | 44.65129 | 12.22295 | 360° | 18km/h | 25532m | 6.8m/s | -50.6°C | 4.1% | 0hPa | 2.6V | 00:00:00 | 01:52:46 | 00:00:00 | |
| DB0UT-7 | 2026-09-05 00:26:32 | 44.65114 | 12.22299 | 347° | 15km/h | 25515m | 6.0m/s | -50.5°C | 4.1% | 0hPa | 2.6V | 00:00:00 | 01:52:43 | 00:00:00 | |
| DO3MHA-12 | 2026-09-05 00:26:26 | 44.65086 | 12.22305 | 355° | 15km/h | 25479m | 6.1m/s | -50.4°C | 4.0% | 0hPa | 2.6V | 00:00:00 | 01:52:37 | 00:00:00 | |
| IW2NTF | 2026-09-05 00:26:25 | 44.65073 | 12.22304 | 353° | 13km/h | 25456m | 6.5m/s | -50.5°C | 4% | 0hPa | 2.6V | 08:30:00 | 01:52:33 | 00:00:00 | |
| DO3MHA-11 | 2026-09-05 00:26:25 | 44.65083 | 12.22305 | 4° | 15km/h | 25472m | 6.4m/s | -50.4°C | 4.0% | 0hPa | 2.6V | 00:00:00 | 01:52:36 | 00:00:00 | |
| NBG1-10 | 2026-09-05 00:26:21 | 44.65070 | 12.22305 | 334° | 13km/h | 25450m | 6.1m/s | -50.5°C | 4.0% | 0hPa | 2.6V | 00:00:00 | 01:52:32 | 00:00:00 | |
| DO3MHA-12 | 2026-09-05 00:26:16 | 44.65053 | 12.22318 | 333° | 13km/h | 25421m | 5.8m/s | -50.5°C | 4.0% | 0hPa | 2.6V | 00:00:00 | 01:52:27 | 08:30:00 | |
| IW2NTF | 2026-09-05 00:26:15 | 44.65038 | 12.22334 | 324° | 16km/h | 25398m | 6.2m/s | -50.6°C | 4% | 0hPa | 2.5V | 08:30:00 | 01:52:23 | 00:00:00 | |
| DO3MHA-11 | 2026-09-05 00:26:15 | 44.65049 | 12.22322 | 325° | 13km/h | 25414m | 6.6m/s | -50.5°C | 4.0% | 0hPa | 2.6V | 00:00:00 | 01:52:26 | 00:00:00 | |
| DO3MHA-12 | 2026-09-05 00:26:06 | 44.65027 | 12.22349 | 266° | 13km/h | 25363m | 6.1m/s | -50.8°C | 4.1% | 0hPa | 2.6V | 00:00:00 | 01:52:17 | 00:00:00 | |
| IW2NTF | 2026-09-05 00:26:05 | 44.65025 | 12.22369 | 277° | 22km/h | 25339m | 6m/s | -50.9°C | 4% | 0hPa | 2.6V | 08:30:00 | 01:52:13 | 00:00:00 | |
| DO3MHA-11 | 2026-09-05 00:26:05 | 44.65027 | 12.22353 | 274° | 13km/h | 25357m | 5.6m/s | -50.8°C | 4.1% | 0hPa | 2.5V | 00:00:00 | 01:52:16 | 08:30:00 | |
| DB0UT-7 | 2026-09-05 00:26:02 | 44.65025 | 12.22369 | 278° | 15km/h | 25340m | 6.0m/s | 0°C | 0% | 0hPa | 2.5V | 00:00:00 | 00:00:00 | 00:00:00 | |
| DO3MHA-12 | 2026-09-05 00:25:56 | 44.65021 | 12.22395 | 220° | 13km/h | 25305m | 6.0m/s | -50.8°C | 4.0% | 0hPa | 2.5V | 00:00:00 | 01:52:07 | 00:00:00 | |
| IW2NTF | 2026-09-05 00:25:55 | 44.65029 | 12.22399 | 208° | 7km/h | 25282m | 4.8m/s | -51°C | 4% | 0hPa | 2.5V | 08:30:00 | 01:52:03 | 00:00:00 | |
| DO3MHA-11 | 2026-09-05 00:25:55 | 44.65023 | 12.22396 | 204° | 13km/h | 25299m | 5.8m/s | -50.9°C | 4.0% | 0hPa | 2.6V | 00:00:00 | 01:52:06 | 00:00:00 | |
| NBG1-10 | 2026-09-05 00:25:48 | 44.65040 | 12.22412 | 229° | 15km/h | 25259m | 5.2m/s | -51.1°C | 4.1% | 0hPa | 2.6V | 00:00:00 | 01:51:59 | 00:00:00 | |
| IW2NTF | 2026-09-05 00:25:45 | 44.65054 | 12.22431 | 181° | 11km/h | 25224m | 6.7m/s | -51.3°C | 4.1% | 0hPa | 2.6V | 08:30:00 | 01:51:53 | 00:00:00 | |
| DO3MHA-11 | 2026-09-05 00:25:45 | 44.65046 | 12.22425 | 233° | 16km/h | 25242m | 6.0m/s | -51.2°C | 4.1% | 0hPa | 2.5V | 00:00:00 | 01:51:56 | 00:00:00 | |
| DO3MHA-12 | 2026-09-05 00:25:36 | 44.65080 | 12.22428 | 194° | 13km/h | 25190m | 6.5m/s | -51.5°C | 4.1% | 0hPa | 2.5V | 00:00:00 | 01:51:47 | 00:00:00 | |
| IW2NTF | 2026-09-05 00:25:35 | 44.65096 | 12.22438 | 201° | 13km/h | 25166m | 5m/s | -51.8°C | 4.3% | 0hPa | 2.5V | 08:30:00 | 01:51:43 | 00:00:00 | |
| DO3MHA-11 | 2026-09-05 00:25:35 | 44.65085 | 12.22430 | 204° | 13km/h | 25184m | 5.7m/s | -51.5°C | 4.1% | 0hPa | 2.5V | 00:00:00 | 01:51:46 | 00:00:00 | |
| DB0UT-7 | 2026-09-05 00:25:32 | 44.65096 | 12.22438 | 202° | 13km/h | 25166m | 4.9m/s | 0°C | 0% | 0hPa | 2.5V | 00:00:00 | 01:51:43 | 00:00:00 | |
| DO3MHA-12 | 2026-09-05 00:25:26 | 44.65109 | 12.22428 | 151° | 13km/h | 25133m | 4.7m/s | -51.8°C | 4.2% | 0hPa | 2.5V | 00:00:00 | 01:51:37 | 00:00:00 | |
| IW2NTF | 2026-09-05 00:25:25 | 44.65124 | 12.22421 | 179° | 11km/h | 25110m | 5.5m/s | -51.9°C | 4.2% | 0hPa | 2.5V | 08:30:00 | 01:51:33 | 00:00:00 | |
| DO3MHA-11 | 2026-09-05 00:25:25 | 44.65113 | 12.22425 | 157° | 11km/h | 25128m | 5.0m/s | -51.9°C | 4.2% | 0hPa | 2.5V | 00:00:00 | 01:51:36 | 00:00:00 | |
| DO3MHA-12 | 2026-09-05 00:25:16 | 44.65138 | 12.22421 | 101° | 11km/h | 25077m | 4.3m/s | -51.9°C | 4.3% | 0hPa | 2.5V | 00:00:00 | 01:51:27 | 00:00:00 | |
| IW2NTF | 2026-09-05 00:25:15 | 44.65144 | 12.22405 | 141° | 15km/h | 25055m | 5.1m/s | -52°C | 4.2% | 0hPa | 2.6V | 08:30:00 | 01:51:23 | 00:00:00 | |
| DO3MHA-11 | 2026-09-05 00:25:15 | 44.65138 | 12.22417 | 101° | 9km/h | 25072m | 4.8m/s | -51.9°C | 4.2% | 0hPa | 2.6V | 00:00:00 | 01:51:26 | 00:00:00 | |
| DO3MHA-12 | 2026-09-05 00:25:06 | 44.65153 | 12.22395 | 170° | 11km/h | 25022m | 5.2m/s | -52.1°C | 4.2% | 0hPa | 2.6V | 00:00:00 | 01:51:17 | 00:00:00 | |
| DO3MHA-11 | 2026-09-05 00:25:05 | 44.65154 | 12.22394 | 145° | 11km/h | 25017m | 4.6m/s | -52.1°C | 4.2% | 0hPa | 2.6V | 00:00:00 | 01:51:16 | 00:00:00 | |
| IW2NTF | 2026-09-05 00:25:03 | 44.65154 | 12.22386 | 75° | 15km/h | 25001m | 4.3m/s | -52.3°C | 4.2% | 0hPa | 2.5V | 08:30:00 | 01:51:13 | 00:00:00 | |
| DO3MHA-12 | 2026-09-05 00:24:56 | 44.65156 | 12.22360 | 79° | 13km/h | 24970m | 5.9m/s | -52.5°C | 4.3% | 0hPa | 2.6V | 00:00:00 | 01:51:07 | 00:00:00 | |
| DO3MHA-11 | 2026-09-05 00:24:55 | 44.65154 | 12.22357 | 51° | 13km/h | 24964m | 6.0m/s | -52.6°C | 4.3% | 0hPa | 2.6V | 00:00:00 | 01:51:06 | 00:00:00 | |
| IW2NTF | 2026-09-05 00:24:53 | 44.65147 | 12.22349 | 45° | 11km/h | 24947m | 6.1m/s | -52.8°C | 4.4% | 0hPa | 2.6V | 08:30:00 | 01:51:03 | 00:00:00 | |
| DO3MHA-12 | 2026-09-05 00:24:46 | 44.65139 | 12.22323 | 78° | 5km/h | 24913m | 6.1m/s | -53.0°C | 4.4% | 0hPa | 2.6V | 00:00:00 | 01:50:57 | 08:30:00 | |
| DO3MHA-11 | 2026-09-05 00:24:45 | 44.65138 | 12.22320 | 76° | 5km/h | 24907m | 5.6m/s | -53.0°C | 4.4% | 0hPa | 2.5V | 00:00:00 | 01:50:56 | 00:00:00 | |
| IW2NTF | 2026-09-05 00:24:44 | 44.65136 | 12.22312 | 58° | 5km/h | 24891m | 4.9m/s | -53.1°C | 4.5% | 0hPa | 2.5V | 08:30:00 | 01:50:53 | 00:00:00 | |
| NBG1-10 | 2026-09-05 00:24:42 | 44.65135 | 12.22312 | 59° | 9km/h | 24891m | 4.9m/s | -53.0°C | 4.5% | 0hPa | 2.5V | 00:00:00 | 01:50:53 | 00:00:00 | |
| DO3MHA-12 | 2026-09-05 00:24:36 | 44.65131 | 12.22312 | 346° | 4km/h | 24858m | 4.8m/s | -53.1°C | 4.5% | 0hPa | 2.5V | 00:00:00 | 01:50:47 | 00:00:00 | |
| DO3MHA-11 | 2026-09-05 00:24:35 | 44.65130 | 12.22313 | 319° | 5km/h | 24853m | 6.2m/s | -53.1°C | 4.5% | 0hPa | 2.5V | 00:00:00 | 01:50:46 | 08:30:00 | |
| IW2NTF | 2026-09-05 00:24:33 | 44.65129 | 12.22315 | 165° | 0km/h | 24835m | 6.4m/s | -53.2°C | 4.5% | 0hPa | 2.6V | 08:30:00 | 01:50:43 | 00:00:00 | |
| DO3MHA-12 | 2026-09-05 00:24:26 | 44.65130 | 12.22322 | 286° | 13km/h | 24805m | 6.6m/s | -53.3°C | 4.5% | 0hPa | 2.5V | 00:00:00 | 01:50:37 | 00:00:00 | |
| DO3MHA-11 | 2026-09-05 00:24:25 | 44.65129 | 12.22327 | 298° | 11km/h | 24799m | 5.5m/s | -53.3°C | 4.6% | 0hPa | 2.5V | 00:00:00 | 01:50:36 | 00:00:00 | |
| IW2NTF | 2026-09-05 00:24:23 | 44.65124 | 12.22344 | 284° | 16km/h | 24782m | 4.6m/s | -53.3°C | 4.6% | 0hPa | 2.5V | 08:30:00 | 01:50:33 | 00:00:00 | |
| DO3MHA-12 | 2026-09-05 00:24:16 | 44.65119 | 12.22359 | 262° | 9km/h | 24751m | 5.5m/s | -53.3°C | 4.6% | 0hPa | 2.6V | 00:00:00 | 01:50:27 | 00:00:00 | |
| DO3MHA-11 | 2026-09-05 00:24:15 | 44.65119 | 12.22362 | 261° | 9km/h | 24746m | 4.3m/s | -53.3°C | 4.6% | 0hPa | 2.5V | 00:00:00 | 01:50:26 | 00:00:00 | |
| IW2NTF | 2026-09-05 00:24:14 | 44.65118 | 12.22373 | 303° | 9km/h | 24730m | 5.2m/s | -53.4°C | 4.6% | 0hPa | 2.5V | 08:30:00 | 01:50:23 | 00:00:00 | |
| DO3MHA-12 | 2026-09-05 00:24:06 | 44.65112 | 12.22387 | 317° | 7km/h | 24698m | 4.7m/s | -53.4°C | 4.6% | 0hPa | 2.6V | 00:00:00 | 01:50:17 | 00:00:00 | |
| DO3MHA-11 | 2026-09-05 00:24:05 | 44.65111 | 12.22389 | 303° | 7km/h | 24693m | 5.0m/s | -53.4°C | 4.5% | 0hPa | 2.6V | 00:00:00 | 01:50:16 | 00:00:00 | |
| IW2NTF | 2026-09-05 00:24:03 | 44.65112 | 12.22399 | 252° | 11km/h | 24675m | 5.4m/s | -53.5°C | 4.6% | 0hPa | 2.6V | 08:30:00 | 01:50:13 | 00:00:00 | |
| DO3MHA-12 | 2026-09-05 00:23:56 | 44.65113 | 12.22414 | 231° | 5km/h | 24643m | 5.1m/s | -53.5°C | 4.6% | 0hPa | 2.5V | 00:00:00 | 01:50:07 | 00:00:00 | |
| DO3MHA-11 | 2026-09-05 00:23:55 | 44.65114 | 12.22415 | 256° | 7km/h | 24637m | 6.7m/s | -53.5°C | 4.6% | 0hPa | 2.5V | 00:00:00 | 01:50:06 | 00:00:00 | |
| IW2NTF | 2026-09-05 00:23:53 | 44.65113 | 12.22418 | 279° | 4km/h | 24621m | 6m/s | -53.6°C | 4.6% | 0hPa | 2.5V | 08:30:00 | 01:50:03 | 00:00:00 | |
| DO3MHA-12 | 2026-09-05 00:23:46 | 44.65112 | 12.22433 | 300° | 9km/h | 24589m | 4.9m/s | -53.6°C | 4.7% | 0hPa | 2.5V | 00:00:00 | 01:49:57 | 00:00:00 | |
| DO3MHA-11 | 2026-09-05 00:23:45 | 44.65110 | 12.22437 | 294° | 9km/h | 24583m | 6.3m/s | -53.6°C | 4.6% | 0hPa | 2.6V | 00:00:00 | 01:49:56 | 00:00:00 | |
| IW2NTF | 2026-09-05 00:23:43 | 44.65109 | 12.22447 | 271° | 7km/h | 24568m | 4.5m/s | -53.6°C | 4.7% | 0hPa | 2.6V | 08:30:00 | 01:49:53 | 00:00:00 | |
| DO3MHA-12 | 2026-09-05 00:23:36 | 44.65106 | 12.22466 | 275° | 15km/h | 24534m | 6.1m/s | -53.6°C | 4.7% | 0hPa | 2.6V | 00:00:00 | 01:49:47 | 00:00:00 | |
| DO3MHA-11 | 2026-09-05 00:23:35 | 44.65106 | 12.22471 | 282° | 15km/h | 24528m | 5.8m/s | -53.6°C | 4.7% | 0hPa | 2.6V | 00:00:00 | 01:49:46 | 00:00:00 | |
| IW2NTF | 2026-09-05 00:23:33 | 44.65104 | 12.22489 | 267° | 15km/h | 24511m | 5.6m/s | -53.5°C | 4.7% | 0hPa | 2.5V | 08:30:00 | 01:49:43 | 00:00:00 | |
| DO3MHA-12 | 2026-09-05 00:23:26 | 44.65099 | 12.22517 | 289° | 16km/h | 24478m | 5.5m/s | -53.4°C | 4.6% | 0hPa | 2.6V | 00:00:00 | 01:49:37 | 00:00:00 | |
| IW2NTF | 2026-09-05 00:23:23 | 44.65094 | 12.22533 | 297° | 16km/h | 24456m | 5.2m/s | -53.4°C | 4.6% | 0hPa | 2.6V | 08:30:00 | 01:49:33 | 00:00:00 | |
| DO3MHA-12 | 2026-09-05 00:23:16 | 44.65093 | 12.22570 | 258° | 7km/h | 24423m | 4.2m/s | -53.4°C | 4.6% | 0hPa | 2.5V | 00:00:00 | 01:49:27 | 08:30:00 | |
| DO3MHA-11 | 2026-09-05 00:23:15 | 44.65095 | 12.22574 | 246° | 7km/h | 24418m | 6.2m/s | -53.4°C | 4.6% | 0hPa | 2.6V | 00:00:00 | 01:49:26 | 00:00:00 | |
| IW2NTF | 2026-09-05 00:23:13 | 44.65098 | 12.22578 | 105° | 0km/h | 24400m | 6.4m/s | -53.5°C | 4.6% | 0hPa | 2.6V | 08:30:00 | 01:49:23 | 00:00:00 | |
| DO3MHA-12 | 2026-09-05 00:23:06 | 44.65095 | 12.22590 | 276° | 11km/h | 24368m | 6.7m/s | -53.5°C | 4.5% | 0hPa | 2.5V | 00:00:00 | 01:49:17 | 00:00:00 | |
| DO3MHA-11 | 2026-09-05 00:23:05 | 44.65094 | 12.22597 | 278° | 11km/h | 24361m | 5.0m/s | -53.5°C | 4.6% | 0hPa | 2.5V | 00:00:00 | 01:49:16 | 08:30:00 | |
| IW2NTF | 2026-09-05 00:23:03 | 44.65095 | 12.22617 | 248° | 13km/h | 24345m | 5.8m/s | -53.5°C | 4.6% | 0hPa | 2.6V | 08:30:00 | 01:49:13 | 00:00:00 | |
| DO3MHA-12 | 2026-09-05 00:22:56 | 44.65099 | 12.22627 | 232° | 13km/h | 24312m | 4.7m/s | -53.6°C | 4.6% | 0hPa | 2.6V | 00:00:00 | 01:49:07 | 00:00:00 | |
| DO3MHA-11 | 2026-09-05 00:22:55 | 44.65100 | 12.22629 | 261° | 13km/h | 24306m | 6.2m/s | -53.6°C | 4.6% | 0hPa | 2.6V | 00:00:00 | 01:49:06 | 00:00:00 | |
| IW2NTF | 2026-09-05 00:22:53 | 44.65099 | 12.22642 | 278° | 15km/h | 24290m | 4.7m/s | -53.7°C | 4.6% | 0hPa | 2.6V | 08:30:00 | 01:49:03 | 00:00:00 | |
| DO3MHA-12 | 2026-09-05 00:22:46 | 44.65106 | 12.22667 | 234° | 9km/h | 24257m | 4.7m/s | -53.7°C | 4.6% | 0hPa | 2.6V | 00:00:00 | 01:48:57 | 00:00:00 | |
| DO3MHA-11 | 2026-09-05 00:22:45 | 44.65107 | 12.22669 | 216° | 9km/h | 24251m | 6.8m/s | -53.8°C | 4.7% | 0hPa | 2.5V | 00:00:00 | 01:48:56 | 00:00:00 | |
| IW2NTF | 2026-09-05 00:22:44 | 44.65113 | 12.22674 | 227° | 7km/h | 24234m | 6.7m/s | -53.9°C | 4.6% | 0hPa | 2.5V | 08:30:00 | 01:48:53 | 00:00:00 | |
| NBG1-10 | 2026-09-05 00:22:38 | 44.65116 | 12.22683 | 219° | 11km/h | 24213m | 5.9m/s | 0°C | 0% | 0hPa | 2.6V | 00:00:00 | 01:48:49 | 00:00:00 | |
| IW2NTF | 2026-09-05 00:22:37 | 44.65130 | 12.22695 | 208° | 13km/h | 24178m | 5.4m/s | -53.7°C | 4.7% | 0hPa | 2.6V | 08:30:00 | 01:48:43 | 00:00:00 | |
| DO3MHA-12 | 2026-09-05 00:22:36 | 44.65121 | 12.22687 | 209° | 11km/h | 24201m | 6.1m/s | -53.8°C | 4.7% | 0hPa | 2.5V | 00:00:00 | 01:48:47 | 00:00:00 | |
| DO3MHA-11 | 2026-09-05 00:22:35 | 44.65123 | 12.22689 | 214° | 11km/h | 24195m | 5.6m/s | -53.7°C | 4.7% | 0hPa | 2.5V | 00:00:00 | 01:48:46 | 00:00:00 | |
| DO3MHA-12 | 2026-09-05 00:22:26 | 44.65142 | 12.22709 | 198° | 13km/h | 24145m | 5.1m/s | -53.6°C | 4.6% | 0hPa | 2.6V | 00:00:00 | 01:48:37 | 00:00:00 | |
| IW2NTF | 2026-09-05 00:22:25 | 44.65155 | 12.22708 | 167° | 11km/h | 24123m | 5.1m/s | -53.8°C | 4.6% | 0hPa | 2.6V | 08:30:00 | 01:48:33 | 00:00:00 | |
| DO3MHA-11 | 2026-09-05 00:22:25 | 44.65145 | 12.22710 | 183° | 11km/h | 24140m | 4.7m/s | -53.7°C | 4.7% | 0hPa | 2.5V | 00:00:00 | 01:48:36 | 00:00:00 | |
| IW2NTF | 2026-09-05 00:22:17 | 44.65175 | 12.22710 | 110° | 11km/h | 24067m | 7m/s | -53.8°C | 4.6% | 0hPa | 2.5V | 08:30:00 | 01:48:23 | 00:00:00 | |
| DO3MHA-12 | 2026-09-05 00:22:16 | 44.65169 | 12.22713 | 227° | 11km/h | 24089m | 4.6m/s | -53.9°C | 4.7% | 0hPa | 2.6V | 00:00:00 | 01:48:27 | 00:00:00 | |
| DO3MHA-11 | 2026-09-05 00:22:15 | 44.65171 | 12.22714 | 204° | 11km/h | 24084m | 6.0m/s | -53.8°C | 4.6% | 0hPa | 2.6V | 00:00:00 | 01:48:26 | 00:00:00 | |
| IW2NTF | 2026-09-05 00:22:08 | 44.65175 | 12.22683 | 273° | 4km/h | 24009m | 5.4m/s | -53.9°C | 4.7% | 0hPa | 2.6V | 08:30:00 | 01:48:13 | 00:00:00 | |
| DO3MHA-12 | 2026-09-05 00:22:06 | 44.65177 | 12.22683 | 67° | 5km/h | 24032m | 6.0m/s | -53.9°C | 4.7% | 0hPa | 2.5V | 00:00:00 | 01:48:17 | 00:00:00 | |
| NBG1-10 | 2026-09-05 00:22:05 | 44.65176 | 12.22681 | 28° | 11km/h | 24026m | 4.8m/s | 0°C | 0% | 0hPa | 2.5V | 00:00:00 | 01:48:16 | 00:00:00 | |
| DO3MHA-12 | 2026-09-05 00:21:56 | 44.65168 | 12.22675 | 64° | 13km/h | 23977m | 4.7m/s | -53.8°C | 4.6% | 0hPa | 2.5V | 00:00:00 | 01:48:07 | 00:00:00 | |
| DO3MHA-11 | 2026-09-05 00:21:55 | 44.65166 | 12.22670 | 54° | 11km/h | 23972m | 6.9m/s | -53.7°C | 4.7% | 0hPa | 2.5V | 00:00:00 | 01:48:06 | 00:00:00 | |
| IW2NTF | 2026-09-05 00:21:54 | 44.65159 | 12.22660 | 44° | 11km/h | 23954m | 5.8m/s | -53.8°C | 4.6% | 0hPa | 2.5V | 08:30:00 | 01:48:03 | 00:00:00 | |
| IW2NTF | 2026-09-05 00:21:47 | 44.65133 | 12.22647 | 50° | 15km/h | 23896m | 6.7m/s | -54°C | 4.6% | 0hPa | 2.6V | 08:30:00 | 01:47:53 | 00:00:00 | |
| DO3MHA-12 | 2026-09-05 00:21:46 | 44.65144 | 12.22655 | 16° | 15km/h | 23919m | 4.8m/s | -53.9°C | 4.6% | 0hPa | 2.6V | 00:00:00 | 01:47:57 | 08:30:00 | |
| DO3MHA-11 | 2026-09-05 00:21:45 | 44.65141 | 12.22654 | 19° | 15km/h | 23913m | 6.8m/s | -53.9°C | 4.6% | 0hPa | 2.6V | 00:00:00 | 01:47:56 | 00:00:00 | |
| IW2NTF | 2026-09-05 00:21:37 | 44.65102 | 12.22616 | 11° | 13km/h | 23838m | 5.2m/s | -54.3°C | 4.7% | 0hPa | 2.6V | 08:30:00 | 01:47:43 | 00:00:00 | |
| DO3MHA-12 | 2026-09-05 00:21:36 | 44.65114 | 12.22623 | 34° | 13km/h | 23861m | 5.6m/s | -54.1°C | 4.7% | 0hPa | 2.6V | 00:00:00 | 01:47:47 | 00:00:00 | |
| DO3MHA-11 | 2026-09-05 00:21:35 | 44.65111 | 12.22620 | 28° | 13km/h | 23856m | 4.9m/s | -54.1°C | 4.7% | 0hPa | 2.6V | 00:00:00 | 01:47:46 | 08:30:00 | |
| NBG1-10 | 2026-09-05 00:21:32 | 44.65101 | 12.22617 | 12° | 13km/h | 23838m | 5.2m/s | 0°C | 0% | 0hPa | 2.5V | 00:00:00 | 01:47:43 | 00:00:00 | |
| IW2NTF | 2026-09-05 00:21:27 | 44.65068 | 12.22597 | 15° | 18km/h | 23782m | 6.3m/s | -54.6°C | 4.9% | 0hPa | 2.5V | 08:30:00 | 01:47:33 | 00:00:00 | |
| DO3MHA-12 | 2026-09-05 00:21:26 | 44.65084 | 12.22606 | 21° | 16km/h | 23804m | 5.1m/s | -54.5°C | 4.9% | 0hPa | 2.6V | 00:00:00 | 01:47:37 | 00:00:00 | |
| DO3MHA-11 | 2026-09-05 00:21:25 | 44.65080 | 12.22603 | 23° | 16km/h | 23798m | 6.3m/s | -54.5°C | 4.9% | 0hPa | 2.6V | 00:00:00 | 01:47:36 | 00:00:00 | |
| IW2NTF | 2026-09-05 00:21:17 | 44.65043 | 12.22614 | 347° | 11km/h | 23728m | 5.7m/s | -54.4°C | 4.7% | 0hPa | 2.6V | 08:30:00 | 01:47:23 | 00:00:00 | |
| DO3MHA-12 | 2026-09-05 00:21:16 | 44.65047 | 12.22602 | 276° | 11km/h | 23750m | 5.5m/s | -54.3°C | 4.8% | 0hPa | 2.6V | 00:00:00 | 01:47:27 | 00:00:00 | |
| DO3MHA-11 | 2026-09-05 00:21:15 | 44.65047 | 12.22606 | 271° | 11km/h | 23745m | 4.5m/s | -54.3°C | 4.8% | 0hPa | 2.6V | 00:00:00 | 01:47:26 | 00:00:00 | |
| IW2NTF | 2026-09-05 00:21:08 | 44.65023 | 12.22624 | 247° | 7km/h | 23673m | 4.5m/s | -54.4°C | 4.8% | 0hPa | 2.6V | 08:30:00 | 01:47:13 | 00:00:00 | |
| DO3MHA-12 | 2026-09-05 00:21:06 | 44.65026 | 12.22612 | 326° | 7km/h | 23695m | 4.9m/s | -54.3°C | 4.8% | 0hPa | 2.6V | 00:00:00 | 01:47:17 | 00:00:00 | |
| DO3MHA-11 | 2026-09-05 00:21:05 | 44.65024 | 12.22615 | 308° | 5km/h | 23690m | 4.9m/s | -54.3°C | 4.8% | 0hPa | 2.6V | 00:00:00 | 01:47:16 | 00:00:00 | |
| NBG1-10 | 2026-09-05 00:20:59 | 44.65024 | 12.22631 | 304° | 4km/h | 23657m | 4.7m/s | 0°C | 0% | 0hPa | 2.6V | 00:00:00 | 01:47:10 | 00:00:00 | |
| IW2NTF | 2026-09-05 00:20:57 | 44.65029 | 12.22646 | 241° | 18km/h | 23620m | 5.4m/s | -54.3°C | 4.8% | 0hPa | 2.6V | 08:30:00 | 01:47:03 | 00:00:00 | |
| DO3MHA-12 | 2026-09-05 00:20:56 | 44.65023 | 12.22634 | 208° | 13km/h | 23642m | 5.2m/s | 0°C | 0% | 0hPa | 2.6V | 00:00:00 | 01:47:07 | 00:00:00 | |
| DO3MHA-11 | 2026-09-05 00:20:54 | 44.65026 | 12.22637 | 232° | 13km/h | 23631m | 6.4m/s | -54.3°C | 4.8% | 0hPa | 2.6V | 00:00:00 | 01:47:05 | 00:00:00 | |
| IW2NTF | 2026-09-05 00:20:47 | 44.65056 | 12.22662 | 170° | 9km/h | 23565m | 6.5m/s | -54.2°C | 4.8% | 0hPa | 2.6V | 08:30:00 | 01:46:53 | 00:00:00 | |
| DO3MHA-12 | 2026-09-05 00:20:46 | 44.65046 | 12.22666 | 180° | 13km/h | 23588m | 4.9m/s | 0°C | 0% | 0hPa | 2.6V | 00:00:00 | 01:46:57 | 00:00:00 | |
| DO3MHA-11 | 2026-09-05 00:20:44 | 44.65051 | 12.22664 | 159° | 15km/h | 23577m | 4.8m/s | -54.2°C | 4.8% | 0hPa | 2.6V | 00:00:00 | 01:46:55 | 00:00:00 | |
| IW2NTF | 2026-09-05 00:20:37 | 44.65096 | 12.22672 | 165° | 20km/h | 23511m | 5.8m/s | -54.2°C | 4.8% | 0hPa | 2.6V | 08:30:00 | 01:46:43 | 00:00:00 | |
| DO3MHA-12 | 2026-09-05 00:20:36 | 44.65078 | 12.22673 | 191° | 20km/h | 23533m | 5.7m/s | 0°C | 0% | 0hPa | 2.6V | 00:00:00 | 01:46:47 | 00:00:00 | |
| DO3MHA-11 | 2026-09-05 00:20:34 | 44.65087 | 12.22674 | 177° | 20km/h | 23522m | 3.9m/s | -54.2°C | 4.8% | 0hPa | 2.6V | 00:00:00 | 01:46:45 | 00:00:00 | |
| IW2NTF | 2026-09-05 00:20:28 | 44.65143 | 12.22674 | 173° | 7km/h | 23456m | 5.3m/s | -54°C | 4.8% | 0hPa | 2.5V | 08:30:00 | 01:46:33 | 00:00:00 | |
| DO3MHA-11 | 2026-09-05 00:20:24 | 44.65138 | 12.22673 | 192° | 11km/h | 23468m | 6.0m/s | -54.0°C | 4.8% | 0hPa | 2.6V | 00:00:00 | 01:46:35 | 00:00:00 | |
| IW2NTF | 2026-09-05 00:20:17 | 44.65163 | 12.22649 | 173° | 11km/h | 23401m | 5.9m/s | -53.8°C | 4.6% | 0hPa | 2.6V | 08:30:00 | 01:46:23 | 00:00:00 | |
| DO3MHA-12 | 2026-09-05 00:20:16 | 44.65153 | 12.22656 | 125° | 13km/h | 23423m | 5.8m/s | 0°C | 0% | 0hPa | 2.6V | 00:00:00 | 01:46:27 | 00:00:00 | |
| DO3MHA-11 | 2026-09-05 00:20:14 | 44.65157 | 12.22651 | 159° | 11km/h | 23412m | 4.7m/s | -53.8°C | 4.7% | 0hPa | 2.6V | 00:00:00 | 01:46:25 | 00:00:00 | |
| IW2NTF | 2026-09-05 00:20:07 | 44.65174 | 12.22616 | 89° | 20km/h | 23346m | 4.7m/s | -53.8°C | 4.5% | 0hPa | 2.6V | 08:30:00 | 01:46:13 | 00:00:00 | |
| DO3MHA-11 | 2026-09-05 00:20:04 | 44.65174 | 12.22629 | 85° | 16km/h | 23357m | 6.2m/s | -53.7°C | 4.5% | 0hPa | 2.6V | 00:00:00 | 01:46:15 | 08:30:00 | |
| IW2NTF | 2026-09-05 00:19:57 | 44.65176 | 12.22567 | 89° | 13km/h | 23291m | 5.6m/s | -54.3°C | 4.8% | 0hPa | 2.5V | 08:30:00 | 01:46:03 | 00:00:00 | |
| DO3MHA-11 | 2026-09-05 00:19:54 | 44.65177 | 12.22576 | 81° | 15km/h | 23302m | 4.6m/s | -54.1°C | 4.6% | 0hPa | 2.6V | 00:00:00 | 01:46:05 | 00:00:00 | |
| DO3MHA-11 | 2026-09-05 00:19:44 | 44.65171 | 12.22521 | 82° | 18km/h | 23250m | 5.2m/s | -54.5°C | 4.9% | 0hPa | 2.6V | 00:00:00 | 01:45:55 | 00:00:00 | |
| IW2NTF | 2026-09-05 00:19:41 | 44.65164 | 12.22495 | 55° | 13km/h | 23229m | 5.2m/s | -54.5°C | 4.9% | 0hPa | 2.6V | 08:30:00 | 01:45:51 | 00:00:00 | |
| DO3MHA-11 | 2026-09-05 00:19:34 | 44.65143 | 12.22499 | 340° | 18km/h | 23196m | 4.8m/s | -54.3°C | 4.9% | 0hPa | 2.6V | 00:00:00 | 01:45:45 | 00:00:00 | |
| IW2NTF | 2026-09-05 00:19:32 | 44.65128 | 12.22494 | 33° | 22km/h | 23175m | 4.2m/s | -54.4°C | 4.9% | 0hPa | 2.5V | 08:30:00 | 01:45:41 | 00:00:00 | |
| DO3MHA-11 | 2026-09-05 00:19:24 | 44.65103 | 12.22476 | 1° | 24km/h | 23143m | 5.4m/s | -54.3°C | 4.9% | 0hPa | 2.6V | 00:00:00 | 01:45:35 | 00:00:00 | |
| IW2NTF | 2026-09-05 00:19:21 | 44.65079 | 12.22483 | 344° | 24km/h | 23121m | 5.2m/s | -54.3°C | 4.8% | 0hPa | 2.6V | 08:30:00 | 01:45:31 | 00:00:00 | |
| DO3MHA-11 | 2026-09-05 00:19:14 | 44.65045 | 12.22479 | 18° | 31km/h | 23090m | 5.0m/s | -54.1°C | 4.7% | 0hPa | 2.6V | 00:00:00 | 01:45:25 | 00:00:00 | |
| IW2NTF | 2026-09-05 00:19:11 | 44.65015 | 12.22473 | 355° | 31km/h | 23068m | 6.1m/s | -54.3°C | 4.7% | 0hPa | 2.6V | 08:30:00 | 01:45:21 | 00:00:00 | |
| DO3MHA-11 | 2026-09-05 00:19:04 | 44.64964 | 12.22503 | 335° | 24km/h | 23036m | 6.2m/s | -54.3°C | 4.7% | 0hPa | 2.6V | 00:00:00 | 01:45:15 | 00:00:00 | |
| IW2NTF | 2026-09-05 00:19:01 | 44.64936 | 12.22513 | 0° | 26km/h | 23013m | 5.8m/s | -54.4°C | 4.7% | 0hPa | 2.6V | 08:30:00 | 01:45:11 | 00:00:00 | |
| IW2NTF | 2026-09-05 00:18:51 | 44.64880 | 12.22546 | 333° | 29km/h | 22958m | 6.1m/s | -54.4°C | 4.8% | 0hPa | 2.6V | 08:30:00 | 01:45:01 | 00:00:00 | |
| DO3MHA-11 | 2026-09-05 00:18:43 | 44.64843 | 12.22564 | 333° | 20km/h | 22919m | 5.8m/s | -54.5°C | 4.9% | 0hPa | 2.6V | 00:00:00 | 01:44:54 | 00:00:00 | |
| IW2NTF | 2026-09-05 00:18:41 | 44.64835 | 12.22578 | 300° | 20km/h | 22903m | 6m/s | -54.5°C | 4.8% | 0hPa | 2.6V | 08:30:00 | 01:44:51 | 00:00:00 | |
| DO3MHA-11 | 2026-09-05 00:18:33 | 44.64804 | 12.22616 | 349° | 15km/h | 22864m | 5.6m/s | -54.4°C | 4.8% | 0hPa | 2.6V | 00:00:00 | 01:44:44 | 00:00:00 | |
| IW2NTF | 2026-09-05 00:18:31 | 44.64792 | 12.22619 | 352° | 9km/h | 22848m | 5.8m/s | -54.4°C | 4.8% | 0hPa | 2.6V | 08:30:00 | 01:44:41 | 00:00:00 | |
| DO3MHA-11 | 2026-09-05 00:18:22 | 44.64778 | 12.22646 | 297° | 18km/h | 22807m | 4.4m/s | -54.3°C | 4.9% | 0hPa | 2.6V | 00:00:00 | 01:44:33 | 08:30:00 | |
| IW2NTF | 2026-09-05 00:18:21 | 44.64771 | 12.22660 | 308° | 26km/h | 22796m | 5.1m/s | -54.3°C | 4.9% | 0hPa | 2.6V | 08:30:00 | 01:44:31 | 00:00:00 | |
| DO3MHA-11 | 2026-09-05 00:18:12 | 44.64752 | 12.22694 | 308° | 13km/h | 22752m | 6.3m/s | -54.0°C | 4.7% | 0hPa | 2.6V | 00:00:00 | 01:44:23 | 00:00:00 | |
| IW2NTF | 2026-09-05 00:18:11 | 44.64749 | 12.22699 | 317° | 13km/h | 22741m | 6.2m/s | -54°C | 4.7% | 0hPa | 2.6V | 08:30:00 | 01:44:21 | 00:00:00 | |
| IW2NTF | 2026-09-05 00:18:01 | 44.64721 | 12.22730 | 274° | 11km/h | 22685m | 4.9m/s | -53.9°C | 4.7% | 0hPa | 2.6V | 08:30:00 | 01:44:11 | 00:00:00 | |
| DO3MHA-11 | 2026-09-05 00:18:00 | 44.64721 | 12.22730 | 275° | 11km/h | 22686m | 4.9m/s | -53.9°C | 4.7% | 0hPa | 2.6V | 00:00:00 | 01:44:11 | 00:00:00 | |
| IW2NTF | 2026-09-05 00:17:52 | 44.64707 | 12.22790 | 305° | 20km/h | 22631m | 6.6m/s | -53.8°C | 4.6% | 0hPa | 2.6V | 08:30:00 | 01:44:01 | 00:00:00 | |
| IW2NTF | 2026-09-05 00:17:41 | 44.64690 | 12.22830 | 272° | 15km/h | 22575m | 4.9m/s | -53.7°C | 4.6% | 0hPa | 2.6V | 08:30:00 | 01:43:51 | 00:00:00 | |
| DO3MHA-11 | 2026-09-05 00:17:39 | 44.64689 | 12.22836 | 280° | 15km/h | 22570m | 4.7m/s | -53.7°C | 4.6% | 0hPa | 2.6V | 00:00:00 | 01:43:50 | 00:00:00 | |
| IW2NTF | 2026-09-05 00:17:31 | 44.64675 | 12.22867 | 249° | 9km/h | 22518m | 6.6m/s | -54.1°C | 4.7% | 0hPa | 2.6V | 08:30:00 | 01:43:41 | 00:00:00 | |
| DO3MHA-11 | 2026-09-05 00:17:27 | 44.64682 | 12.22876 | 201° | 13km/h | 22501m | 6.6m/s | -54.1°C | 4.7% | 0hPa | 2.6V | 00:00:00 | 01:43:38 | 00:00:00 | |
| IW2NTF | 2026-09-05 00:17:22 | 44.64683 | 12.22885 | 359° | 15km/h | 22462m | 5.4m/s | -54.1°C | 4.7% | 0hPa | 2.6V | 08:30:00 | 01:43:31 | 00:00:00 | |
| DO3MHA-11 | 2026-09-05 00:17:17 | 44.64671 | 12.22889 | 322° | 13km/h | 22445m | 6.0m/s | -54.2°C | 4.7% | 0hPa | 2.6V | 00:00:00 | 01:43:28 | 00:00:00 | |
| IW2NTF | 2026-09-05 00:17:11 | 44.64671 | 12.22921 | 269° | 11km/h | 22404m | 6.5m/s | -54.3°C | 4.8% | 0hPa | 2.6V | 08:30:00 | 01:43:21 | 00:00:00 | |
| IW2NTF | 2026-09-05 00:17:01 | 44.64647 | 12.22964 | 290° | 20km/h | 22348m | 5.2m/s | -54.5°C | 4.9% | 0hPa | 2.6V | 08:30:00 | 01:43:11 | 00:00:00 | |
| IW2NTF | 2026-09-05 00:16:51 | 44.64637 | 12.23004 | 301° | 13km/h | 22289m | 5.2m/s | -54.4°C | 4.8% | 0hPa | 2.6V | 08:30:00 | 01:43:01 | 00:00:00 | |
| IW2NTF | 2026-09-05 00:16:41 | 44.64649 | 12.23048 | 229° | 11km/h | 22231m | 6.6m/s | -54.2°C | 4.7% | 0hPa | 2.6V | 08:30:00 | 01:42:51 | 00:00:00 | |
| IW2NTF | 2026-09-05 00:16:31 | 44.64664 | 12.23063 | 194° | 11km/h | 22175m | 4.8m/s | -54.2°C | 4.7% | 0hPa | 2.6V | 08:30:00 | 01:42:41 | 00:00:00 | |
| IW2NTF | 2026-09-05 00:16:21 | 44.64700 | 12.23079 | 179° | 18km/h | 22119m | 6.2m/s | -54.3°C | 4.7% | 0hPa | 2.6V | 08:30:00 | 01:42:31 | 00:00:00 | |
| IW2NTF | 2026-09-05 00:16:11 | 44.64751 | 12.23055 | 174° | 20km/h | 22051m | 5.4m/s | -54.7°C | 4.8% | 0hPa | 2.6V | 08:30:00 | 01:42:19 | 00:00:00 | |
| IW2NTF | 2026-09-05 00:16:01 | 44.64780 | 12.23023 | 122° | 15km/h | 21995m | 4.5m/s | -54.6°C | 4.7% | 0hPa | 2.6V | 08:30:00 | 01:42:09 | 00:00:00 | |
| IW2NTF | 2026-09-05 00:15:51 | 44.64803 | 12.23016 | 106° | 11km/h | 21941m | 5.2m/s | -55°C | 4.8% | 0hPa | 2.6V | 08:30:00 | 01:41:59 | 00:00:00 | |
| IW2NTF | 2026-09-05 00:15:41 | 44.64806 | 12.22988 | 312° | 0km/h | 21888m | 4.6m/s | -55.5°C | 5% | 0hPa | 2.7V | 08:30:00 | 01:41:49 | 00:00:00 | |
| IW2NTF | 2026-09-05 00:15:31 | 44.64790 | 12.22960 | 331° | 5km/h | 21834m | 6.4m/s | -55.5°C | 5% | 0hPa | 2.6V | 08:30:00 | 01:41:39 | 00:00:00 | |
| IW2NTF | 2026-09-05 00:15:21 | 44.64772 | 12.22952 | 54° | 15km/h | 21778m | 6.2m/s | -55.3°C | 5% | 0hPa | 2.6V | 08:30:00 | 01:41:29 | 00:00:00 | |
| IW2NTF | 2026-09-05 00:15:11 | 44.64758 | 12.22946 | 334° | 11km/h | 21724m | 4.2m/s | -55.1°C | 5% | 0hPa | 2.6V | 08:30:00 | 01:41:19 | 00:00:00 | |
| IW2NTF | 2026-09-05 00:15:00 | 44.64751 | 12.22923 | 178° | 0km/h | 21667m | 5.6m/s | -54.8°C | 4.8% | 0hPa | 2.7V | 08:30:00 | 01:41:09 | 00:00:00 | |
| IW2NTF | 2026-09-05 00:14:50 | 44.64748 | 12.22912 | 95° | 15km/h | 21613m | 5.5m/s | -55°C | 4.9% | 0hPa | 2.6V | 08:30:00 | 01:40:59 | 00:00:00 | |
| IW2NTF | 2026-09-05 00:14:40 | 44.64759 | 12.22876 | 147° | 7km/h | 21559m | 4.7m/s | -55.1°C | 5% | 0hPa | 2.6V | 08:30:00 | 01:40:49 | 00:00:00 | |
| IW2NTF | 2026-09-05 00:14:33 | 44.64767 | 12.22865 | 102° | 4km/h | 21503m | 6.4m/s | -55.1°C | 5% | 0hPa | 2.6V | 08:30:00 | 01:40:39 | 00:00:00 | |
| DO3MHA-11 | 2026-09-05 00:14:24 | 44.64769 | 12.22869 | 242° | 5km/h | 21482m | 5.7m/s | -55.0°C | 4.9% | 0hPa | 2.6V | 00:00:00 | 01:40:35 | 00:00:00 | |
| IW2NTF | 2026-09-05 00:14:20 | 44.64777 | 12.22877 | 136° | 5km/h | 21447m | 5.5m/s | -55.2°C | 4.8% | 0hPa | 2.7V | 08:30:00 | 01:40:29 | 00:00:00 | |
| IW2NTF | 2026-09-05 00:14:13 | 44.64776 | 12.22892 | 260° | 16km/h | 21394m | 6.5m/s | -55.7°C | 5% | 0hPa | 2.6V | 08:30:00 | 01:40:19 | 00:00:00 | |
| DO3MHA-11 | 2026-09-05 00:14:13 | 44.64776 | 12.22872 | 273° | 11km/h | 21422m | 5.4m/s | -55.6°C | 5.0% | 0hPa | 2.6V | 00:00:00 | 01:40:24 | 00:00:00 | |
| DO3MHA-11 | 2026-09-05 00:14:03 | 44.64777 | 12.22914 | 270° | 5km/h | 21367m | 6.1m/s | -55.6°C | 5.0% | 0hPa | 2.6V | 00:00:00 | 01:40:14 | 00:00:00 | |
| IW2NTF | 2026-09-05 00:14:00 | 44.64779 | 12.22914 | 71° | 2km/h | 21339m | 5m/s | -55.7°C | 5% | 0hPa | 2.6V | 08:30:00 | 01:40:09 | 00:00:00 | |
| IW2NTF | 2026-09-05 00:13:53 | 44.64793 | 12.22925 | 140° | 4km/h | 21284m | 4.8m/s | -56°C | 5.1% | 0hPa | 2.6V | 08:30:00 | 01:39:59 | 00:00:00 | |
| DO3MHA-11 | 2026-09-05 00:13:52 | 44.64785 | 12.22920 | 234° | 9km/h | 21307m | 5.5m/s | -55.9°C | 5.0% | 0hPa | 2.6V | 00:00:00 | 01:40:03 | 08:30:00 | |
| DO3MHA-11 | 2026-09-05 00:13:42 | 44.64795 | 12.22910 | 63° | 5km/h | 21252m | 5.1m/s | -56.0°C | 5.1% | 0hPa | 2.7V | 00:00:00 | 01:39:53 | 00:00:00 | |
| IW2NTF | 2026-09-05 00:13:41 | 44.64797 | 12.22912 | 214° | 7km/h | 21231m | 4.5m/s | -55.9°C | 5.1% | 0hPa | 2.7V | 08:30:00 | 01:39:49 | 00:00:00 | |
| IW2NTF | 2026-09-05 00:13:33 | 44.64806 | 12.22895 | 122° | 7km/h | 21176m | 5.3m/s | -56°C | 5.1% | 0hPa | 2.6V | 08:30:00 | 01:39:39 | 00:00:00 | |
| DO3MHA-11 | 2026-09-05 00:13:32 | 44.64804 | 12.22908 | 116° | 7km/h | 21199m | 6.1m/s | -56.0°C | 5.1% | 0hPa | 2.7V | 00:00:00 | 01:39:43 | 00:00:00 | |
| DO3MHA-11 | 2026-09-05 00:13:22 | 44.64813 | 12.22896 | 209° | 5km/h | 21143m | 5.0m/s | -56.0°C | 5.1% | 0hPa | 2.7V | 00:00:00 | 01:39:33 | 00:00:00 | |
| IW2NTF | 2026-09-05 00:13:20 | 44.64817 | 12.22896 | 120° | 5km/h | 21121m | 6.2m/s | -56.1°C | 5.1% | 0hPa | 2.6V | 08:30:00 | 01:39:29 | 00:00:00 | |
| IW2NTF | 2026-09-05 00:13:14 | 44.64819 | 12.22893 | 218° | 4km/h | 21069m | 4.4m/s | -56.2°C | 5.1% | 0hPa | 2.6V | 08:30:00 | 01:39:19 | 00:00:00 | |
| DO3MHA-11 | 2026-09-05 00:13:12 | 44.64816 | 12.22887 | 213° | 5km/h | 21089m | 4.7m/s | -56.1°C | 5.2% | 0hPa | 2.6V | 00:00:00 | 01:39:23 | 00:00:00 | |
| DO3MHA-11 | 2026-09-05 00:13:02 | 44.64825 | 12.22884 | 107° | 9km/h | 21037m | 6.4m/s | -56.2°C | 5.1% | 0hPa | 2.6V | 00:00:00 | 01:39:13 | 00:00:00 | |
| IW2NTF | 2026-09-05 00:12:57 | 44.64829 | 12.22863 | 107° | 9km/h | 21003m | 4m/s | -56.3°C | 5.2% | 0hPa | 2.6V | 08:30:00 | 01:39:07 | 00:00:00 | |
| DO3MHA-11 | 2026-09-05 00:12:52 | 44.64829 | 12.22851 | 88° | 11km/h | 20981m | 6.1m/s | -56.4°C | 5.3% | 0hPa | 2.6V | 00:00:00 | 01:39:03 | 00:00:00 | |
| IW2NTF | 2026-09-05 00:12:47 | 44.64822 | 12.22830 | 67° | 11km/h | 20948m | 4.1m/s | -56.5°C | 5.3% | 0hPa | 2.7V | 08:30:00 | 01:38:57 | 00:00:00 | |
| DO3MHA-11 | 2026-09-05 00:12:42 | 44.64815 | 12.22816 | 58° | 11km/h | 20928m | 5.9m/s | -56.5°C | 5.3% | 0hPa | 2.6V | 00:00:00 | 01:38:53 | 00:00:00 | |
| IW2NTF | 2026-09-05 00:12:38 | 44.64807 | 12.22796 | 47° | 7km/h | 20895m | 6.4m/s | -56.4°C | 5.2% | 0hPa | 2.6V | 08:30:00 | 01:38:47 | 00:00:00 | |
| DO3MHA-11 | 2026-09-05 00:12:32 | 44.64798 | 12.22791 | 5° | 7km/h | 20874m | 4.1m/s | -56.3°C | 5.2% | 0hPa | 2.7V | 00:00:00 | 01:38:43 | 00:00:00 | |
| IW2NTF | 2026-09-05 00:12:30 | 44.64788 | 12.22782 | 58° | 5km/h | 20842m | 5m/s | -56.4°C | 5.2% | 0hPa | 2.7V | 08:30:00 | 01:38:37 | 00:00:00 | |
| DO3MHA-11 | 2026-09-05 00:12:22 | 44.64788 | 12.22774 | 66° | 5km/h | 20821m | 5.8m/s | -56.2°C | 5.2% | 0hPa | 2.6V | 00:00:00 | 01:38:33 | 08:30:00 | |
| IW2NTF | 2026-09-05 00:12:20 | 44.64785 | 12.22782 | 293° | 11km/h | 20789m | 4.5m/s | -56.1°C | 5.1% | 0hPa | 2.6V | 08:30:00 | 01:38:27 | 00:00:00 | |
| DO3MHA-11 | 2026-09-05 00:12:12 | 44.64783 | 12.22792 | 324° | 5km/h | 20768m | 6.4m/s | 0°C | 0% | 0hPa | 2.6V | 00:00:00 | 01:38:23 | 00:00:00 | |
| IW2NTF | 2026-09-05 00:12:03 | 44.64782 | 12.22784 | 249° | 7km/h | 20714m | 6.3m/s | -56.8°C | 5.3% | 0hPa | 2.6V | 08:30:00 | 01:38:13 | 00:00:00 | |
| DO3MHA-11 | 2026-09-05 00:12:02 | 44.64782 | 12.22784 | 250° | 11km/h | 20714m | 6.3m/s | -56.7°C | 5.3% | 0hPa | 2.7V | 00:00:00 | 01:38:13 | 00:00:00 | |
| IW2NTF | 2026-09-05 00:11:57 | 44.64795 | 12.22807 | 146° | 13km/h | 20660m | 4.2m/s | -56.7°C | 5.3% | 0hPa | 2.7V | 08:30:00 | 01:38:03 | 00:00:00 | |
| DO3MHA-11 | 2026-09-05 00:11:52 | 44.64795 | 12.22807 | 147° | 13km/h | 20660m | 4.1m/s | -56.6°C | 5.3% | 0hPa | 2.7V | 00:00:00 | 01:38:03 | 00:00:00 | |
| IW2NTF | 2026-09-05 00:11:47 | 44.64822 | 12.22816 | 166° | 15km/h | 20606m | 5.1m/s | -56.6°C | 5.1% | 0hPa | 2.6V | 08:30:00 | 01:37:53 | 00:00:00 | |
| DO3MHA-11 | 2026-09-05 00:11:42 | 44.64821 | 12.22816 | 167° | 16km/h | 20607m | 5.1m/s | -56.6°C | 5.1% | 0hPa | 2.6V | 00:00:00 | 01:37:53 | 00:00:00 | |
| IW2NTF | 2026-09-05 00:11:35 | 44.64867 | 12.22794 | 169° | 16km/h | 20543m | 4.8m/s | -57.1°C | 5.2% | 0hPa | 2.6V | 08:30:00 | 01:37:41 | 00:00:00 | |
| DO3MHA-11 | 2026-09-05 00:11:32 | 44.64858 | 12.22794 | 192° | 22km/h | 20553m | 5.6m/s | -56.9°C | 5.2% | 0hPa | 2.6V | 00:00:00 | 01:37:43 | 00:00:00 | |
| IW2NTF | 2026-09-05 00:11:25 | 44.64917 | 12.22744 | 144° | 29km/h | 20488m | 5.1m/s | -57.6°C | 5.4% | 0hPa | 2.6V | 08:30:00 | 01:37:31 | 00:00:00 | |
| DO3MHA-11 | 2026-09-05 00:11:22 | 44.64906 | 12.22755 | 142° | 27km/h | 20500m | 5.4m/s | -57.5°C | 5.4% | 0hPa | 2.7V | 00:00:00 | 01:37:33 | 00:00:00 | |
| IW2NTF | 2026-09-05 00:11:15 | 44.64968 | 12.22674 | 122° | 33km/h | 20437m | 6.4m/s | -58.4°C | 5.6% | 0hPa | 2.6V | 08:30:00 | 01:37:21 | 00:00:00 | |
| DO3MHA-11 | 2026-09-05 00:11:12 | 44.64959 | 12.22692 | 128° | 37km/h | 20448m | 5.1m/s | -58.2°C | 5.5% | 0hPa | 2.6V | 00:00:00 | 01:37:23 | 00:00:00 | |
| IW2NTF | 2026-09-05 00:11:05 | 44.65012 | 12.22554 | 115° | 42km/h | 20383m | 5.2m/s | -58.6°C | 5.7% | 0hPa | 2.6V | 08:30:00 | 01:37:11 | 00:00:00 | |
| DO3MHA-11 | 2026-09-05 00:11:02 | 44.65003 | 12.22580 | 117° | 38km/h | 20394m | 5.6m/s | -58.5°C | 5.7% | 0hPa | 2.6V | 00:00:00 | 01:37:13 | 00:00:00 | |
| IW2NTF | 2026-09-05 00:10:55 | 44.65052 | 12.22434 | 107° | 38km/h | 20330m | 4.2m/s | -58.5°C | 5.9% | 0hPa | 2.6V | 08:30:00 | 01:37:01 | 00:00:00 | |
| DO3MHA-11 | 2026-09-05 00:10:52 | 44.65046 | 12.22458 | 114° | 35km/h | 20341m | 4.6m/s | -58.5°C | 5.9% | 0hPa | 2.6V | 00:00:00 | 01:37:03 | 08:30:00 | |
| IW2NTF | 2026-09-05 00:10:46 | 44.65089 | 12.22325 | 123° | 27km/h | 20277m | 5.1m/s | -58.1°C | 5.7% | 0hPa | 2.6V | 08:30:00 | 01:36:51 | 00:00:00 | |
| IW2NTF | 2026-09-05 00:10:35 | 44.65123 | 12.22229 | 123° | 27km/h | 20223m | 4m/s | -57.9°C | 5.5% | 0hPa | 2.6V | 08:30:00 | 01:36:41 | 00:00:00 | |
| IW2NTF | 2026-09-05 00:10:25 | 44.65155 | 12.22155 | 117° | 29km/h | 20170m | 6.2m/s | -58°C | 5.6% | 0hPa | 2.6V | 08:30:00 | 01:36:31 | 00:00:00 | |
| DO3MHA-11 | 2026-09-05 00:10:22 | 44.65148 | 12.22172 | 118° | 27km/h | 20181m | 4.9m/s | -57.9°C | 5.6% | 0hPa | 2.7V | 00:00:00 | 01:36:33 | 00:00:00 | |
| IW2NTF | 2026-09-05 00:10:15 | 44.65180 | 12.22071 | 103° | 20km/h | 20120m | 5.1m/s | -57.8°C | 5.6% | 0hPa | 2.7V | 08:30:00 | 01:36:21 | 00:00:00 | |
| DO3MHA-11 | 2026-09-05 00:10:12 | 44.65176 | 12.22086 | 112° | 24km/h | 20130m | 4.8m/s | -57.7°C | 5.6% | 0hPa | 2.6V | 00:00:00 | 01:36:23 | 00:00:00 | |
| IW2NTF | 2026-09-05 00:10:04 | 44.65197 | 12.21976 | 106° | 24km/h | 20062m | 5.1m/s | -57.8°C | 5.7% | 0hPa | 2.6V | 08:30:00 | 01:36:10 | 00:00:00 | |
| DO3MHA-11 | 2026-09-05 00:10:02 | 44.65192 | 12.22005 | 106° | 20km/h | 20077m | 4.8m/s | -57.7°C | 5.6% | 0hPa | 2.7V | 00:00:00 | 01:36:13 | 00:00:00 | |
| S52SK | 2026-09-05 00:09:57 | 44.65199 | 12.21968 | 112° | 22km/h | 20057m | 5.6m/s | 0°C | 0% | 0hPa | 2.7V | 00:00:00 | 00:00:00 | 00:00:00 | |
| IW2NTF | 2026-09-05 00:09:54 | 44.65207 | 12.21914 | 104° | 20km/h | 20008m | 6.2m/s | -57.5°C | 5.5% | 0hPa | 2.7V | 08:30:00 | 01:36:00 | 00:00:00 | |
| IW2NTF | 2026-09-05 00:09:44 | 44.65219 | 12.21854 | 107° | 16km/h | 19956m | 5.3m/s | -57.4°C | 5.5% | 0hPa | 2.7V | 08:30:00 | 01:35:50 | 00:00:00 | |
| IW2NTF | 2026-09-05 00:09:34 | 44.65244 | 12.21797 | 121° | 16km/h | 19902m | 4.2m/s | -57.5°C | 5.4% | 0hPa | 2.6V | 08:30:00 | 01:35:40 | 00:00:00 | |
| IW2NTF | 2026-09-05 00:09:25 | 44.65266 | 12.21764 | 153° | 15km/h | 19850m | 5.2m/s | -57.5°C | 5.5% | 0hPa | 2.7V | 08:30:00 | 01:35:30 | 00:00:00 | |
| IW2NTF | 2026-09-05 00:09:14 | 44.65311 | 12.21737 | 151° | 22km/h | 19799m | 6.2m/s | -57.5°C | 5.5% | 0hPa | 2.6V | 08:30:00 | 01:35:20 | 00:00:00 | |
| DO3MHA-11 | 2026-09-05 00:09:14 | 44.65287 | 12.21752 | 159° | 22km/h | 19826m | 5.7m/s | -57.4°C | 5.5% | 0hPa | 2.6V | 00:00:00 | 01:35:25 | 00:00:00 | |
| DO3MHA-11 | 2026-09-05 00:09:04 | 44.65336 | 12.21712 | 138° | 29km/h | 19772m | 6.1m/s | -57.4°C | 5.5% | 0hPa | 2.6V | 00:00:00 | 01:35:15 | 00:00:00 | |
| IW2NTF | 2026-09-05 00:09:02 | 44.65363 | 12.21679 | 145° | 29km/h | 19746m | 4.6m/s | -57.4°C | 5.5% | 0hPa | 2.6V | 08:30:00 | 01:35:10 | 00:00:00 | |
| DO3MHA-11 | 2026-09-05 00:08:54 | 44.65390 | 12.21647 | 141° | 33km/h | 19721m | 4.9m/s | -57.4°C | 5.5% | 0hPa | 2.6V | 00:00:00 | 01:35:05 | 00:00:00 | |
| IW2NTF | 2026-09-05 00:08:52 | 44.65418 | 12.21607 | 132° | 37km/h | 19694m | 5.1m/s | -57.6°C | 5.5% | 0hPa | 2.6V | 08:30:00 | 01:35:00 | 00:00:00 | |
| DO3MHA-11 | 2026-09-05 00:08:44 | 44.65447 | 12.21558 | 130° | 38km/h | 19668m | 5.4m/s | -57.5°C | 5.4% | 0hPa | 2.7V | 00:00:00 | 01:34:55 | 00:00:00 | |
| IW2NTF | 2026-09-05 00:08:42 | 44.65473 | 12.21503 | 117° | 37km/h | 19642m | 6.3m/s | -57.3°C | 5.4% | 0hPa | 2.7V | 08:30:00 | 01:34:50 | 00:00:00 | |
| DO3MHA-11 | 2026-09-05 00:08:33 | 44.65495 | 12.21429 | 116° | 38km/h | 19610m | 4.5m/s | -57.3°C | 5.3% | 0hPa | 2.7V | 00:00:00 | 01:34:44 | 08:30:00 | |
| IW2NTF | 2026-09-05 00:08:32 | 44.65516 | 12.21355 | 108° | 38km/h | 19578m | 4.3m/s | -57.9°C | 5.5% | 0hPa | 2.7V | 08:30:00 | 01:34:38 | 00:00:00 | |
| DO3MHA-11 | 2026-09-05 00:08:23 | 44.65525 | 12.21301 | 104° | 44km/h | 19557m | 5.0m/s | -57.9°C | 5.6% | 0hPa | 2.6V | 00:00:00 | 01:34:34 | 00:00:00 | |
| IW2NTF | 2026-09-05 00:08:21 | 44.65552 | 12.20977 | 94° | 33km/h | 19432m | 6m/s | -58.5°C | 5.7% | 0hPa | 2.6V | 08:30:00 | 01:34:10 | 00:00:00 | |
| DO3MHA-11 | 2026-09-05 00:08:18 | 44.65538 | 12.21147 | 92° | 33km/h | 19507m | 4.7m/s | -58.3°C | 5.6% | 0hPa | 2.7V | 00:00:00 | 01:34:24 | 00:00:00 | |
| IW2NTF | 2026-09-05 00:08:14 | 44.65551 | 12.20940 | 84° | 22km/h | 19410m | 4.9m/s | -58.6°C | 5.7% | 0hPa | 2.7V | 08:30:00 | 01:34:06 | 00:00:00 | |
| IW2NTF | 2026-09-05 00:07:52 | 44.65549 | 12.20821 | 90° | 33km/h | 19357m | 4.1m/s | -58.6°C | 5.7% | 0hPa | 2.6V | 08:30:00 | 01:33:56 | 00:00:00 | |
| DO3MHA-11 | 2026-09-05 00:07:43 | 44.65547 | 12.20799 | 80° | 35km/h | 19346m | 5.4m/s | -58.5°C | 5.7% | 0hPa | 2.6V | 00:00:00 | 01:33:54 | 00:00:00 | |
| IW2NTF | 2026-09-05 00:07:38 | 44.65544 | 12.20707 | 96° | 38km/h | 19303m | 5.7m/s | -58.5°C | 5.7% | 0hPa | 2.6V | 08:30:00 | 01:33:46 | 00:00:00 | |
| DO3MHA-11 | 2026-09-05 00:07:33 | 44.65546 | 12.20679 | 96° | 37km/h | 19293m | 6.2m/s | -58.4°C | 5.7% | 0hPa | 2.6V | 00:00:00 | 01:33:44 | 00:00:00 | |
| IW2NTF | 2026-09-05 00:07:26 | 44.65538 | 12.20576 | 69° | 33km/h | 19251m | 6m/s | -58.4°C | 5.8% | 0hPa | 2.6V | 08:30:00 | 01:33:36 | 00:00:00 | |
| DO3MHA-11 | 2026-09-05 00:07:23 | 44.65533 | 12.20554 | 74° | 37km/h | 19241m | 4.6m/s | -58.3°C | 5.7% | 0hPa | 2.6V | 00:00:00 | 01:33:34 | 00:00:00 | |
| IW2NTF | 2026-09-05 00:07:16 | 44.65522 | 12.20450 | 77° | 35km/h | 19199m | 4.1m/s | -58.4°C | 5.7% | 0hPa | 2.6V | 08:30:00 | 01:33:26 | 00:00:00 | |
| DO3MHA-11 | 2026-09-05 00:07:13 | 44.65517 | 12.20427 | 73° | 33km/h | 19189m | 5.0m/s | -58.3°C | 5.7% | 0hPa | 2.6V | 00:00:00 | 01:33:24 | 00:00:00 | |
| IW2NTF | 2026-09-05 00:07:10 | 44.65490 | 12.20345 | 68° | 35km/h | 19145m | 5.8m/s | -58.3°C | 5.7% | 0hPa | 2.6V | 08:30:00 | 01:33:16 | 00:00:00 | |
| DO3MHA-11 | 2026-09-05 00:07:03 | 44.65485 | 12.20322 | 73° | 27km/h | 19135m | 3.7m/s | -58.2°C | 5.7% | 0hPa | 2.7V | 00:00:00 | 01:33:14 | 08:30:00 | |
| IW2NTF | 2026-09-05 00:07:00 | 44.65457 | 12.20252 | 48° | 26km/h | 19093m | 6.3m/s | -58.1°C | 5.6% | 0hPa | 2.6V | 08:30:00 | 01:33:06 | 00:00:00 | |
| IW2NTF | 2026-09-05 00:06:46 | 44.65428 | 12.20172 | 73° | 20km/h | 19041m | 5.8m/s | -58.1°C | 5.5% | 0hPa | 2.6V | 08:30:00 | 01:32:56 | 00:00:00 | |
| DO3MHA-11 | 2026-09-05 00:06:43 | 44.65425 | 12.20161 | 60° | 18km/h | 19030m | 5.7m/s | -58.0°C | 5.5% | 0hPa | 2.6V | 00:00:00 | 01:32:54 | 00:00:00 | |
| IW2NTF | 2026-09-05 00:06:36 | 44.65408 | 12.20115 | 74° | 16km/h | 18991m | 5.9m/s | -58°C | 5.5% | 0hPa | 2.6V | 08:30:00 | 01:32:46 | 00:00:00 | |
| DO3MHA-11 | 2026-09-05 00:06:33 | 44.65406 | 12.20106 | 71° | 13km/h | 18981m | 4.5m/s | -58.1°C | 5.5% | 0hPa | 2.6V | 00:00:00 | 01:32:44 | 00:00:00 | |
| IW2NTF | 2026-09-05 00:06:26 | 44.65395 | 12.20077 | 56° | 15km/h | 18941m | 5m/s | -58.8°C | 5.7% | 0hPa | 2.7V | 08:30:00 | 01:32:36 | 00:00:00 | |
| DO3MHA-11 | 2026-09-05 00:06:23 | 44.65391 | 12.20069 | 66° | 13km/h | 18931m | 4.2m/s | -58.8°C | 5.7% | 0hPa | 2.7V | 00:00:00 | 01:32:34 | 00:00:00 | |
| IW2NTF | 2026-09-05 00:06:17 | 44.65391 | 12.20036 | 108° | 15km/h | 18892m | 4.9m/s | -58.9°C | 5.8% | 0hPa | 2.7V | 08:30:00 | 01:32:26 | 00:00:00 | |
| DO3MHA-11 | 2026-09-05 00:06:13 | 44.65393 | 12.20024 | 102° | 18km/h | 18882m | 4.7m/s | -58.8°C | 5.8% | 0hPa | 2.7V | 00:00:00 | 01:32:24 | 00:00:00 | |
| IW2NTF | 2026-09-05 00:06:06 | 44.65401 | 12.19972 | 107° | 16km/h | 18841m | 4.6m/s | -59°C | 5.7% | 0hPa | 2.7V | 08:30:00 | 01:32:16 | 00:00:00 | |
| DO3MHA-11 | 2026-09-05 00:06:03 | 44.65403 | 12.19960 | 100° | 22km/h | 18831m | 5.3m/s | -59.1°C | 5.8% | 0hPa | 2.6V | 00:00:00 | 01:32:14 | 00:00:00 | |
| IW2NTF | 2026-09-05 00:05:56 | 44.65413 | 12.19898 | 95° | 20km/h | 18788m | 4.9m/s | -59.5°C | 5.9% | 0hPa | 2.6V | 08:30:00 | 01:32:06 | 00:00:00 | |
| DO3MHA-11 | 2026-09-05 00:05:53 | 44.65412 | 12.19882 | 83° | 29km/h | 18778m | 4.2m/s | -59.4°C | 6.0% | 0hPa | 2.6V | 00:00:00 | 01:32:04 | 00:00:00 | |
| IW2NTF | 2026-09-05 00:05:46 | 44.65411 | 12.19798 | 91° | 31km/h | 18737m | 4.4m/s | -59.6°C | 6.1% | 0hPa | 2.6V | 08:30:00 | 01:31:56 | 00:00:00 | |
| DO3MHA-11 | 2026-09-05 00:05:43 | 44.65411 | 12.19776 | 85° | 31km/h | 18727m | 5.5m/s | -59.5°C | 6.1% | 0hPa | 2.7V | 00:00:00 | 01:31:54 | 00:00:00 | |
| IW2NTF | 2026-09-05 00:05:36 | 44.65400 | 12.19695 | 83° | 37km/h | 18685m | 4.7m/s | -59.8°C | 6.1% | 0hPa | 2.7V | 08:30:00 | 01:31:46 | 00:00:00 | |
| DO3MHA-11 | 2026-09-05 00:05:33 | 44.65397 | 12.19667 | 83° | 37km/h | 18675m | 6.0m/s | -59.6°C | 6.0% | 0hPa | 2.6V | 00:00:00 | 01:31:44 | 08:30:00 | |
| IW2NTF | 2026-09-05 00:05:26 | 44.65379 | 12.19565 | 63° | 29km/h | 18633m | 6.1m/s | -59.4°C | 6.1% | 0hPa | 2.6V | 08:30:00 | 01:31:36 | 00:00:00 | |
| IW2NTF | 2026-09-05 00:05:17 | 44.65343 | 12.19456 | 67° | 40km/h | 18583m | 5.3m/s | -59.4°C | 6.1% | 0hPa | 2.7V | 08:30:00 | 01:31:26 | 00:00:00 | |
| IW2NTF | 2026-09-05 00:05:10 | 44.65312 | 12.19343 | 60° | 31km/h | 18532m | 4.6m/s | -59.2°C | 6% | 0hPa | 2.7V | 08:30:00 | 01:31:16 | 00:00:00 | |
| DO3MHA-11 | 2026-09-05 00:05:06 | 44.65315 | 12.19353 | 63° | 29km/h | 18537m | 4.4m/s | -59.2°C | 6.1% | 0hPa | 2.6V | 00:00:00 | 01:31:17 | 00:00:00 | |
| IW2NTF | 2026-09-05 00:04:56 | 44.65273 | 12.19255 | 69° | 31km/h | 18483m | 4.3m/s | -58.8°C | 6% | 0hPa | 2.6V | 08:30:00 | 01:31:06 | 00:00:00 | |
| DO3MHA-11 | 2026-09-05 00:04:56 | 44.65276 | 12.19265 | 67° | 31km/h | 18488m | 5.5m/s | -58.8°C | 6.0% | 0hPa | 2.6V | 00:00:00 | 01:31:07 | 00:00:00 | |
| IW2NTF | 2026-09-05 00:04:47 | 44.65234 | 12.19163 | 45° | 29km/h | 18433m | 6.2m/s | -58.4°C | 5.8% | 0hPa | 2.6V | 08:30:00 | 01:30:56 | 00:00:00 | |
| DO3MHA-11 | 2026-09-05 00:04:47 | 44.65240 | 12.19171 | 46° | 27km/h | 18439m | 4.5m/s | -58.4°C | 5.9% | 0hPa | 2.6V | 00:00:00 | 01:30:57 | 00:00:00 | |
| IW2NTF | 2026-09-05 00:04:40 | 44.65195 | 12.19087 | 45° | 26km/h | 18383m | 4m/s | -58.4°C | 5.6% | 0hPa | 2.6V | 08:30:00 | 01:30:46 | 00:00:00 | |
| DO3MHA-11 | 2026-09-05 00:04:36 | 44.65200 | 12.19094 | 49° | 26km/h | 18388m | 5.4m/s | -58.3°C | 5.6% | 0hPa | 2.6V | 00:00:00 | 01:30:47 | 00:00:00 | |
| IW2NTF | 2026-09-05 00:04:28 | 44.65170 | 12.19021 | 78° | 20km/h | 18332m | 4.4m/s | -58.8°C | 5.7% | 0hPa | 2.6V | 08:30:00 | 01:30:36 | 00:00:00 | |
| IW2NTF | 2026-09-05 00:04:16 | 44.65154 | 12.18937 | 89° | 22km/h | 18282m | 5.1m/s | -59.4°C | 6.1% | 0hPa | 2.7V | 08:30:00 | 01:30:26 | 00:00:00 | |
| IW2NTF | 2026-09-05 00:04:11 | 44.65151 | 12.18853 | 62° | 29km/h | 18233m | 5.2m/s | -59.5°C | 6.2% | 0hPa | 2.6V | 08:30:00 | 01:30:16 | 00:00:00 | |
| IW2NTF | 2026-09-05 00:04:00 | 44.65129 | 12.18789 | 78° | 13km/h | 18181m | 4.4m/s | -59.3°C | 6% | 0hPa | 2.6V | 08:30:00 | 01:30:06 | 00:00:00 | |
| IW2NTF | 2026-09-05 00:03:51 | 44.65118 | 12.18727 | 80° | 15km/h | 18131m | 4.4m/s | -59.6°C | 6.2% | 0hPa | 2.6V | 08:30:00 | 01:29:56 | 00:00:00 | |
| IW2NTF | 2026-09-05 00:03:37 | 44.65118 | 12.18655 | 88° | 27km/h | 18082m | 3.9m/s | -59.9°C | 6.3% | 0hPa | 2.7V | 08:30:00 | 01:29:46 | 00:00:00 | |
| IW2NTF | 2026-09-05 00:03:30 | 44.65124 | 12.18575 | 85° | 24km/h | 18033m | 5.4m/s | -60°C | 6.4% | 0hPa | 2.6V | 08:30:00 | 01:29:36 | 00:00:00 | |
| IW2NTF | 2026-09-05 00:03:20 | 44.65133 | 12.18499 | 119° | 18km/h | 17986m | 4.5m/s | -59.8°C | 6.3% | 0hPa | 2.6V | 08:30:00 | 01:29:26 | 00:00:00 | |
| IW2NTF | 2026-09-05 00:03:11 | 44.65139 | 12.18424 | 83° | 26km/h | 17938m | 4.5m/s | -59.7°C | 6.2% | 0hPa | 2.6V | 08:30:00 | 01:29:16 | 00:00:00 | |
| IW2NTF | 2026-09-05 00:03:01 | 44.65148 | 12.18336 | 94° | 22km/h | 17890m | 4.6m/s | -60.1°C | 6.3% | 0hPa | 2.7V | 08:30:00 | 01:29:06 | 00:00:00 | |
| DO3MHA-11 | 2026-09-05 00:02:59 | 44.65147 | 12.18319 | 81° | 27km/h | 17880m | 4.8m/s | -60.2°C | 6.4% | 0hPa | 2.6V | 00:00:00 | 01:29:04 | 00:00:00 | |
| IW2NTF | 2026-09-05 00:02:51 | 44.65139 | 12.18243 | 92° | 27km/h | 17843m | 5.1m/s | -60.2°C | 6.5% | 0hPa | 2.6V | 08:30:00 | 01:28:56 | 00:00:00 | |
| DO3MHA-11 | 2026-09-05 00:02:48 | 44.65138 | 12.18224 | 86° | 24km/h | 17834m | 4.8m/s | -60.1°C | 6.5% | 0hPa | 2.6V | 00:00:00 | 01:28:54 | 00:00:00 | |
| IW2NTF | 2026-09-05 00:02:40 | 44.65127 | 12.18159 | 75° | 26km/h | 17797m | 3.9m/s | -60°C | 6.5% | 0hPa | 2.6V | 08:30:00 | 01:28:46 | 00:00:00 | |
| DO3MHA-11 | 2026-09-05 00:02:33 | 44.65125 | 12.18142 | 84° | 22km/h | 17788m | 4.4m/s | -59.9°C | 6.4% | 0hPa | 2.6V | 00:00:00 | 01:28:44 | 00:00:00 | |
| IW2NTF | 2026-09-05 00:02:26 | 44.65127 | 12.18080 | 92° | 22km/h | 17749m | 6.1m/s | -60°C | 6.2% | 0hPa | 2.6V | 08:30:00 | 01:28:36 | 00:00:00 | |
| DO3MHA-11 | 2026-09-05 00:02:23 | 44.65127 | 12.18064 | 90° | 24km/h | 17739m | 5.5m/s | -60.0°C | 6.2% | 0hPa | 2.6V | 00:00:00 | 01:28:34 | 00:00:00 | |
| IW2NTF | 2026-09-05 00:02:18 | 44.65144 | 12.17985 | 127° | 20km/h | 17689m | 5.3m/s | -60.4°C | 6.6% | 0hPa | 2.6V | 08:30:00 | 01:28:24 | 00:00:00 | |
| DO3MHA-11 | 2026-09-05 00:02:17 | 44.65144 | 12.17985 | 128° | 24km/h | 17689m | 5.2m/s | -60.4°C | 6.6% | 0hPa | 2.6V | 00:00:00 | 01:28:24 | 08:30:00 | |
| IW2NTF | 2026-09-05 00:02:09 | 44.65186 | 12.17920 | 129° | 29km/h | 17642m | 4.7m/s | -60.4°C | 6.7% | 0hPa | 2.6V | 08:30:00 | 01:28:14 | 00:00:00 | |
| IW2NTF | 2026-09-05 00:01:57 | 44.65236 | 12.17836 | 126° | 33km/h | 17592m | 4.4m/s | -60.1°C | 6.6% | 0hPa | 2.6V | 08:30:00 | 01:28:04 | 00:00:00 | |
| DO3MHA-11 | 2026-09-05 00:01:57 | 44.65235 | 12.17836 | 127° | 37km/h | 17592m | 4.4m/s | -60.1°C | 6.6% | 0hPa | 2.7V | 00:00:00 | 01:28:04 | 00:00:00 | |
| IW2NTF | 2026-09-05 00:01:46 | 44.65285 | 12.17727 | 113° | 37km/h | 17542m | 5.2m/s | -59.9°C | 6.5% | 0hPa | 2.7V | 08:30:00 | 01:27:54 | 00:00:00 | |
| DO3MHA-11 | 2026-09-05 00:01:44 | 44.65285 | 12.17727 | 114° | 38km/h | 17542m | 5.1m/s | -59.9°C | 6.5% | 0hPa | 2.7V | 00:00:00 | 01:27:54 | 00:00:00 | |
| DO3MHA-11 | 2026-09-05 00:01:37 | 44.65332 | 12.17608 | 117° | 46km/h | 17493m | 5.5m/s | -60.0°C | 6.7% | 0hPa | 2.6V | 00:00:00 | 01:27:44 | 00:00:00 | |
| IW2NTF | 2026-09-05 00:01:37 | 44.65341 | 12.17581 | 109° | 46km/h | 17482m | 6m/s | -60°C | 6.7% | 0hPa | 2.6V | 08:30:00 | 01:27:42 | 00:00:00 | |
| DO3MHA-11 | 2026-09-05 00:01:26 | 44.65377 | 12.17459 | 119° | 47km/h | 17443m | 5.1m/s | -59.7°C | 6.5% | 0hPa | 2.6V | 00:00:00 | 01:27:34 | 00:00:00 | |
| IW2NTF | 2026-09-05 00:01:22 | 44.65389 | 12.17431 | 122° | 46km/h | 17433m | 4.9m/s | -59.7°C | 6.5% | 0hPa | 2.6V | 08:30:00 | 01:27:32 | 00:00:00 | |
| IW2NTF | 2026-09-05 00:01:12 | 44.65434 | 12.17276 | 107° | 46km/h | 17385m | 5.6m/s | -59.7°C | 6.5% | 0hPa | 2.7V | 08:30:00 | 01:27:22 | 00:00:00 | |
| S52SK | 2026-09-05 00:01:08 | 44.65455 | 12.17208 | 113° | 38km/h | 17361m | 4.5m/s | 0°C | 0% | 0hPa | 2.6V | 00:00:00 | 00:00:00 | 00:00:00 | |
| IW2NTF | 2026-09-05 00:01:06 | 44.65469 | 12.17136 | 101° | 44km/h | 17338m | 5m/s | -59.8°C | 6.6% | 0hPa | 2.6V | 08:30:00 | 01:27:12 | 00:00:00 | |
| IW2NTF | 2026-09-05 00:00:58 | 44.65490 | 12.16983 | 97° | 42km/h | 17291m | 4.2m/s | -60.2°C | 6.9% | 0hPa | 2.6V | 08:30:00 | 01:27:02 | 00:00:00 | |
| DO3MHA-11 | 2026-09-05 00:00:53 | 44.65488 | 12.16998 | 97° | 42km/h | 17296m | 5.1m/s | -60.1°C | 6.8% | 0hPa | 2.6V | 00:00:00 | 01:27:03 | 00:00:00 | |
| IW2NTF | 2026-09-05 00:00:44 | 44.65499 | 12.16830 | 93° | 49km/h | 17243m | 4.5m/s | -60.1°C | 6.9% | 0hPa | 2.6V | 08:30:00 | 01:26:52 | 00:00:00 | |
| DO3MHA-11 | 2026-09-05 00:00:43 | 44.65498 | 12.16847 | 95° | 47km/h | 17248m | 5.7m/s | -60.1°C | 6.9% | 0hPa | 2.6V | 00:00:00 | 01:26:53 | 08:30:00 | |
| DO3MHA-11 | 2026-09-05 00:00:36 | 44.65513 | 12.16678 | 101° | 51km/h | 17199m | 5.4m/s | -60.3°C | 7.2% | 0hPa | 2.7V | 00:00:00 | 01:26:43 | 00:00:00 | |
| IW2NTF | 2026-09-05 00:00:34 | 44.65515 | 12.16662 | 101° | 46km/h | 17194m | 3.9m/s | -60.5°C | 7.3% | 0hPa | 2.7V | 08:30:00 | 01:26:42 | 00:00:00 | |
| IW2NTF | 2026-09-05 00:00:23 | 44.65542 | 12.16482 | 103° | 55km/h | 17147m | 3.7m/s | -60.6°C | 7.3% | 0hPa | 2.6V | 08:30:00 | 01:26:32 | 00:00:00 | |
| DO3MHA-11 | 2026-09-05 00:00:23 | 44.65539 | 12.16501 | 104° | 53km/h | 17152m | 4.9m/s | -60.6°C | 7.4% | 0hPa | 2.6V | 00:00:00 | 01:26:33 | 00:00:00 | |
| IW2NTF | 2026-09-05 00:00:13 | 44.65568 | 12.16304 | 100° | 53km/h | 17102m | 4.1m/s | -60.7°C | 7.5% | 0hPa | 2.6V | 08:30:00 | 01:26:22 | 00:00:00 | |
| DO3MHA-11 | 2026-09-05 00:00:06 | 44.65573 | 12.16213 | 90° | 51km/h | 17079m | 4.3m/s | -60.7°C | 7.7% | 0hPa | 2.7V | 00:00:00 | 01:26:17 | 00:00:00 | |
| IW2NTF | 2026-09-05 00:00:04 | 44.65575 | 12.16126 | 96° | 49km/h | 17056m | 4.3m/s | -61.3°C | 7.9% | 0hPa | 2.7V | 08:30:00 | 01:26:12 | 00:00:00 | |
| DO3MHA-11 | 2026-09-04 23:59:54 | 44.65587 | 12.16001 | 93° | 47km/h | 17025m | 4.2m/s | -61.1°C | 7.7% | 0hPa | 2.6V | 00:00:00 | 01:26:05 | 00:00:00 | |
| IW2NTF | 2026-09-04 23:59:53 | 44.65586 | 12.15947 | 86° | 49km/h | 17011m | 3.4m/s | -61.3°C | 7.8% | 0hPa | 2.6V | 08:30:00 | 01:26:02 | 00:00:00 | |
| DO3MHA-11 | 2026-09-04 23:59:44 | 44.65585 | 12.15834 | 93° | 46km/h | 16978m | 4.0m/s | -61.6°C | 8.2% | 0hPa | 2.6V | 00:00:00 | 01:25:55 | 00:00:00 | |
| IW2NTF | 2026-09-04 23:59:43 | 44.65586 | 12.15788 | 89° | 46km/h | 16965m | 3.6m/s | -61.8°C | 8.3% | 0hPa | 2.6V | 08:30:00 | 01:25:52 | 00:00:00 | |
| DO3MHA-11 | 2026-09-04 23:59:34 | 44.65581 | 12.15671 | 85° | 42km/h | 16933m | 4.3m/s | -62.2°C | 8.6% | 0hPa | 2.6V | 00:00:00 | 01:25:45 | 00:00:00 | |
| IW2NTF | 2026-09-04 23:59:33 | 44.65578 | 12.15623 | 86° | 42km/h | 16920m | 3.9m/s | -62.2°C | 8.6% | 0hPa | 2.7V | 08:30:00 | 01:25:42 | 00:00:00 | |
| DO3MHA-11 | 2026-09-04 23:59:24 | 44.65573 | 12.15524 | 85° | 44km/h | 16890m | 5.1m/s | -62.3°C | 8.5% | 0hPa | 2.6V | 00:00:00 | 01:25:35 | 00:00:00 | |
| IW2NTF | 2026-09-04 23:59:23 | 44.65569 | 12.15476 | 83° | 47km/h | 16875m | 4.2m/s | -62.6°C | 8.6% | 0hPa | 2.6V | 08:30:00 | 01:25:32 | 00:00:00 | |
| DO3MHA-11 | 2026-09-04 23:59:14 | 44.65569 | 12.15371 | 98° | 46km/h | 16845m | 5.5m/s | -62.9°C | 8.9% | 0hPa | 2.7V | 00:00:00 | 01:25:25 | 00:00:00 | |
| IW2NTF | 2026-09-04 23:59:13 | 44.65573 | 12.15324 | 96° | 47km/h | 16831m | 4.7m/s | -63°C | 8.9% | 0hPa | 2.7V | 08:30:00 | 01:25:22 | 00:00:00 | |
| DO3MHA-11 | 2026-09-04 23:59:04 | 44.65583 | 12.15209 | 98° | 46km/h | 16801m | 5.0m/s | -62.9°C | 8.8% | 0hPa | 2.7V | 00:00:00 | 01:25:15 | 08:30:00 | |
| IW2NTF | 2026-09-04 23:59:03 | 44.65585 | 12.15162 | 92° | 46km/h | 16786m | 5.6m/s | -63.2°C | 9.1% | 0hPa | 2.6V | 08:30:00 | 01:25:12 | 00:00:00 | |
| IW2NTF | 2026-09-04 23:58:54 | 44.65591 | 12.15013 | 99° | 38km/h | 16739m | 4.7m/s | -63.7°C | 9.6% | 0hPa | 2.6V | 08:30:00 | 01:25:02 | 00:00:00 | |
| DO3MHA-11 | 2026-09-04 23:58:44 | 44.65594 | 12.14913 | 91° | 26km/h | 16706m | 4.5m/s | -63.6°C | 9.6% | 0hPa | 2.6V | 00:00:00 | 01:24:55 | 00:00:00 | |
| IW2NTF | 2026-09-04 23:58:43 | 44.65596 | 12.14867 | 83° | 22km/h | 16681m | 4.2m/s | -63.5°C | 9.7% | 0hPa | 2.6V | 08:30:00 | 01:24:50 | 00:00:00 | |
| DO3MHA-11 | 2026-09-04 23:58:34 | 44.65591 | 12.14824 | 75° | 31km/h | 16659m | 4.8m/s | -63.3°C | 9.8% | 0hPa | 2.7V | 00:00:00 | 01:24:45 | 00:00:00 | |
| IW2NTF | 2026-09-04 23:58:33 | 44.65586 | 12.14770 | 91° | 33km/h | 16634m | 4.5m/s | -63.3°C | 9.6% | 0hPa | 2.7V | 08:30:00 | 01:24:40 | 00:00:00 | |
| DO3MHA-11 | 2026-09-04 23:58:24 | 44.65592 | 12.14715 | 95° | 33km/h | 16603m | 7.6m/s | -63.3°C | 9.3% | 0hPa | 2.6V | 00:00:00 | 01:24:35 | 00:00:00 | |
| IW2NTF | 2026-09-04 23:58:23 | 44.65596 | 12.14657 | 102° | 37km/h | 16572m | 4.2m/s | -63.2°C | 9.5% | 0hPa | 2.6V | 08:30:00 | 01:24:30 | 00:00:00 | |
| IW2NTF | 2026-09-04 23:58:14 | 44.65618 | 12.14541 | 107° | 37km/h | 16524m | 4.8m/s | -63°C | 9.4% | 0hPa | 2.7V | 08:30:00 | 01:24:20 | 00:00:00 | |
| IW2NTF | 2026-09-04 23:58:05 | 44.65642 | 12.14412 | 105° | 40km/h | 16477m | 4.4m/s | -63.2°C | 9.4% | 0hPa | 2.6V | 08:30:00 | 01:24:10 | 00:00:00 | |
| DO3MHA-11 | 2026-09-04 23:58:04 | 44.65630 | 12.14475 | 107° | 40km/h | 16501m | 4.0m/s | -62.9°C | 9.4% | 0hPa | 2.6V | 00:00:00 | 01:24:15 | 00:00:00 | |
| DO3MHA-11 | 2026-09-04 23:57:54 | 44.65656 | 12.14337 | 105° | 38km/h | 16454m | 5.2m/s | -63.2°C | 9.4% | 0hPa | 2.7V | 00:00:00 | 01:24:05 | 00:00:00 | |
| IW2NTF | 2026-09-04 23:57:52 | 44.65668 | 12.14265 | 99° | 38km/h | 16429m | 5.9m/s | -63°C | 9.4% | 0hPa | 2.7V | 08:30:00 | 01:24:00 | 00:00:00 | |
| DO3MHA-11 | 2026-09-04 23:57:44 | 44.65675 | 12.14205 | 100° | 37km/h | 16406m | 5.5m/s | -63.2°C | 9.5% | 0hPa | 2.6V | 00:00:00 | 01:23:55 | 00:00:00 | |
| IW2NTF | 2026-09-04 23:57:42 | 44.65683 | 12.14144 | 98° | 37km/h | 16380m | 4.4m/s | -63.3°C | 9.4% | 0hPa | 2.6V | 08:30:00 | 01:23:50 | 00:00:00 | |
| DO3MHA-11 | 2026-09-04 23:57:34 | 44.65687 | 12.14080 | 89° | 33km/h | 16358m | 4.3m/s | -63.3°C | 9.6% | 0hPa | 2.6V | 00:00:00 | 01:23:45 | 08:30:00 | |
| IW2NTF | 2026-09-04 23:57:32 | 44.65688 | 12.14018 | 89° | 31km/h | 16335m | 4m/s | -63.2°C | 9.6% | 0hPa | 2.6V | 08:30:00 | 01:23:40 | 00:00:00 | |
| DO3MHA-11 | 2026-09-04 23:57:24 | 44.65690 | 12.13962 | 90° | 31km/h | 16314m | 4.7m/s | -63.0°C | 9.6% | 0hPa | 2.7V | 00:00:00 | 01:23:35 | 00:00:00 | |
| IW2NTF | 2026-09-04 23:57:23 | 44.65689 | 12.13908 | 85° | 31km/h | 16290m | 4.1m/s | -62.9°C | 9.5% | 0hPa | 2.7V | 08:30:00 | 01:23:30 | 00:00:00 | |
| DO3MHA-11 | 2026-09-04 23:57:14 | 44.65690 | 12.13852 | 92° | 33km/h | 16268m | 4.6m/s | -62.9°C | 9.4% | 0hPa | 2.6V | 00:00:00 | 01:23:25 | 00:00:00 | |
| IW2NTF | 2026-09-04 23:57:12 | 44.65693 | 12.13798 | 92° | 31km/h | 16244m | 3.9m/s | -62.9°C | 9.2% | 0hPa | 2.6V | 08:30:00 | 01:23:20 | 00:00:00 | |
| DO3MHA-11 | 2026-09-04 23:57:04 | 44.65695 | 12.13737 | 91° | 37km/h | 16221m | 3.9m/s | -62.8°C | 9.2% | 0hPa | 2.6V | 00:00:00 | 01:23:15 | 00:00:00 | |
| IW2NTF | 2026-09-04 23:57:00 | 44.65697 | 12.13673 | 93° | 35km/h | 16198m | 4.9m/s | -62.9°C | 9.3% | 0hPa | 2.6V | 08:30:00 | 01:23:10 | 00:00:00 | |
| DO3MHA-11 | 2026-09-04 23:56:54 | 44.65702 | 12.13611 | 100° | 40km/h | 16177m | 5.2m/s | -63.1°C | 9.3% | 0hPa | 2.6V | 00:00:00 | 01:23:05 | 00:00:00 | |
| IW2NTF | 2026-09-04 23:56:50 | 44.65710 | 12.13545 | 100° | 40km/h | 16154m | 5.1m/s | -63.4°C | 9.5% | 0hPa | 2.6V | 08:30:00 | 01:23:00 | 00:00:00 | |
| IW2NTF | 2026-09-04 23:56:44 | 44.65719 | 12.13415 | 97° | 29km/h | 16110m | 4.5m/s | -63.3°C | 9.5% | 0hPa | 2.6V | 08:30:00 | 01:22:50 | 00:00:00 | |
| DO3MHA-11 | 2026-09-04 23:56:44 | 44.65717 | 12.13472 | 97° | 33km/h | 16132m | 4.5m/s | 0°C | 0% | 0hPa | 2.7V | 00:00:00 | 01:22:55 | 00:00:00 | |
| DO3MHA-11 | 2026-09-04 23:56:34 | 44.65725 | 12.13355 | 101° | 29km/h | 16090m | 4.9m/s | 0°C | 0% | 0hPa | 2.7V | 00:00:00 | 01:22:45 | 00:00:00 | |
| IW2NTF | 2026-09-04 23:56:32 | 44.65732 | 12.13300 | 98° | 26km/h | 16066m | 5.7m/s | -63.3°C | 9.4% | 0hPa | 2.7V | 08:30:00 | 01:22:40 | 00:00:00 | |
| IW2NTF | 2026-09-04 23:56:24 | 44.65749 | 12.13211 | 111° | 29km/h | 16021m | 3.4m/s | -63.1°C | 9.5% | 0hPa | 2.7V | 08:30:00 | 01:22:30 | 00:00:00 | |
| DO3MHA-11 | 2026-09-04 23:56:24 | 44.65738 | 12.13257 | 108° | 27km/h | 16043m | 4.8m/s | 0°C | 0% | 0hPa | 2.6V | 00:00:00 | 01:22:35 | 00:00:00 | |
| IW2NTF | 2026-09-04 23:56:12 | 44.65773 | 12.13117 | 111° | 27km/h | 15977m | 3m/s | -62.8°C | 9.4% | 0hPa | 2.6V | 08:30:00 | 01:22:20 | 00:00:00 | |
| IW2NTF | 2026-09-04 23:56:02 | 44.65802 | 12.12992 | 109° | 29km/h | 15924m | 4.7m/s | -62.6°C | 9.2% | 0hPa | 2.6V | 08:30:00 | 01:22:08 | 00:00:00 | |
| DO3MHA-11 | 2026-09-04 23:55:53 | 44.65809 | 12.12950 | 100° | 35km/h | 15907m | 4.6m/s | 0°C | 0% | 0hPa | 2.6V | 00:00:00 | 01:22:04 | 00:00:00 | |
| IW2NTF | 2026-09-04 23:55:52 | 44.65819 | 12.12879 | 105° | 35km/h | 15879m | 4.6m/s | -62.4°C | 9.2% | 0hPa | 2.6V | 08:30:00 | 01:21:58 | 00:00:00 | |
| DO3MHA-11 | 2026-09-04 23:55:43 | 44.65832 | 12.12834 | 116° | 35km/h | 15862m | 4.3m/s | 0°C | 0% | 0hPa | 2.6V | 00:00:00 | 01:21:54 | 00:00:00 | |
| IW2NTF | 2026-09-04 23:55:42 | 44.65847 | 12.12761 | 98° | 35km/h | 15834m | 5.8m/s | -62.4°C | 9.4% | 0hPa | 2.6V | 08:30:00 | 01:21:48 | 00:00:00 | |
| DO3MHA-11 | 2026-09-04 23:55:33 | 44.65853 | 12.12711 | 109° | 40km/h | 15816m | 3.8m/s | 0°C | 0% | 0hPa | 2.7V | 00:00:00 | 01:21:44 | 00:00:00 | |
| IW2NTF | 2026-09-04 23:55:32 | 44.65877 | 12.12634 | 113° | 40km/h | 15788m | 5.2m/s | -62.4°C | 9.5% | 0hPa | 2.7V | 08:30:00 | 01:21:38 | 00:00:00 | |
| DO3MHA-11 | 2026-09-04 23:55:23 | 44.65891 | 12.12581 | 109° | 42km/h | 15771m | 3.8m/s | 0°C | 0% | 0hPa | 2.6V | 00:00:00 | 01:21:34 | 00:00:00 | |
| IW2NTF | 2026-09-04 23:55:22 | 44.65912 | 12.12497 | 111° | 42km/h | 15742m | 4.9m/s | -62.2°C | 9.3% | 0hPa | 2.6V | 08:30:00 | 01:21:28 | 00:00:00 | |
| IW2NTF | 2026-09-04 23:55:13 | 44.65947 | 12.12342 | 105° | 46km/h | 15695m | 4.5m/s | -62°C | 9.6% | 0hPa | 2.7V | 08:30:00 | 01:21:18 | 00:00:00 | |
| DO3MHA-11 | 2026-09-04 23:55:03 | 44.65960 | 12.12281 | 108° | 46km/h | 15676m | 4.9m/s | 0°C | 0% | 0hPa | 2.7V | 00:00:00 | 01:21:14 | 00:00:00 | |
| IW2NTF | 2026-09-04 23:55:02 | 44.65978 | 12.12191 | 102° | 46km/h | 15649m | 4.7m/s | -61.9°C | 9.6% | 0hPa | 2.7V | 08:30:00 | 01:21:08 | 00:00:00 | |
| DO3MHA-11 | 2026-09-04 23:54:53 | 44.65986 | 12.12124 | 97° | 46km/h | 15631m | 4.2m/s | 0°C | 0% | 0hPa | 2.6V | 00:00:00 | 01:21:04 | 00:00:00 | |
| IW2NTF | 2026-09-04 23:54:52 | 44.65998 | 12.12030 | 106° | 46km/h | 15603m | 4.1m/s | -62°C | 10% | 0hPa | 2.6V | 08:30:00 | 01:20:58 | 00:00:00 | |
| DO3MHA-11 | 2026-09-04 23:54:43 | 44.66011 | 12.11965 | 107° | 51km/h | 15586m | 5.3m/s | 0°C | 0% | 0hPa | 2.7V | 00:00:00 | 01:20:54 | 00:00:00 | |
| IW2NTF | 2026-09-04 23:54:42 | 44.66025 | 12.11854 | 97° | 53km/h | 15559m | 3.7m/s | -61.8°C | 10% | 0hPa | 2.7V | 08:30:00 | 01:20:48 | 00:00:00 | |
| IW2NTF | 2026-09-04 23:54:33 | 44.66048 | 12.11691 | 102° | 47km/h | 15514m | 3.5m/s | -61.5°C | 10.1% | 0hPa | 2.7V | 08:30:00 | 01:20:38 | 00:00:00 | |
| IW2NTF | 2026-09-04 23:54:22 | 44.66073 | 12.11525 | 99° | 51km/h | 15470m | 3.8m/s | -61.5°C | 10.2% | 0hPa | 2.7V | 08:30:00 | 01:20:28 | 00:00:00 | |
| IW2NTF | 2026-09-04 23:54:11 | 44.66099 | 12.11359 | 103° | 46km/h | 15422m | 4.8m/s | -61.5°C | 10.8% | 0hPa | 2.6V | 08:30:00 | 01:20:17 | 00:00:00 | |
| IW2NTF | 2026-09-04 23:54:01 | 44.66113 | 12.11201 | 97° | 42km/h | 15377m | 5.3m/s | -61.2°C | 10.5% | 0hPa | 2.7V | 08:30:00 | 01:20:07 | 00:00:00 | |
| IW2NTF | 2026-09-04 23:53:46 | 44.66140 | 12.11049 | 95° | 40km/h | 15331m | 5m/s | -62.1°C | 11.4% | 0hPa | 2.7V | 08:30:00 | 01:19:57 | 00:00:00 | |
| IW2NTF | 2026-09-04 23:53:41 | 44.66142 | 12.10897 | 93° | 46km/h | 15286m | 4.9m/s | -62.6°C | 11.7% | 0hPa | 2.7V | 08:30:00 | 01:19:47 | 00:00:00 | |
| IW2NTF | 2026-09-04 23:53:31 | 44.66122 | 12.10741 | 81° | 42km/h | 15240m | 4.2m/s | -63.5°C | 12.9% | 0hPa | 2.7V | 08:30:00 | 01:19:37 | 00:00:00 | |
| IW2NTF | 2026-09-04 23:53:21 | 44.66111 | 12.10593 | 77° | 33km/h | 15194m | 3.7m/s | -64°C | 13.5% | 0hPa | 2.7V | 08:30:00 | 01:19:27 | 00:00:00 | |
| IW2NTF | 2026-09-04 23:53:10 | 44.66109 | 12.10440 | 92° | 38km/h | 15143m | 4.2m/s | -63.9°C | 13.9% | 0hPa | 2.7V | 08:30:00 | 01:19:16 | 00:00:00 | |
| IW2NTF | 2026-09-04 23:53:00 | 44.66118 | 12.10297 | 95° | 47km/h | 15096m | 4.1m/s | -63.6°C | 14.3% | 0hPa | 2.7V | 08:30:00 | 01:19:06 | 00:00:00 | |
| IW2NTF | 2026-09-04 23:52:50 | 44.66125 | 12.10138 | 94° | 46km/h | 15048m | 4.3m/s | -63.2°C | 14.7% | 0hPa | 2.7V | 08:30:00 | 01:18:56 | 00:00:00 | |
| IW2NTF | 2026-09-04 23:52:40 | 44.66130 | 12.09969 | 86° | 49km/h | 15002m | 3.9m/s | -63.1°C | 15.1% | 0hPa | 2.7V | 08:30:00 | 01:18:46 | 00:00:00 | |
| IW2NTF | 2026-09-04 23:52:30 | 44.66137 | 12.09794 | 90° | 53km/h | 14957m | 4m/s | -63.1°C | 15.8% | 0hPa | 2.7V | 08:30:00 | 01:18:36 | 00:00:00 | |
| IW2NTF | 2026-09-04 23:52:20 | 44.66138 | 12.09621 | 96° | 51km/h | 14910m | 5.4m/s | -62.9°C | 15.8% | 0hPa | 2.8V | 08:30:00 | 01:18:26 | 00:00:00 | |
| IW2NTF | 2026-09-04 23:52:09 | 44.66147 | 12.09449 | 92° | 44km/h | 14863m | 3.8m/s | -64.1°C | 18% | 0hPa | 2.8V | 08:30:00 | 01:18:16 | 00:00:00 | |
| IW2NTF | 2026-09-04 23:52:00 | 44.66155 | 12.09281 | 92° | 46km/h | 14817m | 4.1m/s | -65.2°C | 20.6% | 0hPa | 2.7V | 08:30:00 | 01:18:06 | 00:00:00 | |
| IW2NTF | 2026-09-04 23:51:47 | 44.66162 | 12.09109 | 88° | 51km/h | 14771m | 4.4m/s | -65.4°C | 22.2% | 0hPa | 2.7V | 08:30:00 | 01:17:56 | 00:00:00 | |
| IW2NTF | 2026-09-04 23:51:37 | 44.66168 | 12.08943 | 82° | 47km/h | 14726m | 4.9m/s | -65.8°C | 23.6% | 0hPa | 2.8V | 08:30:00 | 01:17:46 | 00:00:00 | |
| IW2NTF | 2026-09-04 23:51:26 | 44.66151 | 12.08777 | 86° | 46km/h | 14681m | 5m/s | -65.5°C | 24.5% | 0hPa | 2.7V | 08:30:00 | 01:17:36 | 00:00:00 | |
| IW2NTF | 2026-09-04 23:51:17 | 44.66129 | 12.08574 | 90° | 44km/h | 14625m | 4m/s | -65.4°C | 24.8% | 0hPa | 2.8V | 08:30:00 | 01:17:23 | 00:00:00 | |
| IW2NTF | 2026-09-04 23:51:05 | 44.66116 | 12.08428 | 84° | 38km/h | 14583m | 5.5m/s | -65.1°C | 24.8% | 0hPa | 2.7V | 08:30:00 | 01:17:13 | 00:00:00 | |
| IW2NTF | 2026-09-04 23:50:54 | 44.66103 | 12.08293 | 76° | 38km/h | 14538m | 3.7m/s | -64.7°C | 25.7% | 0hPa | 2.7V | 08:30:00 | 01:17:03 | 00:00:00 | |
| IW2NTF | 2026-09-04 23:50:44 | 44.66094 | 12.08178 | 81° | 37km/h | 14495m | 4.1m/s | -64.6°C | 26.1% | 0hPa | 2.8V | 08:30:00 | 01:16:53 | 00:00:00 | |
| IW2NTF | 2026-09-04 23:50:34 | 44.66082 | 12.08053 | 89° | 33km/h | 14451m | 5m/s | -65°C | 29.3% | 0hPa | 2.7V | 08:30:00 | 01:16:43 | 00:00:00 | |
| IW2NTF | 2026-09-04 23:50:24 | 44.66086 | 12.07927 | 85° | 31km/h | 14402m | 5.2m/s | -64.8°C | 31.1% | 0hPa | 2.8V | 08:30:00 | 01:16:32 | 00:00:00 | |
| IW2NTF | 2026-09-04 23:50:16 | 44.66099 | 12.07805 | 99° | 35km/h | 14359m | 5m/s | -64.8°C | 32.8% | 0hPa | 2.7V | 08:30:00 | 01:16:22 | 00:00:00 | |
| IW2NTF | 2026-09-04 23:50:04 | 44.66119 | 12.07677 | 106° | 40km/h | 14315m | 5.5m/s | -64.9°C | 36.6% | 0hPa | 2.8V | 08:30:00 | 01:16:12 | 00:00:00 | |
| IW2NTF | 2026-09-04 23:49:54 | 44.66158 | 12.07537 | 117° | 44km/h | 14269m | 4.6m/s | -65.5°C | 40.3% | 0hPa | 2.7V | 08:30:00 | 01:16:02 | 00:00:00 | |
| IW2NTF | 2026-09-04 23:49:44 | 44.66195 | 12.07374 | 92° | 53km/h | 14224m | 5.3m/s | -66.2°C | 45.3% | 0hPa | 2.7V | 08:30:00 | 01:15:52 | 00:00:00 | |
| IW2NTF | 2026-09-04 23:49:34 | 44.66222 | 12.07171 | 96° | 60km/h | 14183m | 4m/s | -65.9°C | 46% | 0hPa | 2.7V | 08:30:00 | 01:15:42 | 00:00:00 | |
| IW2NTF | 2026-09-04 23:49:24 | 44.66241 | 12.06959 | 105° | 60km/h | 14138m | 4.6m/s | -65.8°C | 46.6% | 0hPa | 2.7V | 08:30:00 | 01:15:32 | 00:00:00 | |
| IW2NTF | 2026-09-04 23:49:15 | 44.66273 | 12.06732 | 94° | 64km/h | 14095m | 4.8m/s | -65.9°C | 48.3% | 0hPa | 2.8V | 08:30:00 | 01:15:22 | 00:00:00 | |
| IW2NTF | 2026-09-04 23:49:01 | 44.66303 | 12.06407 | 94° | 66km/h | 14029m | 4.2m/s | -66.3°C | 52.5% | 0hPa | 2.7V | 08:30:00 | 01:15:07 | 00:00:00 | |
| IW2NTF | 2026-09-04 23:48:47 | 44.66321 | 12.06192 | 102° | 57km/h | 13988m | 4.4m/s | -66°C | 52.6% | 0hPa | 2.7V | 08:30:00 | 01:14:57 | 00:00:00 | |
| IW2NTF | 2026-09-04 23:48:42 | 44.66335 | 12.05966 | 96° | 64km/h | 13945m | 4.6m/s | -66.3°C | 54.2% | 0hPa | 2.8V | 08:30:00 | 01:14:47 | 00:00:00 | |
| IW2NTF | 2026-09-04 23:48:31 | 44.66364 | 12.05728 | 92° | 69km/h | 13900m | 5.1m/s | -66.1°C | 57.1% | 0hPa | 2.8V | 08:30:00 | 01:14:37 | 00:00:00 | |
| IW2NTF | 2026-09-04 23:48:21 | 44.66388 | 12.05495 | 93° | 66km/h | 13858m | 3.6m/s | -66.2°C | 57.8% | 0hPa | 2.7V | 08:30:00 | 01:14:27 | 00:00:00 | |
| IW2NTF | 2026-09-04 23:48:11 | 44.66388 | 12.05259 | 88° | 64km/h | 13814m | 4.7m/s | -66.2°C | 60.9% | 0hPa | 2.7V | 08:30:00 | 01:14:17 | 00:00:00 | |
| IW2NTF | 2026-09-04 23:48:01 | 44.66375 | 12.05040 | 82° | 60km/h | 13768m | 5.1m/s | -65.9°C | 59% | 0hPa | 2.7V | 08:30:00 | 01:14:07 | 00:00:00 | |
| IW2NTF | 2026-09-04 23:47:52 | 44.66346 | 12.04839 | 81° | 57km/h | 13726m | 5.2m/s | -65.7°C | 62.3% | 0hPa | 2.7V | 08:30:00 | 01:13:57 | 00:00:00 | |
| IW2NTF | 2026-09-04 23:47:41 | 44.66315 | 12.04640 | 77° | 53km/h | 13683m | 4.9m/s | -66.7°C | 66.3% | 0hPa | 2.8V | 08:30:00 | 01:13:47 | 00:00:00 | |
| IW2NTF | 2026-09-04 23:47:31 | 44.66306 | 12.04438 | 81° | 57km/h | 13640m | 4.6m/s | -66.4°C | 67.3% | 0hPa | 2.7V | 08:30:00 | 01:13:37 | 00:00:00 | |
| IW2NTF | 2026-09-04 23:47:21 | 44.66296 | 12.04238 | 87° | 58km/h | 13597m | 3.8m/s | -66.2°C | 66.5% | 0hPa | 2.7V | 08:30:00 | 01:13:27 | 00:00:00 | |
| IW2NTF | 2026-09-04 23:47:11 | 44.66283 | 12.04045 | 87° | 55km/h | 13553m | 4.1m/s | -65.8°C | 64.1% | 0hPa | 2.7V | 08:30:00 | 01:13:17 | 00:00:00 | |
| IW2NTF | 2026-09-04 23:47:01 | 44.66285 | 12.03847 | 84° | 58km/h | 13509m | 4.9m/s | -65.5°C | 61.5% | 0hPa | 2.7V | 08:30:00 | 01:13:07 | 00:00:00 | |
| IW2NTF | 2026-09-04 23:46:51 | 44.66275 | 12.03647 | 90° | 55km/h | 13464m | 3.5m/s | -65.2°C | 61% | 0hPa | 2.7V | 08:30:00 | 01:12:57 | 00:00:00 | |
| IW2NTF | 2026-09-04 23:46:41 | 44.66266 | 12.03447 | 85° | 57km/h | 13421m | 3.6m/s | -64.8°C | 60.4% | 0hPa | 2.8V | 08:30:00 | 01:12:47 | 00:00:00 | |
| IW2NTF | 2026-09-04 23:46:31 | 44.66251 | 12.03243 | 88° | 58km/h | 13377m | 4.4m/s | -64.5°C | 59% | 0hPa | 2.8V | 08:30:00 | 01:12:37 | 00:00:00 | |
| IW2NTF | 2026-09-04 23:46:21 | 44.66243 | 12.03042 | 85° | 53km/h | 13333m | 4.2m/s | -64.1°C | 56.6% | 0hPa | 2.8V | 08:30:00 | 01:12:27 | 00:00:00 | |
| IW2NTF | 2026-09-04 23:46:11 | 44.66234 | 12.02835 | 84° | 62km/h | 13287m | 4.2m/s | -63.8°C | 57.3% | 0hPa | 2.8V | 08:30:00 | 01:12:17 | 00:00:00 | |
| IW2NTF | 2026-09-04 23:45:59 | 44.66217 | 12.02632 | 82° | 60km/h | 13243m | 4m/s | -63.4°C | 56.4% | 0hPa | 2.7V | 08:30:00 | 01:12:07 | 00:00:00 | |
| IW2NTF | 2026-09-04 23:45:49 | 44.66198 | 12.02426 | 79° | 58km/h | 13197m | 5m/s | -63°C | 54.6% | 0hPa | 2.8V | 08:30:00 | 01:11:57 | 00:00:00 | |
| IW2NTF | 2026-09-04 23:45:39 | 44.66181 | 12.02213 | 81° | 57km/h | 13150m | 3.9m/s | -62.7°C | 53.3% | 0hPa | 2.8V | 08:30:00 | 01:11:47 | 00:00:00 | |
| IW2NTF | 2026-09-04 23:45:29 | 44.66164 | 12.01998 | 85° | 60km/h | 13104m | 3.6m/s | -62.4°C | 52.9% | 0hPa | 2.7V | 08:30:00 | 01:11:37 | 00:00:00 | |
| IW2NTF | 2026-09-04 23:45:19 | 44.66144 | 12.01791 | 82° | 64km/h | 13057m | 5.3m/s | -62.1°C | 52.9% | 0hPa | 2.8V | 08:30:00 | 01:11:27 | 00:00:00 | |
| IW2NTF | 2026-09-04 23:45:09 | 44.66129 | 12.01574 | 82° | 60km/h | 13011m | 4.3m/s | -61.8°C | 52.4% | 0hPa | 2.8V | 08:30:00 | 01:11:17 | 00:00:00 | |
| IW2NTF | 2026-09-04 23:44:59 | 44.66109 | 12.01354 | 81° | 58km/h | 12963m | 4.7m/s | -61.5°C | 50.6% | 0hPa | 2.8V | 08:30:00 | 01:11:07 | 00:00:00 | |
| IW2NTF | 2026-09-04 23:44:49 | 44.66093 | 12.01129 | 83° | 64km/h | 12915m | 3.5m/s | -61.1°C | 49.5% | 0hPa | 2.7V | 08:30:00 | 01:10:57 | 00:00:00 | |
| IW2NTF | 2026-09-04 23:44:39 | 44.66075 | 12.00906 | 85° | 66km/h | 12867m | 5m/s | -60.8°C | 48.7% | 0hPa | 2.8V | 08:30:00 | 01:10:47 | 00:00:00 | |
| IW2NTF | 2026-09-04 23:44:29 | 44.66062 | 12.00680 | 82° | 64km/h | 12821m | 4.2m/s | -60.4°C | 47.1% | 0hPa | 2.7V | 08:30:00 | 01:10:37 | 00:00:00 | |
| IW2NTF | 2026-09-04 23:44:19 | 44.66048 | 12.00452 | 87° | 66km/h | 12773m | 5.2m/s | -60°C | 44.9% | 0hPa | 2.8V | 08:30:00 | 01:10:27 | 00:00:00 | |
| IW2NTF | 2026-09-04 23:44:09 | 44.66034 | 12.00225 | 86° | 66km/h | 12727m | 5.1m/s | -59.6°C | 43.8% | 0hPa | 2.7V | 08:30:00 | 01:10:17 | 00:00:00 | |
| IW2NTF | 2026-09-04 23:43:59 | 44.66012 | 12.00003 | 82° | 66km/h | 12682m | 5.2m/s | -59.2°C | 42.1% | 0hPa | 2.7V | 08:30:00 | 01:10:07 | 00:00:00 | |
| IW2NTF | 2026-09-04 23:43:49 | 44.65995 | 11.99778 | 81° | 64km/h | 12635m | 4.4m/s | -58.8°C | 40.4% | 0hPa | 2.7V | 08:30:00 | 01:09:57 | 00:00:00 | |
| IW2NTF | 2026-09-04 23:43:39 | 44.65977 | 11.99555 | 80° | 62km/h | 12587m | 4.1m/s | -58.4°C | 40.7% | 0hPa | 2.8V | 08:30:00 | 01:09:47 | 00:00:00 | |
| IW2NTF | 2026-09-04 23:43:30 | 44.65952 | 11.99334 | 80° | 62km/h | 12541m | 4.3m/s | -58°C | 39.8% | 0hPa | 2.7V | 08:30:00 | 01:09:37 | 00:00:00 | |
| IW2NTF | 2026-09-04 23:43:20 | 44.65919 | 11.99125 | 82° | 66km/h | 12496m | 4.4m/s | -57.7°C | 38.7% | 0hPa | 2.7V | 08:30:00 | 01:09:27 | 00:00:00 | |
| IW2NTF | 2026-09-04 23:43:08 | 44.65890 | 11.98912 | 75° | 60km/h | 12451m | 5.5m/s | -57.2°C | 40% | 0hPa | 2.7V | 08:30:00 | 01:09:17 | 00:00:00 | |
| IW2NTF | 2026-09-04 23:43:02 | 44.65854 | 11.98703 | 73° | 62km/h | 12399m | 6.5m/s | -57°C | 39.9% | 0hPa | 2.7V | 08:30:00 | 01:09:07 | 00:00:00 | |
| IW2NTF | 2026-09-04 23:42:50 | 44.65812 | 11.98509 | 70° | 55km/h | 12350m | 3.9m/s | -56.7°C | 39.3% | 0hPa | 2.8V | 08:30:00 | 01:08:57 | 00:00:00 | |
| IW2NTF | 2026-09-04 23:42:41 | 44.65764 | 11.98321 | 69° | 55km/h | 12304m | 3.9m/s | -56.4°C | 38.7% | 0hPa | 2.8V | 08:30:00 | 01:08:47 | 00:00:00 | |
| IW2NTF | 2026-09-04 23:42:31 | 44.65714 | 11.98139 | 66° | 58km/h | 12260m | 4m/s | -56.1°C | 37.6% | 0hPa | 2.8V | 08:30:00 | 01:08:37 | 00:00:00 | |
| IW2NTF | 2026-09-04 23:42:21 | 44.65667 | 11.97955 | 72° | 53km/h | 12221m | 4.7m/s | -55.7°C | 37% | 0hPa | 2.7V | 08:30:00 | 01:08:27 | 00:00:00 | |
| IW2NTF | 2026-09-04 23:42:11 | 44.65615 | 11.97775 | 62° | 55km/h | 12177m | 5.5m/s | -55.3°C | 36% | 0hPa | 2.8V | 08:30:00 | 01:08:17 | 00:00:00 | |
| IW2NTF | 2026-09-04 23:42:01 | 44.65563 | 11.97600 | 65° | 51km/h | 12131m | 4.5m/s | -54.9°C | 35.3% | 0hPa | 2.7V | 08:30:00 | 01:08:07 | 00:00:00 | |
| IW2NTF | 2026-09-04 23:41:50 | 44.65505 | 11.97432 | 62° | 51km/h | 12088m | 3.8m/s | -54.5°C | 34.2% | 0hPa | 2.8V | 08:30:00 | 01:07:57 | 00:00:00 | |
| IW2NTF | 2026-09-04 23:41:41 | 44.65446 | 11.97262 | 69° | 51km/h | 12047m | 3.2m/s | -54.3°C | 33.8% | 0hPa | 2.8V | 08:30:00 | 01:07:47 | 00:00:00 | |
| IW2NTF | 2026-09-04 23:41:29 | 44.65388 | 11.97094 | 65° | 51km/h | 12008m | 3.8m/s | -54°C | 33.2% | 0hPa | 2.7V | 08:30:00 | 01:07:37 | 00:00:00 | |
| IW2NTF | 2026-09-04 23:41:19 | 44.65338 | 11.96919 | 65° | 53km/h | 11965m | 4.9m/s | -53.7°C | 33.3% | 0hPa | 2.8V | 08:30:00 | 01:07:27 | 00:00:00 | |
| IW2NTF | 2026-09-04 23:41:09 | 44.65287 | 11.96746 | 71° | 55km/h | 11925m | 4.8m/s | -53.4°C | 34.4% | 0hPa | 2.8V | 08:30:00 | 01:07:17 | 00:00:00 | |
| IW2NTF | 2026-09-04 23:40:59 | 44.65242 | 11.96568 | 71° | 53km/h | 11882m | 3.1m/s | -53.1°C | 34.7% | 0hPa | 2.8V | 08:30:00 | 01:07:07 | 00:00:00 | |
| IW2NTF | 2026-09-04 23:40:49 | 44.65200 | 11.96389 | 70° | 51km/h | 11842m | 4.6m/s | -52.8°C | 34.4% | 0hPa | 2.8V | 08:30:00 | 01:06:57 | 00:00:00 | |
| IW2NTF | 2026-09-04 23:40:40 | 44.65160 | 11.96210 | 77° | 55km/h | 11802m | 3.8m/s | -52.6°C | 34.7% | 0hPa | 2.8V | 08:30:00 | 01:06:47 | 00:00:00 | |
| IW2NTF | 2026-09-04 23:40:02 | 44.65023 | 11.95497 | 76° | 53km/h | 11646m | 4.8m/s | -51.3°C | 31.8% | 0hPa | 2.8V | 08:30:00 | 01:06:08 | 00:00:00 | |
| IW2NTF | 2026-09-04 23:39:49 | 44.64993 | 11.95307 | 75° | 53km/h | 11606m | 3.6m/s | -51°C | 30.6% | 0hPa | 2.8V | 08:30:00 | 01:05:58 | 00:00:00 | |
| IW2NTF | 2026-09-04 23:39:42 | 44.64965 | 11.95117 | 83° | 60km/h | 11563m | 3.5m/s | -50.7°C | 30.3% | 0hPa | 2.8V | 08:30:00 | 01:05:48 | 00:00:00 | |
| IW2NTF | 2026-09-04 23:39:32 | 44.64941 | 11.94920 | 78° | 57km/h | 11523m | 4.5m/s | -50.3°C | 29.6% | 0hPa | 2.8V | 08:30:00 | 01:05:38 | 00:00:00 | |
| IW2NTF | 2026-09-04 23:39:22 | 44.64924 | 11.94713 | 81° | 53km/h | 11479m | 4.6m/s | -49.9°C | 27.9% | 0hPa | 2.8V | 08:30:00 | 01:05:28 | 00:00:00 | |
| IW2NTF | 2026-09-04 23:39:12 | 44.64911 | 11.94507 | 83° | 60km/h | 11440m | 3.6m/s | -49.5°C | 27.7% | 0hPa | 2.8V | 08:30:00 | 01:05:18 | 00:00:00 | |
| IW2NTF | 2026-09-04 23:39:02 | 44.64900 | 11.94297 | 86° | 60km/h | 11401m | 3.4m/s | -49.2°C | 26.6% | 0hPa | 2.9V | 08:30:00 | 01:05:08 | 00:00:00 | |
| IW2NTF | 2026-09-04 23:38:49 | 44.64891 | 11.94041 | 88° | 62km/h | 11353m | 5m/s | -48.7°C | 25.4% | 0hPa | 2.8V | 08:30:00 | 01:04:56 | 00:00:00 | |
| IW2NTF | 2026-09-04 23:38:37 | 44.64883 | 11.93823 | 89° | 60km/h | 11312m | 5.1m/s | -48.3°C | 24.3% | 0hPa | 2.9V | 08:30:00 | 01:04:46 | 00:00:00 | |
| IW2NTF | 2026-09-04 23:38:31 | 44.64881 | 11.93604 | 92° | 60km/h | 11270m | 4m/s | -48°C | 23.8% | 0hPa | 2.8V | 08:30:00 | 01:04:36 | 00:00:00 | |
| IW2NTF | 2026-09-04 23:38:20 | 44.64886 | 11.93386 | 89° | 60km/h | 11230m | 5.2m/s | -47.6°C | 23.4% | 0hPa | 2.9V | 08:30:00 | 01:04:26 | 00:00:00 | |
| IW2NTF | 2026-09-04 23:38:10 | 44.64886 | 11.93173 | 90° | 62km/h | 11190m | 5.2m/s | -47.3°C | 23.1% | 0hPa | 2.8V | 08:30:00 | 01:04:16 | 00:00:00 | |
| IW2NTF | 2026-09-04 23:38:00 | 44.64883 | 11.92965 | 87° | 58km/h | 11147m | 4m/s | -47.1°C | 24% | 0hPa | 2.8V | 08:30:00 | 01:04:06 | 00:00:00 | |
| IW2NTF | 2026-09-04 23:37:46 | 44.64877 | 11.92753 | 86° | 55km/h | 11107m | 4.3m/s | -46.9°C | 24.8% | 0hPa | 2.9V | 08:30:00 | 01:03:56 | 00:00:00 | |
| IW2NTF | 2026-09-04 23:37:40 | 44.64872 | 11.92546 | 86° | 58km/h | 11066m | 3.6m/s | -46.8°C | 27% | 0hPa | 2.9V | 08:30:00 | 01:03:46 | 00:00:00 | |
| IW2NTF | 2026-09-04 23:37:26 | 44.64864 | 11.92330 | 86° | 57km/h | 11025m | 4.3m/s | -46.5°C | 27.7% | 0hPa | 2.9V | 08:30:00 | 01:03:36 | 00:00:00 | |
| IW2NTF | 2026-09-04 23:37:21 | 44.64861 | 11.92116 | 91° | 64km/h | 10985m | 3.6m/s | -46.3°C | 28.5% | 0hPa | 2.9V | 08:30:00 | 01:03:26 | 00:00:00 | |
| IW2NTF | 2026-09-04 23:37:06 | 44.64857 | 11.91903 | 88° | 58km/h | 10946m | 4.7m/s | -45.9°C | 27.6% | 0hPa | 2.8V | 08:30:00 | 01:03:16 | 00:00:00 | |
| IW2NTF | 2026-09-04 23:37:00 | 44.64859 | 11.91683 | 88° | 60km/h | 10906m | 3.1m/s | -45.6°C | 27.1% | 0hPa | 2.9V | 08:30:00 | 01:03:06 | 00:00:00 | |
| IW2NTF | 2026-09-04 23:36:46 | 44.64854 | 11.91464 | 90° | 66km/h | 10866m | 4.6m/s | -45.2°C | 26.7% | 0hPa | 2.8V | 08:30:00 | 01:02:56 | 00:00:00 | |
| IW2NTF | 2026-09-04 23:36:40 | 44.64852 | 11.91251 | 90° | 57km/h | 10827m | 3.3m/s | -44.9°C | 26.9% | 0hPa | 2.8V | 08:30:00 | 01:02:46 | 00:00:00 | |
| IW2NTF | 2026-09-04 23:36:30 | 44.64852 | 11.91033 | 89° | 64km/h | 10787m | 3.2m/s | -44.6°C | 27.2% | 0hPa | 2.9V | 08:30:00 | 01:02:36 | 00:00:00 | |
| IW2NTF | 2026-09-04 23:36:20 | 44.64857 | 11.90815 | 92° | 60km/h | 10745m | 3.9m/s | -44.3°C | 27.2% | 0hPa | 2.9V | 08:30:00 | 01:02:26 | 00:00:00 | |
| IW2NTF | 2026-09-04 23:36:10 | 44.64866 | 11.90590 | 95° | 62km/h | 10702m | 3.7m/s | -44°C | 25.7% | 0hPa | 2.8V | 08:30:00 | 01:02:16 | 00:00:00 | |
| IW2NTF | 2026-09-04 23:36:00 | 44.64873 | 11.90380 | 91° | 58km/h | 10659m | 4.9m/s | -43.6°C | 25% | 0hPa | 2.8V | 08:30:00 | 01:02:06 | 00:00:00 | |
| IW2NTF | 2026-09-04 23:35:50 | 44.64877 | 11.90176 | 87° | 58km/h | 10616m | 4.1m/s | -43.2°C | 24% | 0hPa | 2.9V | 08:30:00 | 01:01:56 | 00:00:00 | |
| IW2NTF | 2026-09-04 23:35:40 | 44.64884 | 11.89967 | 91° | 57km/h | 10573m | 4m/s | -42.8°C | 24.2% | 0hPa | 2.9V | 08:30:00 | 01:01:46 | 00:00:00 | |
| IW2NTF | 2026-09-04 23:35:30 | 44.64889 | 11.89760 | 93° | 57km/h | 10531m | 4m/s | -42.6°C | 25.4% | 0hPa | 2.8V | 08:30:00 | 01:01:36 | 00:00:00 | |
| IW2NTF | 2026-09-04 23:35:20 | 44.64899 | 11.89551 | 96° | 68km/h | 10487m | 3.8m/s | -42.2°C | 24.7% | 0hPa | 2.9V | 08:30:00 | 01:01:26 | 00:00:00 | |
| IW2NTF | 2026-09-04 23:35:10 | 44.64917 | 11.89335 | 95° | 62km/h | 10447m | 4.1m/s | -41.8°C | 24% | 0hPa | 2.9V | 08:30:00 | 01:01:16 | 00:00:00 | |
| IW2NTF | 2026-09-04 23:35:00 | 44.64937 | 11.89124 | 96° | 62km/h | 10403m | 4.7m/s | -41.4°C | 23.1% | 0hPa | 2.8V | 08:30:00 | 01:01:06 | 00:00:00 | |
| IW2NTF | 2026-09-04 23:34:49 | 44.64952 | 11.88910 | 97° | 57km/h | 10360m | 4.9m/s | -41°C | 22.6% | 0hPa | 2.9V | 08:30:00 | 01:00:56 | 00:00:00 | |
| IW2NTF | 2026-09-04 23:34:39 | 44.64972 | 11.88693 | 98° | 64km/h | 10318m | 4.2m/s | -40.7°C | 22.7% | 0hPa | 2.9V | 08:30:00 | 01:00:46 | 00:00:00 | |
| IW2NTF | 2026-09-04 23:34:30 | 44.64993 | 11.88478 | 97° | 62km/h | 10276m | 4.3m/s | -40.3°C | 21.9% | 0hPa | 2.9V | 08:30:00 | 01:00:36 | 00:00:00 | |
| IW2NTF | 2026-09-04 23:34:16 | 44.65017 | 11.88257 | 98° | 58km/h | 10231m | 2.8m/s | -40°C | 22.4% | 0hPa | 2.9V | 08:30:00 | 01:00:26 | 00:00:00 | |
| IW2NTF | 2026-09-04 23:34:10 | 44.65043 | 11.88041 | 100° | 66km/h | 10188m | 5.2m/s | -39.6°C | 21.8% | 0hPa | 2.8V | 08:30:00 | 01:00:16 | 00:00:00 | |
| IW2NTF | 2026-09-04 23:34:00 | 44.65072 | 11.87827 | 102° | 60km/h | 10146m | 5.4m/s | -39.2°C | 21.2% | 0hPa | 2.9V | 08:30:00 | 01:00:06 | 00:00:00 | |
| IW2NTF | 2026-09-04 23:33:50 | 44.65108 | 11.87612 | 103° | 60km/h | 10102m | 3.5m/s | -38.8°C | 20.4% | 0hPa | 2.8V | 08:30:00 | 00:59:56 | 00:00:00 | |
| IW2NTF | 2026-09-04 23:33:39 | 44.65145 | 11.87377 | 103° | 64km/h | 10056m | 4.3m/s | -38.4°C | 19.7% | 0hPa | 2.9V | 08:30:00 | 00:59:45 | 00:00:00 | |
| IW2NTF | 2026-09-04 23:33:22 | 44.65200 | 11.87037 | 102° | 64km/h | 9987m | 4.8m/s | -37.7°C | 18.3% | 0hPa | 2.8V | 08:30:00 | 00:59:29 | 00:00:00 | |
| IW2NTF | 2026-09-04 23:33:12 | 44.65237 | 11.86823 | 104° | 60km/h | 9946m | 5.2m/s | -37.3°C | 17.5% | 0hPa | 2.9V | 08:30:00 | 00:59:19 | 00:00:00 | |
| IW2NTF | 2026-09-04 23:32:58 | 44.65273 | 11.86593 | 99° | 58km/h | 9897m | 4m/s | -36.9°C | 16.9% | 0hPa | 2.9V | 08:30:00 | 00:59:08 | 00:00:00 | |
| IW2NTF | 2026-09-04 23:32:52 | 44.65305 | 11.86382 | 104° | 60km/h | 9854m | 4.1m/s | -36.5°C | 16.1% | 0hPa | 2.9V | 08:30:00 | 00:58:58 | 00:00:00 | |
| IW2NTF | 2026-09-04 23:32:42 | 44.65335 | 11.86184 | 101° | 57km/h | 9812m | 5.9m/s | -36.2°C | 15.5% | 0hPa | 2.9V | 08:30:00 | 00:58:48 | 00:00:00 | |
| IW2NTF | 2026-09-04 23:32:32 | 44.65363 | 11.85988 | 101° | 58km/h | 9768m | 4.2m/s | -35.8°C | 15% | 0hPa | 2.9V | 08:30:00 | 00:58:38 | 00:00:00 | |
| IW2NTF | 2026-09-04 23:32:22 | 44.65391 | 11.85793 | 101° | 58km/h | 9725m | 3.5m/s | -35.4°C | 14.4% | 0hPa | 2.8V | 08:30:00 | 00:58:28 | 00:00:00 | |
| IW2NTF | 2026-09-04 23:32:12 | 44.65416 | 11.85595 | 98° | 58km/h | 9683m | 3.9m/s | -35.1°C | 14.1% | 0hPa | 2.9V | 08:30:00 | 00:58:18 | 00:00:00 | |
| IW2NTF | 2026-09-04 23:31:58 | 44.65443 | 11.85369 | 96° | 53km/h | 9635m | 4.4m/s | -34.7°C | 13.1% | 0hPa | 2.9V | 08:30:00 | 00:58:06 | 00:00:00 | |
| IW2NTF | 2026-09-04 23:31:49 | 44.65463 | 11.85182 | 102° | 53km/h | 9594m | 4.1m/s | -34.3°C | 12.3% | 0hPa | 2.9V | 08:30:00 | 00:57:56 | 00:00:00 | |
| IW2NTF | 2026-09-04 23:31:40 | 44.65483 | 11.84992 | 102° | 55km/h | 9552m | 3.2m/s | -33.9°C | 12% | 0hPa | 2.8V | 08:30:00 | 00:57:46 | 00:00:00 | |
| IW2NTF | 2026-09-04 23:31:28 | 44.65511 | 11.84804 | 97° | 53km/h | 9510m | 4.5m/s | -33.7°C | 11.9% | 0hPa | 2.9V | 08:30:00 | 00:57:36 | 00:00:00 | |
| IW2NTF | 2026-09-04 23:31:20 | 44.65535 | 11.84619 | 100° | 55km/h | 9469m | 4.2m/s | -33.3°C | 12.3% | 0hPa | 2.9V | 08:30:00 | 00:57:26 | 00:00:00 | |
| IW2NTF | 2026-09-04 23:31:10 | 44.65556 | 11.84428 | 97° | 57km/h | 9427m | 3.9m/s | -33.1°C | 12.9% | 0hPa | 2.8V | 08:30:00 | 00:57:16 | 00:00:00 | |
| IW2NTF | 2026-09-04 23:31:00 | 44.65576 | 11.84240 | 96° | 53km/h | 9385m | 4.6m/s | -33°C | 13.8% | 0hPa | 2.9V | 08:30:00 | 00:57:06 | 00:00:00 | |
| IW2NTF | 2026-09-04 23:30:49 | 44.65590 | 11.84050 | 98° | 49km/h | 9345m | 4.2m/s | -32.6°C | 13.2% | 0hPa | 2.9V | 08:30:00 | 00:56:56 | 00:00:00 | |
| IW2NTF | 2026-09-04 23:30:39 | 44.65604 | 11.83869 | 94° | 53km/h | 9305m | 3.8m/s | -32.2°C | 12.9% | 0hPa | 2.8V | 08:30:00 | 00:56:46 | 00:00:00 | |
| IW2NTF | 2026-09-04 23:30:30 | 44.65620 | 11.83692 | 94° | 49km/h | 9266m | 3.6m/s | -31.9°C | 12.5% | 0hPa | 2.9V | 08:30:00 | 00:56:36 | 00:00:00 | |
| IW2NTF | 2026-09-04 23:30:22 | 44.65627 | 11.83502 | 93° | 49km/h | 9224m | 3.8m/s | -31.7°C | 12.4% | 0hPa | 2.9V | 08:30:00 | 00:56:26 | 00:00:00 | |
| IW2NTF | 2026-09-04 23:30:09 | 44.65632 | 11.83297 | 84° | 47km/h | 9172m | 4.1m/s | -31.3°C | 12.8% | 0hPa | 2.9V | 08:30:00 | 00:56:14 | 00:00:00 | |
| IW2NTF | 2026-09-04 23:29:58 | 44.65635 | 11.83125 | 90° | 51km/h | 9131m | 3.8m/s | -30.9°C | 12.5% | 0hPa | 2.9V | 08:30:00 | 00:56:04 | 00:00:00 | |
| IW2NTF | 2026-09-04 23:29:48 | 44.65637 | 11.82950 | 91° | 49km/h | 9089m | 4.8m/s | -30.6°C | 12.1% | 0hPa | 2.9V | 08:30:00 | 00:55:54 | 00:00:00 | |
| IW2NTF | 2026-09-04 23:29:38 | 44.65641 | 11.82767 | 89° | 49km/h | 9046m | 3.8m/s | -30.2°C | 11.9% | 0hPa | 2.8V | 08:30:00 | 00:55:44 | 00:00:00 | |
| IW2NTF | 2026-09-04 23:29:28 | 44.65639 | 11.82591 | 86° | 49km/h | 9002m | 4.3m/s | -29.9°C | 11.8% | 0hPa | 2.9V | 08:30:00 | 00:55:34 | 00:00:00 | |
| IW2NTF | 2026-09-04 23:29:18 | 44.65638 | 11.82423 | 87° | 46km/h | 8961m | 5.3m/s | -29.5°C | 11.7% | 0hPa | 2.9V | 08:30:00 | 00:55:24 | 00:00:00 | |
| IW2NTF | 2026-09-04 23:29:08 | 44.65641 | 11.82251 | 93° | 49km/h | 8918m | 3.3m/s | -29.2°C | 11.7% | 0hPa | 2.9V | 08:30:00 | 00:55:14 | 00:00:00 | |
| IW2NTF | 2026-09-04 23:28:58 | 44.65652 | 11.82075 | 89° | 49km/h | 8876m | 3.5m/s | -28.9°C | 11.9% | 0hPa | 2.9V | 08:30:00 | 00:55:04 | 00:00:00 | |
| IW2NTF | 2026-09-04 23:28:46 | 44.65654 | 11.81868 | 87° | 46km/h | 8825m | 4.2m/s | -28.5°C | 11.5% | 0hPa | 2.9V | 08:30:00 | 00:54:52 | 00:00:00 | |
| IW2NTF | 2026-09-04 23:28:36 | 44.65649 | 11.81706 | 85° | 47km/h | 8784m | 4.7m/s | -28.4°C | 11.5% | 0hPa | 2.9V | 08:30:00 | 00:54:42 | 00:00:00 | |
| IW2NTF | 2026-09-04 23:28:26 | 44.65644 | 11.81551 | 86° | 44km/h | 8743m | 2.7m/s | -28.1°C | 11.5% | 0hPa | 2.9V | 08:30:00 | 00:54:32 | 00:00:00 | |
| IW2NTF | 2026-09-04 23:28:14 | 44.65643 | 11.81386 | 86° | 44km/h | 8705m | 5.2m/s | -27.8°C | 10.8% | 0hPa | 2.9V | 08:30:00 | 00:54:22 | 00:00:00 | |
| IW2NTF | 2026-09-04 23:28:06 | 44.65633 | 11.81229 | 84° | 44km/h | 8662m | 3.8m/s | -27.5°C | 10.2% | 0hPa | 2.9V | 08:30:00 | 00:54:12 | 00:00:00 | |
| IW2NTF | 2026-09-04 23:27:54 | 44.65623 | 11.81069 | 88° | 44km/h | 8621m | 3.6m/s | -27.4°C | 11.8% | 0hPa | 2.9V | 08:30:00 | 00:54:02 | 00:00:00 | |
| IW2NTF | 2026-09-04 23:27:43 | 44.65618 | 11.80909 | 84° | 44km/h | 8580m | 4.1m/s | -27.2°C | 13.3% | 0hPa | 2.9V | 08:30:00 | 00:53:52 | 00:00:00 | |
| IW2NTF | 2026-09-04 23:27:37 | 44.65610 | 11.80765 | 88° | 46km/h | 8541m | 4m/s | -27.1°C | 14.7% | 0hPa | 2.9V | 08:30:00 | 00:53:42 | 00:00:00 | |
| IW2NTF | 2026-09-04 23:27:26 | 44.65604 | 11.80601 | 89° | 46km/h | 8499m | 3.8m/s | -26.9°C | 15% | 0hPa | 2.9V | 08:30:00 | 00:53:32 | 00:00:00 | |
| IW2NTF | 2026-09-04 23:26:04 | 44.65667 | 11.79301 | 91° | 42km/h | 8150m | 4.6m/s | -24.1°C | 14.2% | 0hPa | 2.9V | 08:30:00 | 00:52:10 | 00:00:00 | |
| IW2NTF | 2026-09-04 23:25:50 | 44.65673 | 11.79117 | 96° | 47km/h | 8101m | 4.5m/s | -23.7°C | 13.7% | 0hPa | 2.9V | 08:30:00 | 00:51:58 | 00:00:00 | |
| IW2NTF | 2026-09-04 23:25:39 | 44.65682 | 11.78955 | 93° | 42km/h | 8062m | 3m/s | -23.3°C | 13.4% | 0hPa | 2.9V | 08:30:00 | 00:51:48 | 00:00:00 | |
| IW2NTF | 2026-09-04 23:25:29 | 44.65686 | 11.78794 | 97° | 46km/h | 8022m | 4.6m/s | -23°C | 13.1% | 0hPa | 2.9V | 08:30:00 | 00:51:38 | 00:00:00 | |
| IW2NTF | 2026-09-04 23:25:22 | 44.65691 | 11.78634 | 94° | 47km/h | 7980m | 5.5m/s | -22.6°C | 13% | 0hPa | 2.9V | 08:30:00 | 00:51:28 | 00:00:00 | |
| IW2NTF | 2026-09-04 23:25:11 | 44.65697 | 11.78431 | 89° | 44km/h | 7932m | 4.5m/s | -22.3°C | 13.3% | 0hPa | 2.9V | 08:30:00 | 00:51:16 | 00:00:00 | |
| IW2NTF | 2026-09-04 23:24:57 | 44.65719 | 11.78263 | 98° | 53km/h | 7889m | 4.9m/s | -22.1°C | 13.8% | 0hPa | 2.9V | 08:30:00 | 00:51:06 | 00:00:00 | |
| IW2NTF | 2026-09-04 23:24:47 | 44.65733 | 11.78092 | 99° | 46km/h | 7847m | 4.5m/s | -21.8°C | 14.1% | 0hPa | 2.9V | 08:30:00 | 00:50:56 | 00:00:00 | |
| IW2NTF | 2026-09-04 23:24:38 | 44.65765 | 11.77919 | 99° | 47km/h | 7802m | 4m/s | -21.6°C | 14% | 0hPa | 2.9V | 08:30:00 | 00:50:46 | 00:00:00 | |
| IW2NTF | 2026-09-04 23:24:27 | 44.65792 | 11.77757 | 107° | 47km/h | 7760m | 3.4m/s | -21.3°C | 14.1% | 0hPa | 2.9V | 08:30:00 | 00:50:36 | 00:00:00 | |
| IW2NTF | 2026-09-04 23:24:17 | 44.65819 | 11.77598 | 104° | 46km/h | 7718m | 5.1m/s | -21.2°C | 15% | 0hPa | 2.9V | 08:30:00 | 00:50:26 | 00:00:00 | |
| IW2NTF | 2026-09-04 23:24:10 | 44.65841 | 11.77441 | 101° | 40km/h | 7678m | 3.9m/s | -20.9°C | 14.6% | 0hPa | 2.9V | 08:30:00 | 00:50:16 | 00:00:00 | |
| IW2NTF | 2026-09-04 23:24:00 | 44.65865 | 11.77299 | 105° | 40km/h | 7637m | 4.9m/s | -20.6°C | 15% | 0hPa | 2.9V | 08:30:00 | 00:50:06 | 00:00:00 | |
| IW2NTF | 2026-09-04 23:23:50 | 44.65882 | 11.77163 | 102° | 38km/h | 7596m | 5m/s | -20.3°C | 14.2% | 0hPa | 2.9V | 08:30:00 | 00:49:56 | 00:00:00 | |
| IW2NTF | 2026-09-04 23:23:41 | 44.65889 | 11.77028 | 93° | 38km/h | 7554m | 4.9m/s | -19.9°C | 14.5% | 0hPa | 2.9V | 08:30:00 | 00:49:46 | 00:00:00 | |
| IW2NTF | 2026-09-04 23:23:31 | 44.65906 | 11.76898 | 90° | 33km/h | 7501m | 5.6m/s | -19.5°C | 14.2% | 0hPa | 2.9V | 08:30:00 | 00:49:36 | 00:00:00 | |
| IW2NTF | 2026-09-04 23:23:18 | 44.65924 | 11.76728 | 91° | 38km/h | 7439m | 6.9m/s | -19.1°C | 14.5% | 0hPa | 2.9V | 08:30:00 | 00:49:24 | 00:00:00 | |
| IW2NTF | 2026-09-04 23:23:03 | 44.65936 | 11.76584 | 102° | 35km/h | 7382m | 3.6m/s | -18.7°C | 15.8% | 0hPa | 3V | 08:30:00 | 00:49:14 | 00:00:00 | |
| IW2NTF | 2026-09-04 23:22:55 | 44.65938 | 11.76443 | 90° | 46km/h | 7330m | 4.4m/s | -18.5°C | 20.1% | 0hPa | 2.9V | 08:30:00 | 00:49:04 | 00:00:00 | |
| IW2NTF | 2026-09-04 23:22:45 | 44.65948 | 11.76293 | 97° | 40km/h | 7280m | 8.3m/s | -18°C | 19.1% | 0hPa | 3V | 08:30:00 | 00:48:54 | 00:00:00 | |
| IW2NTF | 2026-09-04 23:22:34 | 44.65971 | 11.76154 | 94° | 40km/h | 7221m | 5.5m/s | -17.7°C | 23.2% | 0hPa | 3V | 08:30:00 | 00:48:44 | 00:00:00 | |
| IW2NTF | 2026-09-04 23:22:28 | 44.65979 | 11.76018 | 108° | 40km/h | 7167m | 4m/s | -17.4°C | 22.7% | 0hPa | 2.9V | 08:30:00 | 00:48:34 | 00:00:00 | |
| IW2NTF | 2026-09-04 23:22:14 | 44.66007 | 11.75870 | 107° | 47km/h | 7108m | 3.9m/s | -16.9°C | 22.2% | 0hPa | 2.9V | 08:30:00 | 00:48:24 | 00:00:00 | |
| IW2NTF | 2026-09-04 23:22:05 | 44.66037 | 11.75710 | 100° | 42km/h | 7049m | 5.8m/s | -16.5°C | 19.1% | 0hPa | 3V | 08:30:00 | 00:48:14 | 00:00:00 | |
| IW2NTF | 2026-09-04 23:21:54 | 44.66050 | 11.75569 | 100° | 47km/h | 7000m | 7.6m/s | -16.1°C | 19.3% | 0hPa | 3V | 08:30:00 | 00:48:04 | 00:00:00 | |
| IW2NTF | 2026-09-04 23:21:44 | 44.66074 | 11.75409 | 102° | 46km/h | 6947m | 6.4m/s | -15.6°C | 18.9% | 0hPa | 3V | 08:30:00 | 00:47:54 | 00:00:00 | |
| IW2NTF | 2026-09-04 23:21:34 | 44.66097 | 11.75261 | 101° | 44km/h | 6886m | 6.5m/s | -15.3°C | 18.1% | 0hPa | 3V | 08:30:00 | 00:47:44 | 00:00:00 | |
| IW2NTF | 2026-09-04 23:21:25 | 44.66117 | 11.75100 | 102° | 49km/h | 6833m | 3.9m/s | -15°C | 20.7% | 0hPa | 3V | 08:30:00 | 00:47:34 | 00:00:00 | |
| IW2NTF | 2026-09-04 23:21:14 | 44.66137 | 11.74944 | 98° | 40km/h | 6781m | 4m/s | -14.8°C | 23.3% | 0hPa | 3V | 08:30:00 | 00:47:24 | 00:00:00 | |
| IW2NTF | 2026-09-04 23:21:04 | 44.66155 | 11.74777 | 99° | 47km/h | 6734m | 3m/s | -14.4°C | 24.1% | 0hPa | 2.9V | 08:30:00 | 00:47:14 | 00:00:00 | |
| IW2NTF | 2026-09-04 23:20:55 | 44.66159 | 11.74612 | 93° | 49km/h | 6692m | 5.9m/s | -14°C | 24% | 0hPa | 3V | 08:30:00 | 00:47:04 | 00:00:00 | |
| IW2NTF | 2026-09-04 23:20:44 | 44.66171 | 11.74438 | 96° | 42km/h | 6631m | 6.3m/s | -13.5°C | 24.6% | 0hPa | 3V | 08:30:00 | 00:46:54 | 00:00:00 | |
| IW2NTF | 2026-09-04 23:20:35 | 44.66176 | 11.74275 | 99° | 51km/h | 6576m | 5.5m/s | -13.1°C | 24.1% | 0hPa | 3V | 08:30:00 | 00:46:44 | 00:00:00 | |
| IW2NTF | 2026-09-04 23:20:24 | 44.66180 | 11.74106 | 90° | 44km/h | 6529m | 3.4m/s | -12.7°C | 24.2% | 0hPa | 3V | 08:30:00 | 00:46:34 | 00:00:00 | |
| IW2NTF | 2026-09-04 23:20:15 | 44.66182 | 11.73941 | 91° | 40km/h | 6486m | 2.1m/s | -12.4°C | 22.6% | 0hPa | 3V | 08:30:00 | 00:46:24 | 00:00:00 | |
| IW2NTF | 2026-09-04 23:20:05 | 44.66183 | 11.73781 | 93° | 46km/h | 6437m | 4.6m/s | -12.1°C | 24% | 0hPa | 3V | 08:30:00 | 00:46:14 | 00:00:00 | |
| IW2NTF | 2026-09-04 23:19:55 | 44.66193 | 11.73605 | 93° | 51km/h | 6397m | 3.9m/s | -11.7°C | 0% | 0hPa | 3V | 08:30:00 | 00:46:04 | 00:00:00 | |
| IW2NTF | 2026-09-04 23:19:44 | 44.66197 | 11.73444 | 92° | 42km/h | 6356m | 3.7m/s | -11.5°C | 0% | 0hPa | 3V | 08:30:00 | 00:45:54 | 00:00:00 | |
| IW2NTF | 2026-09-04 23:19:35 | 44.66208 | 11.73258 | 90° | 51km/h | 6309m | 4.1m/s | -11.2°C | 0% | 0hPa | 3V | 00:00:00 | 00:45:44 | 00:00:00 | |
| IW2NTF | 2026-09-04 23:19:24 | 44.66214 | 11.73073 | 93° | 55km/h | 6261m | 4.8m/s | -10.7°C | 0% | 0hPa | 3V | 00:00:00 | 00:45:34 | 00:00:00 | |
| IW2NTF | 2026-09-04 23:19:14 | 44.66220 | 11.72888 | 92° | 51km/h | 6219m | 4.9m/s | -10.3°C | 0% | 0hPa | 3V | 00:00:00 | 00:45:24 | 00:00:00 | |
| IW2NTF | 2026-09-04 23:19:04 | 44.66219 | 11.72705 | 89° | 53km/h | 6182m | 3.3m/s | -10°C | 0% | 0hPa | 3V | 00:00:00 | 00:45:14 | 00:00:00 | |
| IW2NTF | 2026-09-04 23:18:55 | 44.66212 | 11.72513 | 86° | 57km/h | 6138m | 5m/s | 0°C | 0% | 0hPa | 3V | 00:00:00 | 00:45:04 | 00:00:00 | |
| IW2NTF | 2026-09-04 23:18:44 | 44.66212 | 11.72332 | 88° | 46km/h | 6086m | 6.8m/s | 0°C | 0% | 0hPa | 3V | 00:00:00 | 00:44:54 | 00:00:00 | |
| IW2NTF | 2026-09-04 23:17:25 | 44.66209 | 11.71170 | 76° | 40km/h | 5654m | 6.2m/s | 0°C | 0% | 0hPa | 3V | 00:00:00 | 00:43:33 | 00:00:00 | |
| IW2NTF | 2026-09-04 23:17:15 | 44.66188 | 11.71042 | 85° | 35km/h | 5601m | 4.6m/s | 0°C | 0% | 0hPa | 3V | 00:00:00 | 00:43:23 | 00:00:00 | |
| IW2NTF | 2026-09-04 23:13:28 | 44.65963 | 11.68258 | 87° | 31km/h | 4364m | 4.9m/s | 0°C | 0% | 0hPa | 3V | 00:00:00 | 00:39:36 | 00:00:00 | |
| IW2NTF | 2026-09-04 23:13:16 | 44.65956 | 11.68148 | 73° | 33km/h | 4314m | 7.8m/s | 0°C | 0% | 0hPa | 3V | 00:00:00 | 00:39:26 | 00:00:00 | |
| IW2NTF | 2026-09-04 23:13:11 | 44.65950 | 11.68086 | 78° | 31km/h | 4273m | 5.6m/s | 0°C | 0% | 0hPa | 3V | 00:00:00 | 00:39:20 | 00:00:00 |